Provisional Data: Trout Run near Shawville, PA


Please select a monitoring station.
Please select start date.
Please select start date.

Toggle Unit: C/F Toggle Unit: C/F
Sample Time Temperature (C) Temperature (F) Specific Conductivity (mS/cm) pH   Turbidity (NTU+) DO (mg/L)
1/12/2021 12:00:00 AM 2.33 36.194 0.042 5.99 1.15 13.31
1/12/2021 12:15:00 AM 2.34 36.212 0.042 5.99 1.12 13.31
1/12/2021 12:30:00 AM 2.34 36.212 0.041 5.99 1.25 13.31
1/12/2021 12:45:00 AM -100000 -179968 -100000 -100000 -100000 -100000
1/12/2021 1:00:00 AM 2.33 36.194 0.042 5.99 1.17 13.3
1/12/2021 1:15:00 AM 2.32 36.176 0.042 5.99 1.24 13.31
1/12/2021 1:30:00 AM 2.31 36.158 0.042 5.99 1.19 13.31
1/12/2021 1:45:00 AM 2.29 36.122 0.042 5.99 1.23 13.31
1/12/2021 2:00:00 AM 2.29 36.122 0.042 5.99 1.25 13.31
1/12/2021 2:15:00 AM 2.29 36.122 0.042 5.99 1.17 13.31
1/12/2021 2:30:00 AM 2.29 36.122 0.042 5.99 1.19 13.32
1/12/2021 2:45:00 AM 2.29 36.122 0.041 5.99 1.2 13.32
1/12/2021 3:00:00 AM 2.29 36.122 0.042 5.99 1.19 13.32
1/12/2021 3:15:00 AM 2.29 36.122 0.042 5.99 1.16 13.32
1/12/2021 3:30:00 AM 2.28 36.104 0.042 5.99 1.18 13.32
1/12/2021 3:45:00 AM 2.27 36.086 0.042 5.99 1.18 13.32
1/12/2021 4:00:00 AM 2.26 36.068 0.042 5.99 1.31 13.32
1/12/2021 4:15:00 AM 2.26 36.068 0.042 5.99 1.19 13.33
1/12/2021 4:30:00 AM 2.25 36.05 0.042 5.99 1.14 13.32
1/12/2021 4:45:00 AM 2.23 36.014 0.042 5.99 1.2 13.33
1/12/2021 5:00:00 AM 2.22 35.996 0.042 5.99 1.16 13.34
1/12/2021 5:15:00 AM 2.21 35.978 0.042 5.99 1.24 13.34
1/12/2021 5:30:00 AM 2.2 35.96 0.042 5.99 1.19 13.34
1/12/2021 5:45:00 AM -100000 -179968 -100000 -100000 -100000 -100000
1/12/2021 6:00:00 AM 2.18 35.924 0.042 5.99 1.17 13.35
1/12/2021 6:15:00 AM 2.17 35.906 0.042 5.99 1.17 13.36
1/12/2021 6:30:00 AM 2.16 35.888 0.042 5.99 1.18 13.36
1/12/2021 6:45:00 AM 2.16 35.888 0.042 5.99 1.23 13.37
1/12/2021 7:00:00 AM 2.15 35.87 0.042 5.99 1.26 13.37
1/12/2021 7:15:00 AM 2.14 35.852 0.042 5.99 1.17 13.38
1/12/2021 7:30:00 AM -100000 -179968 -100000 -100000 -100000 -100000
1/12/2021 7:45:00 AM 2.12 35.816 0.042 5.99 1.18 13.38
1/12/2021 8:00:00 AM 2.12 35.816 0.042 5.99 1.12 13.38
1/12/2021 8:15:00 AM 2.12 35.816 0.042 6 1.19 13.39
1/12/2021 8:30:00 AM 2.11 35.798 0.042 6 1.2 13.4
1/12/2021 8:45:00 AM 2.11 35.798 0.042 6 1.14 13.4
1/12/2021 9:00:00 AM 2.12 35.816 0.042 6 1.22 13.41
1/12/2021 9:15:00 AM 2.12 35.816 0.042 6 1.19 13.41
1/12/2021 9:30:00 AM -100000 -179968 -100000 -100000 -100000 -100000
1/12/2021 9:45:00 AM 2.13 35.834 0.042 6 1.18 13.43
1/12/2021 10:00:00 AM 2.14 35.852 0.042 6 1.19 13.43
1/12/2021 10:15:00 AM 2.17 35.906 0.042 6 1.15 13.44
1/12/2021 10:30:00 AM 2.2 35.96 0.042 6.01 1.18 13.44
1/12/2021 10:45:00 AM 2.23 36.014 0.042 6.01 1.21 13.43
1/12/2021 11:00:00 AM 2.25 36.05 0.042 6 1.17 13.42
1/12/2021 11:15:00 AM 2.28 36.104 0.042 6.01 1.18 13.41
1/12/2021 11:30:00 AM 2.32 36.176 0.042 6.01 1.14 13.4
1/12/2021 11:45:00 AM 2.37 36.266 0.042 6 1.21 13.38
1/12/2021 12:00:00 PM 2.41 36.338 0.042 6.01 1.17 13.36
1/12/2021 12:15:00 PM 2.46 36.428 0.042 6.01 1.21 13.34
1/12/2021 12:30:00 PM -100000 -179968 -100000 -100000 -100000 -100000
1/12/2021 12:45:00 PM 2.58 36.644 0.042 6.01 1.19 13.3
1/12/2021 1:00:00 PM 2.65 36.77 0.042 6.01 1.57 13.26
1/12/2021 1:15:00 PM 2.72 36.896 0.042 6.01 1.19 13.25
1/12/2021 1:30:00 PM 2.77 36.986 0.042 6.02 1.21 13.23
1/12/2021 1:45:00 PM 2.83 37.094 0.042 6.02 1.17 13.21
1/12/2021 2:00:00 PM 2.88 37.184 0.042 6.02 1.14 13.18
1/12/2021 2:15:00 PM 2.92 37.256 0.042 6.01 1.28 13.16
1/12/2021 2:30:00 PM 2.94 37.292 0.042 6.01 1.11 13.14
1/12/2021 2:45:00 PM -100000 -179968 -100000 -100000 -100000 -100000
1/12/2021 3:00:00 PM 3.01 37.418 0.042 6.02 1.34 13.1
1/12/2021 3:15:00 PM 3.04 37.472 0.042 6.02 1.12 13.09
1/12/2021 3:30:00 PM 3.08 37.544 0.042 6.02 1.16 13.08
1/12/2021 3:45:00 PM 3.11 37.598 0.042 6.02 1.16 13.06
1/12/2021 4:00:00 PM -100000 -179968 -100000 -100000 -100000 -100000
1/12/2021 4:15:00 PM 3.13 37.634 0.042 6.01 1.27 13.03
1/12/2021 4:30:00 PM 3.13 37.634 0.042 6.01 1.13 13.03
1/12/2021 4:45:00 PM 3.12 37.616 0.042 6.01 1.11 13.02
1/12/2021 5:00:00 PM 3.11 37.598 0.042 6.01 1.16 13.02
1/12/2021 5:15:00 PM 3.1 37.58 0.042 6.01 1.17 13.01
1/12/2021 5:30:00 PM 3.09 37.562 0.042 6 1.25 13.01
1/12/2021 5:45:00 PM 3.07 37.526 0.042 6 1.17 13.02
1/12/2021 6:00:00 PM 3.04 37.472 0.042 6 1.15 13.02
1/12/2021 6:15:00 PM -100000 -179968 -100000 -100000 -100000 -100000
1/12/2021 6:30:00 PM 2.97 37.346 0.042 6 1.19 13.04
1/12/2021 6:45:00 PM 2.94 37.292 0.042 6 1.17 13.05
1/12/2021 7:00:00 PM 2.91 37.238 0.042 5.99 1.29 13.07
1/12/2021 7:15:00 PM 2.88 37.184 0.042 6 1.18 13.08
1/12/2021 7:30:00 PM -100000 -179968 -100000 -100000 -100000 -100000
1/12/2021 7:45:00 PM 2.83 37.094 0.042 6 1.19 13.1
1/12/2021 8:00:00 PM 2.81 37.058 0.042 6 1.16 13.11
1/12/2021 8:15:00 PM 2.78 37.004 0.042 6 1.11 13.11
1/12/2021 8:30:00 PM 2.77 36.986 0.042 6 1.17 13.12
1/12/2021 8:45:00 PM 2.75 36.95 0.042 6 1.21 13.12
1/12/2021 9:00:00 PM 2.74 36.932 0.042 6 1.18 13.13
1/12/2021 9:15:00 PM 2.72 36.896 0.042 6 1.15 13.14
1/12/2021 9:30:00 PM 2.71 36.878 0.042 6 1.16 13.15
1/12/2021 9:45:00 PM 2.7 36.86 0.042 6 1.14 13.15
1/12/2021 10:00:00 PM 2.68 36.824 0.042 6 1.2 13.16
1/12/2021 10:15:00 PM 2.67 36.806 0.042 6 1.17 13.16
1/12/2021 10:30:00 PM 2.66 36.788 0.042 6 1.26 13.17
1/12/2021 10:45:00 PM 2.65 36.77 0.042 6 1.14 13.17
1/12/2021 11:00:00 PM 2.63 36.734 0.042 6 1.16 13.17
1/12/2021 11:15:00 PM 2.61 36.698 0.042 6 1.16 13.18
1/12/2021 11:30:00 PM 2.59 36.662 0.042 6.01 1.26 13.19
1/12/2021 11:45:00 PM 2.58 36.644 0.042 6.01 1.15 13.19
1/13/2021 12:00:00 AM -100000 -179968 -100000 -100000 -100000 -100000
1/13/2021 12:15:00 AM 2.54 36.572 0.042 6.01 1.15 13.2
1/13/2021 12:30:00 AM 2.53 36.554 0.042 6.01 1.18 13.21
1/13/2021 12:45:00 AM 2.51 36.518 0.042 6.01 1.18 13.21
1/13/2021 1:00:00 AM -100000 -179968 -100000 -100000 -100000 -100000
1/13/2021 1:15:00 AM 2.48 36.464 0.042 6.01 1.19 13.22
1/13/2021 1:30:00 AM 2.46 36.428 0.042 6.01 1.17 13.23
1/13/2021 1:45:00 AM 2.45 36.41 0.042 6.01 1.25 13.23
1/13/2021 2:00:00 AM 2.44 36.392 0.042 6.01 1.22 13.24
1/13/2021 2:15:00 AM 2.42 36.356 0.042 6.01 1.24 13.24
1/13/2021 2:30:00 AM 2.41 36.338 0.042 6.01 1.19 13.25
1/13/2021 2:45:00 AM 2.4 36.32 0.042 6.01 1.16 13.25
1/13/2021 3:00:00 AM 2.38 36.284 0.042 6.01 1.14 13.26
1/13/2021 3:15:00 AM 2.37 36.266 0.042 6.01 1.14 13.27
1/13/2021 3:30:00 AM 2.35 36.23 0.042 6.01 1.16 13.28
1/13/2021 3:45:00 AM -100000 -179968 -100000 -100000 -100000 -100000
1/13/2021 4:00:00 AM 2.31 36.158 0.042 6.01 1.21 13.28
1/13/2021 4:15:00 AM 2.3 36.14 0.042 6.01 1.17 13.29
1/13/2021 4:30:00 AM 2.28 36.104 0.042 6.01 1.17 13.29
1/13/2021 4:45:00 AM 2.27 36.086 0.042 6.01 1.18 13.3
1/13/2021 5:00:00 AM 2.26 36.068 0.042 6.01 1.17 13.3
1/13/2021 5:15:00 AM 2.24 36.032 0.042 6.01 1.18 13.3
1/13/2021 5:30:00 AM 2.23 36.014 0.042 6.01 1.21 13.31
1/13/2021 5:45:00 AM 2.22 35.996 0.042 6.01 1.17 13.32
1/13/2021 6:00:00 AM 2.21 35.978 0.042 6.01 1.19 13.32
1/13/2021 6:15:00 AM 2.2 35.96 0.042 6.01 1.2 13.32
1/13/2021 6:30:00 AM 2.19 35.942 0.042 6.01 1.19 13.32
1/13/2021 6:45:00 AM 2.18 35.924 0.042 6.01 1.15 13.33
1/13/2021 7:00:00 AM 2.17 35.906 0.042 6.01 1.18 13.33
1/13/2021 7:15:00 AM 2.17 35.906 0.042 6.01 1.2 13.33
1/13/2021 7:30:00 AM 2.16 35.888 0.042 6.01 1.17 13.33
1/13/2021 7:45:00 AM 2.16 35.888 0.042 6.01 1.16 13.33
1/13/2021 8:00:00 AM 2.15 35.87 0.042 6.01 1.66 13.34
1/13/2021 8:15:00 AM 2.15 35.87 0.042 6.01 1.17 13.33
1/13/2021 8:30:00 AM 2.15 35.87 0.042 6.01 1.15 13.34
1/13/2021 8:45:00 AM 2.14 35.852 0.042 6.01 1.17 13.34
1/13/2021 9:00:00 AM 2.14 35.852 0.042 6.01 1.18 13.35
1/13/2021 9:15:00 AM 2.14 35.852 0.042 6.02 1.18 13.36
1/13/2021 9:30:00 AM 2.15 35.87 0.043 6.02 1.15 13.36
1/13/2021 9:45:00 AM 2.16 35.888 0.042 6.02 1.15 13.37
1/13/2021 10:00:00 AM 2.17 35.906 0.042 6.02 1.17 13.37
1/13/2021 10:15:00 AM 2.19 35.942 0.042 6.02 1.28 13.37
1/13/2021 10:30:00 AM 2.21 35.978 0.042 6.02 1.16 13.37
1/13/2021 10:45:00 AM 2.24 36.032 0.042 6.02 1.13 13.37
1/13/2021 11:00:00 AM 2.28 36.104 0.042 6.02 1.13 13.36
1/13/2021 11:15:00 AM 2.32 36.176 0.042 6.03 1.17 13.35
1/13/2021 11:30:00 AM 2.36 36.248 0.042 6.03 1.14 13.34
1/13/2021 11:45:00 AM 2.41 36.338 0.042 6.03 1.12 13.32
1/13/2021 12:00:00 PM 2.45 36.41 0.042 6.03 1.14 13.3
1/13/2021 12:15:00 PM 2.5 36.5 0.042 6.03 1.13 13.28
1/13/2021 12:30:00 PM 2.59 36.662 0.042 6.03 1.16 13.26
1/13/2021 12:45:00 PM 2.66 36.788 0.042 6.03 1.14 13.23
1/13/2021 1:00:00 PM 2.73 36.914 0.042 6.04 1.16 13.19
1/13/2021 1:15:00 PM 2.78 37.004 0.042 6.04 1.16 13.17
1/13/2021 1:30:00 PM 2.85 37.13 0.042 6.04 1.14 13.13
1/13/2021 1:45:00 PM 2.92 37.256 0.043 6.04 1.12 13.1
1/13/2021 2:00:00 PM 2.99 37.382 0.042 6.04 1.15 13.06
1/13/2021 2:15:00 PM 3.04 37.472 0.042 6.04 1.17 13.04
1/13/2021 2:30:00 PM 3.09 37.562 0.042 6.04 1.16 13.01
1/13/2021 2:45:00 PM 3.14 37.652 0.043 6.04 1.14 12.99
1/13/2021 3:00:00 PM 3.17 37.706 0.043 6.04 1.17 12.97
1/13/2021 3:15:00 PM -100000 -179968 -100000 -100000 -100000 -100000
1/13/2021 3:30:00 PM -100000 -179968 -100000 -100000 -100000 -100000
1/13/2021 3:45:00 PM 3.22 37.796 0.043 6.03 1.41 12.93
1/13/2021 4:00:00 PM 3.23 37.814 0.043 6.03 1.16 12.92
1/13/2021 4:15:00 PM 3.24 37.832 0.043 6.03 1.15 12.91
1/13/2021 4:30:00 PM 3.24 37.832 0.043 6.03 1.21 12.9
1/13/2021 4:45:00 PM 3.23 37.814 0.043 6.02 1.14 12.9
1/13/2021 5:00:00 PM 3.22 37.796 0.043 6.02 1.17 12.89
1/13/2021 5:15:00 PM 3.21 37.778 0.043 6.02 1.17 12.88
1/13/2021 5:30:00 PM 3.2 37.76 0.043 6.02 1.15 12.88
1/13/2021 5:45:00 PM 3.18 37.724 0.043 6.02 1.17 12.88
1/13/2021 6:00:00 PM 3.17 37.706 0.043 6.02 1.15 12.88
1/13/2021 6:15:00 PM 3.15 37.67 0.043 6.01 1.3 12.89
1/13/2021 6:30:00 PM 3.13 37.634 0.043 6.01 1.16 12.89
1/13/2021 6:45:00 PM 3.11 37.598 0.043 6.01 1.16 12.9
1/13/2021 7:00:00 PM 3.09 37.562 0.043 6.02 1.18 12.91
1/13/2021 7:15:00 PM 3.07 37.526 0.043 6.01 1.13 12.91
1/13/2021 7:30:00 PM 3.05 37.49 0.043 6.01 1.16 12.92
1/13/2021 7:45:00 PM 3.03 37.454 0.043 6.02 1.12 12.93
1/13/2021 8:00:00 PM 3.01 37.418 0.043 6.02 1.47 12.93
1/13/2021 8:15:00 PM 2.99 37.382 0.043 6.02 1.18 12.94
1/13/2021 8:30:00 PM 2.98 37.364 0.043 6.02 1.63 12.94
1/13/2021 8:45:00 PM 2.96 37.328 0.043 6.02 1.19 12.95
1/13/2021 9:00:00 PM 2.95 37.31 0.043 6.02 1.18 12.95
1/13/2021 9:15:00 PM 2.93 37.274 0.043 6.02 1.19 12.96
1/13/2021 9:30:00 PM 2.92 37.256 0.043 6.02 1.21 12.96
1/13/2021 9:45:00 PM 2.9 37.22 0.043 6.02 1.19 12.97
1/13/2021 10:00:00 PM 2.88 37.184 0.043 6.02 1.21 12.97
1/13/2021 10:15:00 PM 2.87 37.166 0.043 6.02 1.19 12.98
1/13/2021 10:30:00 PM 2.86 37.148 0.043 6.02 1.31 12.98
1/13/2021 10:45:00 PM -100000 -179968 -100000 -100000 -100000 -100000
1/13/2021 11:00:00 PM 2.83 37.094 0.043 6.02 1.38 12.99
1/13/2021 11:15:00 PM 2.82 37.076 0.043 6.02 1.18 12.99
1/13/2021 11:30:00 PM 2.81 37.058 0.043 6.02 1.17 13
1/13/2021 11:45:00 PM 2.8 37.04 0.043 6.02 1.19 13
1/14/2021 12:00:00 AM 2.79 37.022 0.043 6.02 1.21 13
1/14/2021 12:15:00 AM 2.78 37.004 0.043 6.02 1.2 13.01
1/14/2021 12:30:00 AM 2.78 37.004 0.043 6.02 1.24 13.01
1/14/2021 12:45:00 AM 2.78 37.004 0.043 6.02 1.19 13
1/14/2021 1:00:00 AM 2.77 36.986 0.043 6.02 1.14 13.01
1/14/2021 1:15:00 AM 2.77 36.986 0.043 6.02 1.2 13.01
1/14/2021 1:30:00 AM 2.77 36.986 0.043 6.02 1.15 13.01
1/14/2021 1:45:00 AM 2.77 36.986 0.043 6.02 1.18 13
1/14/2021 2:00:00 AM 2.77 36.986 0.043 6.02 1.2 13
1/14/2021 2:15:00 AM 2.77 36.986 0.043 6.02 1.18 13
1/14/2021 2:30:00 AM 2.78 37.004 0.043 6.02 1.14 13
1/14/2021 2:45:00 AM 2.78 37.004 0.043 6.02 1.14 13
1/14/2021 3:00:00 AM 2.78 37.004 0.043 6.02 1.21 13
1/14/2021 3:15:00 AM 2.78 37.004 0.043 6.02 1.17 13
1/14/2021 3:30:00 AM 2.79 37.022 0.043 6.02 1.17 13
1/14/2021 3:45:00 AM 2.79 37.022 0.043 6.02 1.17 12.99
1/14/2021 4:00:00 AM 2.79 37.022 0.043 6.02 1.19 13
1/14/2021 4:15:00 AM 2.79 37.022 0.043 6.02 1.26 12.99
1/14/2021 4:30:00 AM 2.79 37.022 0.043 6.02 1.15 12.99
1/14/2021 4:45:00 AM 2.8 37.04 0.043 6.02 1.24 12.99
1/14/2021 5:00:00 AM 2.79 37.022 0.043 6.02 1.13 12.99
1/14/2021 5:15:00 AM 2.8 37.04 0.043 6.02 1.17 12.99
1/14/2021 5:30:00 AM 2.8 37.04 0.043 6.02 1.17 12.99
1/14/2021 5:45:00 AM 2.8 37.04 0.043 6.02 1.19 12.98
1/14/2021 6:00:00 AM 2.8 37.04 0.043 6.02 1.17 12.99
1/14/2021 6:15:00 AM 2.81 37.058 0.043 6.02 1.18 12.98
1/14/2021 6:30:00 AM 2.81 37.058 0.043 6.02 1.15 12.98
1/14/2021 6:45:00 AM -100000 -179968 -100000 -100000 -100000 -100000
1/14/2021 7:00:00 AM 2.81 37.058 0.043 6.02 1.18 12.99
1/14/2021 7:15:00 AM 2.82 37.076 0.043 6.02 1.2 12.99
1/14/2021 7:30:00 AM 2.82 37.076 0.043 6.02 1.16 12.99
1/14/2021 7:45:00 AM 2.82 37.076 0.043 6.02 1.16 12.99
1/14/2021 8:00:00 AM 2.83 37.094 0.043 6.02 1.16 12.99
1/14/2021 8:15:00 AM 2.83 37.094 0.043 6.03 1.22 13
1/14/2021 8:30:00 AM 2.84 37.112 0.043 6.03 1.13 13
1/14/2021 8:45:00 AM 2.85 37.13 0.043 6.03 1.16 13.01
1/14/2021 9:00:00 AM 2.87 37.166 0.043 6.03 1.12 13.01
1/14/2021 9:15:00 AM 2.88 37.184 0.043 6.03 1.17 13.01
1/14/2021 9:30:00 AM 2.91 37.238 0.043 6.03 1.16 13.01
1/14/2021 9:45:00 AM 2.94 37.292 0.043 6.03 1.2 13.01
1/14/2021 10:00:00 AM 2.98 37.364 0.043 6.04 1.21 13.01
1/14/2021 10:15:00 AM 3.01 37.418 0.043 6.04 1.13 13
1/14/2021 10:30:00 AM 3.06 37.508 0.043 6.04 1.17 12.99
1/14/2021 10:45:00 AM 3.1 37.58 0.043 6.04 1.17 12.98
1/14/2021 11:00:00 AM 3.15 37.67 0.043 6.05 1.17 12.97
1/14/2021 11:15:00 AM 3.2 37.76 0.043 6.05 1.2 12.96
1/14/2021 11:30:00 AM 3.26 37.868 0.043 6.05 1.27 12.94
1/14/2021 11:45:00 AM 3.33 37.994 0.043 6.05 1.15 12.92
1/14/2021 12:00:00 PM -100000 -179968 -100000 -100000 -100000 -100000
1/14/2021 12:15:00 PM 3.49 38.282 0.043 6.06 1.15 12.86
1/14/2021 12:30:00 PM 3.58 38.444 0.043 6.06 1.15 12.83
1/14/2021 12:45:00 PM -100000 -179968 -100000 -100000 -100000 -100000
1/14/2021 1:00:00 PM 3.75 38.75 0.043 6.06 1.28 12.77
1/14/2021 1:15:00 PM 3.79 38.822 0.043 6.06 1.15 12.73
1/14/2021 1:30:00 PM 3.85 38.93 0.043 6.06 1.19 12.69
1/14/2021 1:45:00 PM 3.91 39.038 0.043 6.06 1.12 12.66
1/14/2021 2:00:00 PM 3.95 39.11 0.043 6.06 1.18 12.63
1/14/2021 2:15:00 PM 4.02 39.236 0.043 6.06 1.14 12.61
1/14/2021 2:30:00 PM 4.08 39.344 0.043 6.06 1.13 12.58
1/14/2021 2:45:00 PM -100000 -179968 -100000 -100000 -100000 -100000
1/14/2021 3:00:00 PM 4.19 39.542 0.043 6.06 1.15 12.53
1/14/2021 3:15:00 PM 4.22 39.596 0.043 6.06 1.14 12.51
1/14/2021 3:30:00 PM 4.23 39.614 0.043 6.06 1.17 12.5
1/14/2021 3:45:00 PM 4.22 39.596 0.043 6.05 1.16 12.5
1/14/2021 4:00:00 PM 4.21 39.578 0.044 6.05 1.11 12.5
1/14/2021 4:15:00 PM 4.21 39.578 0.044 6.05 1.14 12.5
1/14/2021 4:30:00 PM 4.2 39.56 0.044 6.05 1.15 12.5
1/14/2021 4:45:00 PM 4.2 39.56 0.044 6.04 1.24 12.5
1/14/2021 5:00:00 PM 4.17 39.506 0.044 6.04 1.1 12.5
1/14/2021 5:15:00 PM 4.14 39.452 0.044 6.04 1.18 12.5
1/14/2021 5:30:00 PM 4.1 39.38 0.044 6.04 1.14 12.51
1/14/2021 5:45:00 PM 4.05 39.29 0.044 6.03 1.19 12.52
1/14/2021 6:00:00 PM 4 39.2 0.044 6.03 1.15 12.54
1/14/2021 6:15:00 PM 3.95 39.11 0.044 6.03 1.17 12.55
1/14/2021 6:30:00 PM 3.89 39.002 0.044 6.03 1.34 12.57
1/14/2021 6:45:00 PM 3.84 38.912 0.044 6.03 1.12 12.59
1/14/2021 7:00:00 PM 3.78 38.804 0.044 6.03 1.21 12.61
1/14/2021 7:15:00 PM -100000 -179968 -100000 -100000 -100000 -100000
1/14/2021 7:30:00 PM 3.66 38.588 0.044 6.03 1.23 12.65
1/14/2021 7:45:00 PM 3.61 38.498 0.044 6.03 1.47 12.68
1/14/2021 8:00:00 PM 3.54 38.372 0.044 6.03 1.17 12.7
1/14/2021 8:15:00 PM 3.49 38.282 0.044 6.03 1.19 12.72
1/14/2021 8:30:00 PM 3.44 38.192 0.044 6.03 1.18 12.74
1/14/2021 8:45:00 PM -100000 -179968 -100000 -100000 -100000 -100000
1/14/2021 9:00:00 PM 3.35 38.03 0.044 6.03 1.26 12.78
1/14/2021 9:15:00 PM 3.31 37.958 0.044 6.03 1.17 12.79
1/14/2021 9:30:00 PM 3.27 37.886 0.044 6.03 1.17 12.81
1/14/2021 9:45:00 PM 3.23 37.814 0.044 6.03 1.25 12.82
1/14/2021 10:00:00 PM 3.2 37.76 0.044 6.04 1.44 12.84
1/14/2021 10:15:00 PM 3.17 37.706 0.044 6.04 1.14 12.85
1/14/2021 10:30:00 PM 3.14 37.652 0.044 6.03 1.16 12.86
1/14/2021 10:45:00 PM 3.12 37.616 0.044 6.03 1.31 12.87
1/14/2021 11:00:00 PM 3.09 37.562 0.044 6.04 1.22 12.88
1/14/2021 11:15:00 PM 3.07 37.526 0.044 6.03 1.17 12.89
1/14/2021 11:30:00 PM 3.05 37.49 0.044 6.03 1.17 12.9
1/14/2021 11:45:00 PM 3.03 37.454 0.044 6.03 1.2 12.91
1/15/2021 12:00:00 AM 3 37.4 0.044 6.04 1.22 12.92
1/15/2021 12:15:00 AM 2.98 37.364 0.044 6.04 1.19 12.92
1/15/2021 12:30:00 AM 2.96 37.328 0.044 6.04 1.16 12.93
1/15/2021 12:45:00 AM 2.93 37.274 0.044 6.03 1.15 12.94
1/15/2021 1:00:00 AM 2.91 37.238 0.044 6.03 1.16 12.95
1/15/2021 1:15:00 AM 2.88 37.184 0.044 6.04 1.19 12.96
1/15/2021 1:30:00 AM 2.87 37.166 0.044 6.04 1.16 12.97
1/15/2021 1:45:00 AM 2.85 37.13 0.044 6.03 1.23 12.98
1/15/2021 2:00:00 AM 2.84 37.112 0.044 6.04 1.2 12.98
1/15/2021 2:15:00 AM 2.83 37.094 0.044 6.03 1.21 12.99
1/15/2021 2:30:00 AM 2.82 37.076 0.044 6.04 1.25 12.99
1/15/2021 2:45:00 AM 2.81 37.058 0.044 6.03 1.23 13
1/15/2021 3:00:00 AM 2.8 37.04 0.044 6.04 1.23 13
1/15/2021 3:15:00 AM 2.78 37.004 0.044 6.04 1.21 13
1/15/2021 3:30:00 AM 2.77 36.986 0.044 6.04 1.18 13
1/15/2021 3:45:00 AM 2.75 36.95 0.044 6.04 1.2 13.01
1/15/2021 4:00:00 AM 2.73 36.914 0.044 6.03 1.19 13.02
1/15/2021 4:15:00 AM 2.71 36.878 0.044 6.03 1.17 13.02
1/15/2021 4:30:00 AM 2.69 36.842 0.044 6.03 1.22 13.02
1/15/2021 4:45:00 AM 2.68 36.824 0.044 6.04 1.37 13.03
1/15/2021 5:00:00 AM 2.66 36.788 0.044 6.04 1.25 13.04
1/15/2021 5:15:00 AM 2.65 36.77 0.044 6.04 1.2 13.04
1/15/2021 5:30:00 AM 2.63 36.734 0.044 6.03 1.17 13.04
1/15/2021 5:45:00 AM 2.62 36.716 0.044 6.03 1.21 13.05
1/15/2021 6:00:00 AM 2.61 36.698 0.044 6.04 1.15 13.06
1/15/2021 6:15:00 AM 2.6 36.68 0.044 6.04 1.16 13.06
1/15/2021 6:30:00 AM 2.59 36.662 0.044 6.04 1.24 13.07
1/15/2021 6:45:00 AM 2.58 36.644 0.044 6.03 1.17 13.07
1/15/2021 7:00:00 AM 2.57 36.626 0.044 6.04 1.23 13.08
1/15/2021 7:15:00 AM 2.57 36.626 0.044 6.04 1.22 13.08
1/15/2021 7:30:00 AM 2.57 36.626 0.044 6.04 1.17 13.08
1/15/2021 7:45:00 AM 2.56 36.608 0.044 6.04 1.15 13.08
1/15/2021 8:00:00 AM -100000 -179968 -100000 -100000 -100000 -100000
1/15/2021 8:15:00 AM 2.56 36.608 0.044 6.04 1.18 13.09
1/15/2021 8:30:00 AM 2.56 36.608 0.044 6.04 1.2 13.1
1/15/2021 8:45:00 AM 2.57 36.626 0.044 6.05 1.21 13.1
1/15/2021 9:00:00 AM 2.59 36.662 0.044 6.05 1.24 13.11
1/15/2021 9:15:00 AM 2.61 36.698 0.044 6.05 1.2 13.11
1/15/2021 9:30:00 AM 2.64 36.752 0.044 6.05 1.22 13.11
1/15/2021 9:45:00 AM 2.67 36.806 0.044 6.05 1.16 13.1
1/15/2021 10:00:00 AM 2.7 36.86 0.044 6.05 1.16 13.09
1/15/2021 10:15:00 AM 2.73 36.914 0.044 6.05 1.16 13.09
1/15/2021 10:30:00 AM 2.78 37.004 0.044 6.05 1.17 13.07
1/15/2021 10:45:00 AM 2.83 37.094 0.044 6.06 1.18 13.06
1/15/2021 11:00:00 AM 2.89 37.202 0.044 6.06 1.15 13.05
1/15/2021 11:15:00 AM 2.94 37.292 0.044 6.06 1.14 13.02
1/15/2021 11:30:00 AM 3 37.4 0.044 6.06 1.18 13.01
1/15/2021 11:45:00 AM 3.06 37.508 0.044 6.06 1.17 12.99
1/15/2021 12:00:00 PM -100000 -179968 -100000 -100000 -100000 -100000
1/15/2021 12:15:00 PM 3.16 37.688 0.044 6.06 1.15 12.94
1/15/2021 12:30:00 PM 3.21 37.778 0.044 6.06 1.12 12.91
1/15/2021 12:45:00 PM 3.27 37.886 0.044 6.06 1.2 12.88
1/15/2021 1:00:00 PM 3.34 38.012 0.044 6.06 1.17 12.86
1/15/2021 1:15:00 PM 3.4 38.12 0.044 6.07 1.45 12.82
1/15/2021 1:30:00 PM 3.44 38.192 0.044 6.07 1.19 12.8
1/15/2021 1:45:00 PM 3.51 38.318 0.044 6.06 1.19 12.77
1/15/2021 2:00:00 PM 3.56 38.408 0.044 6.07 1.22 12.74
1/15/2021 2:15:00 PM 3.58 38.444 0.044 6.07 1.18 12.72
1/15/2021 2:30:00 PM 3.6 38.48 0.044 6.07 1.15 12.7
1/15/2021 2:45:00 PM 3.63 38.534 0.044 6.06 1.23 12.68
1/15/2021 3:00:00 PM 3.66 38.588 0.044 6.06 1.15 12.67
1/15/2021 3:15:00 PM 3.68 38.624 0.044 6.06 1.19 12.65
1/15/2021 3:30:00 PM 3.68 38.624 0.044 6.06 1.21 12.64
1/15/2021 3:45:00 PM 3.68 38.624 0.044 6.06 1.17 12.64
1/15/2021 4:00:00 PM 3.67 38.606 0.044 6.05 1.15 12.64
1/15/2021 4:15:00 PM -100000 -179968 -100000 -100000 -100000 -100000
1/15/2021 4:30:00 PM 3.68 38.624 0.044 6.05 1.23 12.62
1/15/2021 4:45:00 PM 3.66 38.588 0.044 6.05 1.22 12.63
1/15/2021 5:00:00 PM 3.64 38.552 0.044 6.05 1.33 12.63
1/15/2021 5:15:00 PM 3.62 38.516 0.045 6.04 1.29 12.63
1/15/2021 5:30:00 PM 3.6 38.48 0.045 6.04 1.2 12.64
1/15/2021 5:45:00 PM 3.58 38.444 0.045 6.05 1.55 12.65
1/15/2021 6:00:00 PM -100000 -179968 -100000 -100000 -100000 -100000
1/15/2021 6:15:00 PM 3.55 38.39 0.045 6.05 2.32 12.66
1/15/2021 6:30:00 PM 3.53 38.354 0.045 6.06 2.17 12.67
1/15/2021 6:45:00 PM 3.52 38.336 0.045 6.07 1.28 12.67
1/15/2021 7:00:00 PM 3.5 38.3 0.046 6.06 1.32 12.68
1/15/2021 7:15:00 PM 3.49 38.282 0.046 6.06 1.33 12.69
1/15/2021 7:30:00 PM 3.48 38.264 0.046 6.07 1.29 12.69
1/15/2021 7:45:00 PM 3.46 38.228 0.046 6.07 1.28 12.7
1/15/2021 8:00:00 PM 3.45 38.21 0.047 6.08 1.29 12.7
1/15/2021 8:15:00 PM 3.43 38.174 0.047 6.08 1.29 12.7
1/15/2021 8:30:00 PM 3.4 38.12 0.047 6.08 1.28 12.71
1/15/2021 8:45:00 PM 3.35 38.03 0.047 6.08 1.94 12.72
1/15/2021 9:00:00 PM 3.29 37.922 0.048 6.07 1.22 12.72
1/15/2021 9:15:00 PM 3.25 37.85 0.048 6.07 1.27 12.73
1/15/2021 9:30:00 PM 3.23 37.814 0.048 6.06 1.27 12.74
1/15/2021 9:45:00 PM 3.2 37.76 0.048 6.07 1.25 12.76
1/15/2021 10:00:00 PM 3.19 37.742 0.049 6.07 1.27 12.77
1/15/2021 10:15:00 PM 3.13 37.634 0.049 6.06 1.4 12.78
1/15/2021 10:30:00 PM 3.02 37.436 0.049 6.05 1.21 12.79
1/15/2021 10:45:00 PM 3 37.4 0.049 6.05 1.25 12.81
1/15/2021 11:00:00 PM 2.99 37.382 0.049 6.06 1.29 12.84
1/15/2021 11:15:00 PM 2.98 37.364 0.049 6.05 1.2 12.85
1/15/2021 11:30:00 PM 2.97 37.346 0.049 6.05 1.26 12.86
1/15/2021 11:45:00 PM 2.97 37.346 0.049 6.05 1.32 12.87
1/16/2021 12:00:00 AM 2.96 37.328 0.049 6.05 1.27 12.88
1/16/2021 12:15:00 AM 2.96 37.328 0.049 6.05 1.23 12.88
1/16/2021 12:30:00 AM 2.96 37.328 0.049 6.05 1.24 12.88
1/16/2021 12:45:00 AM 2.95 37.31 0.049 6.05 1.3 12.89
1/16/2021 1:00:00 AM 2.95 37.31 0.049 6.05 1.36 12.88
1/16/2021 1:15:00 AM 2.96 37.328 0.049 6.05 1.26 12.88
1/16/2021 1:30:00 AM 2.96 37.328 0.049 6.05 1.24 12.88
1/16/2021 1:45:00 AM 2.97 37.346 0.049 6.05 1.18 12.87
1/16/2021 2:00:00 AM 2.97 37.346 0.049 6.05 1.25 12.87
1/16/2021 2:15:00 AM 2.97 37.346 0.049 6.05 1.34 12.87
1/16/2021 2:30:00 AM 2.96 37.328 0.049 6.05 1.31 12.86
1/16/2021 2:45:00 AM 2.96 37.328 0.049 6.05 1.22 12.87
1/16/2021 3:00:00 AM 2.94 37.292 0.048 6.05 1.21 12.87
1/16/2021 3:15:00 AM 2.93 37.274 0.048 6.05 1.21 12.87
1/16/2021 3:30:00 AM 2.91 37.238 0.048 6.05 1.29 12.87
1/16/2021 3:45:00 AM 2.89 37.202 0.048 6.05 1.31 12.88
1/16/2021 4:00:00 AM 2.88 37.184 0.048 6.06 1.24 12.88
1/16/2021 4:15:00 AM 2.85 37.13 0.048 6.06 1.29 12.89
1/16/2021 4:30:00 AM 2.82 37.076 0.048 6.06 1.17 12.89
1/16/2021 4:45:00 AM 2.79 37.022 0.048 6.05 1.27 12.9
1/16/2021 5:00:00 AM 2.77 36.986 0.048 6.05 1.24 12.91
1/16/2021 5:15:00 AM 2.75 36.95 0.048 6.05 1.34 12.91
1/16/2021 5:30:00 AM -100000 -179968 -100000 -100000 -100000 -100000
1/16/2021 5:45:00 AM 2.71 36.878 0.048 6.05 1.23 12.93
1/16/2021 6:00:00 AM 2.67 36.806 0.048 6.05 1.26 12.94
1/16/2021 6:15:00 AM 2.62 36.716 0.048 6.05 1.21 12.95
1/16/2021 6:30:00 AM 2.58 36.644 0.048 6.05 1.28 12.97
1/16/2021 6:45:00 AM 2.54 36.572 0.048 6.05 1.26 12.98
1/16/2021 7:00:00 AM 2.49 36.482 0.048 6.05 1.23 13
1/16/2021 7:15:00 AM 2.45 36.41 0.048 6.05 1.22 13.01
1/16/2021 7:30:00 AM 2.41 36.338 0.047 6.05 1.27 13.02
1/16/2021 7:45:00 AM 2.38 36.284 0.048 6.04 1.28 13.04
1/16/2021 8:00:00 AM 2.35 36.23 0.047 6.05 1.21 13.06
1/16/2021 8:15:00 AM 2.3 36.14 0.047 6.05 1.27 13.08
1/16/2021 8:30:00 AM 2.27 36.086 0.047 6.05 1.23 13.09
1/16/2021 8:45:00 AM 2.25 36.05 0.047 6.05 1.25 13.11
1/16/2021 9:00:00 AM 2.22 35.996 0.047 6.05 1.22 13.13
1/16/2021 9:15:00 AM 2.19 35.942 0.047 6.05 1.29 13.15
1/16/2021 9:30:00 AM 2.16 35.888 0.047 6.06 1.2 13.16
1/16/2021 9:45:00 AM 2.16 35.888 0.047 6.06 1.24 13.18
1/16/2021 10:00:00 AM 2.17 35.906 0.047 6.06 1.21 13.19
1/16/2021 10:15:00 AM 2.18 35.924 0.047 6.06 1.2 13.19
1/16/2021 10:30:00 AM 2.17 35.906 0.047 6.06 1.24 13.2
1/16/2021 10:45:00 AM 2.17 35.906 0.047 6.05 1.24 13.2
1/16/2021 11:00:00 AM 2.18 35.924 0.047 6.05 1.27 13.2
1/16/2021 11:15:00 AM 2.21 35.978 0.047 6.05 1.27 13.19
1/16/2021 11:30:00 AM 2.25 36.05 0.047 6.05 1.23 13.19
1/16/2021 11:45:00 AM 2.32 36.176 0.047 6.06 1.26 13.17
1/16/2021 12:00:00 PM 2.41 36.338 0.047 6.06 1.25 13.15
1/16/2021 12:15:00 PM 2.5 36.5 0.047 6.06 1.18 13.12
1/16/2021 12:30:00 PM 2.55 36.59 0.047 6.06 1.17 13.09
1/16/2021 12:45:00 PM 2.59 36.662 0.047 6.07 1.2 13.06
1/16/2021 1:00:00 PM 2.66 36.788 0.047 6.07 1.18 13.03
1/16/2021 1:15:00 PM 2.7 36.86 0.047 6.07 1.32 13.01
1/16/2021 1:30:00 PM 2.76 36.968 0.047 6.07 1.22 12.98
1/16/2021 1:45:00 PM 2.83 37.094 0.047 6.07 1.32 12.95
1/16/2021 2:00:00 PM 2.92 37.256 0.047 6.08 1.32 12.92
1/16/2021 2:15:00 PM 3.01 37.418 0.047 6.08 1.27 12.89
1/16/2021 2:30:00 PM 3.08 37.544 0.047 6.08 1.37 12.85
1/16/2021 2:45:00 PM 3.13 37.634 0.047 6.08 1.48 12.83
1/16/2021 3:00:00 PM 3.18 37.724 0.047 6.08 1.45 12.81
1/16/2021 3:15:00 PM 3.22 37.796 0.047 6.08 1.17 12.79
1/16/2021 3:30:00 PM 3.25 37.85 0.047 6.08 1.37 12.77
1/16/2021 3:45:00 PM 3.28 37.904 0.047 6.09 1.27 12.75
1/16/2021 4:00:00 PM 3.29 37.922 0.047 6.08 1.57 12.75
1/16/2021 4:15:00 PM 3.29 37.922 0.047 6.08 1.3 12.74
1/16/2021 4:30:00 PM 3.29 37.922 0.048 6.08 1.3 12.73
1/16/2021 4:45:00 PM 3.29 37.922 0.047 6.07 1.29 12.73
1/16/2021 5:00:00 PM -100000 -179968 -100000 -100000 -100000 -100000
1/16/2021 5:15:00 PM 3.26 37.868 0.047 6.07 1.14 12.72
1/16/2021 5:30:00 PM 3.25 37.85 0.047 6.06 1.2 12.72
1/16/2021 5:45:00 PM 3.23 37.814 0.048 6.06 1.22 12.72
1/16/2021 6:00:00 PM 3.2 37.76 0.048 6.06 1.36 12.72
1/16/2021 6:15:00 PM -100000 -179968 -100000 -100000 -100000 -100000
1/16/2021 6:30:00 PM 3.15 37.67 0.047 6.06 1.18 12.74
1/16/2021 6:45:00 PM 3.12 37.616 0.048 6.05 1.29 12.75
1/16/2021 7:00:00 PM 3.09 37.562 0.048 6.05 1.19 12.77
1/16/2021 7:15:00 PM 3.07 37.526 0.048 6.05 1.22 12.78
1/16/2021 7:30:00 PM 3.04 37.472 0.048 6.05 1.22 12.79
1/16/2021 7:45:00 PM 3.01 37.418 0.048 6.05 1.29 12.8
1/16/2021 8:00:00 PM 2.97 37.346 0.048 6.05 1.19 12.81
1/16/2021 8:15:00 PM 2.95 37.31 0.048 6.05 1.18 12.82
1/16/2021 8:30:00 PM 2.92 37.256 0.048 6.05 1.21 12.84
1/16/2021 8:45:00 PM 2.89 37.202 0.048 6.06 1.22 12.85
1/16/2021 9:00:00 PM -100000 -179968 -100000 -100000 -100000 -100000
1/16/2021 9:15:00 PM 2.84 37.112 0.048 6.05 1.25 12.86
1/16/2021 9:30:00 PM 2.81 37.058 0.048 6.06 1.22 12.87
1/16/2021 9:45:00 PM 2.77 36.986 0.047 6.06 1.22 12.88
1/16/2021 10:00:00 PM 2.7 36.86 0.047 6.05 1.17 12.88
1/16/2021 10:15:00 PM 2.58 36.644 0.047 6.05 1.28 12.9
1/16/2021 10:30:00 PM 2.52 36.536 0.047 6.05 1.23 12.92
1/16/2021 10:45:00 PM 2.45 36.41 0.047 6.05 1.23 12.94
1/16/2021 11:00:00 PM 2.41 36.338 0.047 6.05 1.22 12.96
1/16/2021 11:15:00 PM 2.41 36.338 0.047 6.05 1.25 12.98
1/16/2021 11:30:00 PM 2.41 36.338 0.047 6.05 1.2 13
1/16/2021 11:45:00 PM 2.41 36.338 0.047 6.06 1.24 13.01
1/17/2021 12:00:00 AM 2.38 36.284 0.047 6.05 1.23 13.03
1/17/2021 12:15:00 AM 2.37 36.266 0.047 6.06 1.22 13.04
1/17/2021 12:30:00 AM 2.36 36.248 0.047 6.05 1.25 13.05
1/17/2021 12:45:00 AM 2.35 36.23 0.047 6.06 1.21 13.06
1/17/2021 1:00:00 AM 2.34 36.212 0.047 6.05 1.2 13.06
1/17/2021 1:15:00 AM 2.32 36.176 0.047 6.06 1.23 13.07
1/17/2021 1:30:00 AM 2.3 36.14 0.047 6.06 1.18 13.07
1/17/2021 1:45:00 AM 2.28 36.104 0.047 6.06 1.27 13.08
1/17/2021 2:00:00 AM 2.26 36.068 0.047 6.05 1.2 13.09
1/17/2021 2:15:00 AM 2.24 36.032 0.047 6.06 1.25 13.1
1/17/2021 2:30:00 AM 2.21 35.978 0.047 6.06 1.22 13.11
1/17/2021 2:45:00 AM 2.19 35.942 0.047 6.06 1.35 13.11
1/17/2021 3:00:00 AM -100000 -179968 -100000 -100000 -100000 -100000
1/17/2021 3:15:00 AM 2.17 35.906 0.047 6.06 1.54 13.13
1/17/2021 3:30:00 AM 2.17 35.906 0.047 6.06 1.36 13.13
1/17/2021 3:45:00 AM 2.17 35.906 0.047 6.06 1.96 13.14
1/17/2021 4:00:00 AM 2.17 35.906 0.047 6.06 1.87 13.14
1/17/2021 4:15:00 AM 2.17 35.906 0.047 6.06 1.79 13.14
1/17/2021 4:30:00 AM -100000 -179968 -100000 -100000 -100000 -100000
1/17/2021 4:45:00 AM 2.17 35.906 0.047 6.06 1.25 13.15
1/17/2021 5:00:00 AM 2.17 35.906 0.047 6.06 1.18 13.14
1/17/2021 5:15:00 AM -100000 -179968 -100000 -100000 -100000 -100000
1/17/2021 5:30:00 AM 2.18 35.924 0.047 6.06 1.22 13.15
1/17/2021 5:45:00 AM 2.18 35.924 0.047 6.06 1.18 13.14
1/17/2021 6:00:00 AM 2.19 35.942 0.047 6.06 1.21 13.14
1/17/2021 6:15:00 AM 2.19 35.942 0.047 6.06 1.38 13.14
1/17/2021 6:30:00 AM 2.2 35.96 0.047 6.06 1.23 13.14
1/17/2021 6:45:00 AM 2.21 35.978 0.047 6.06 1.22 13.14
1/17/2021 7:00:00 AM 2.21 35.978 0.047 6.07 1.21 13.14
1/17/2021 7:15:00 AM 2.22 35.996 0.047 6.06 1.27 13.13
1/17/2021 7:30:00 AM 2.23 36.014 0.047 6.07 1.23 13.13
1/17/2021 7:45:00 AM 2.24 36.032 0.047 6.07 1.23 13.13
1/17/2021 8:00:00 AM 2.25 36.05 0.047 6.07 1.21 13.13
1/17/2021 8:15:00 AM 2.26 36.068 0.047 6.06 1.21 13.14
1/17/2021 8:30:00 AM 2.27 36.086 0.047 6.06 1.19 13.13
1/17/2021 8:45:00 AM 2.28 36.104 0.047 6.07 1.2 13.14
1/17/2021 9:00:00 AM 2.29 36.122 0.047 6.07 1.22 13.14
1/17/2021 9:15:00 AM 2.3 36.14 0.047 6.06 1.17 13.14
1/17/2021 9:30:00 AM 2.31 36.158 0.047 6.07 1.22 13.15
1/17/2021 9:45:00 AM 2.33 36.194 0.047 6.07 1.2 13.15
1/17/2021 10:00:00 AM 2.35 36.23 0.047 6.07 1.29 13.15
1/17/2021 10:15:00 AM 2.38 36.284 0.047 6.08 1.25 13.15
1/17/2021 10:30:00 AM 2.41 36.338 0.047 6.08 1.16 13.15
1/17/2021 10:45:00 AM 2.45 36.41 0.047 6.07 1.17 13.15
1/17/2021 11:00:00 AM 2.48 36.464 0.047 6.08 1.14 13.14
1/17/2021 11:15:00 AM 2.51 36.518 0.047 6.08 1.31 13.13
1/17/2021 11:30:00 AM 2.55 36.59 0.047 6.08 1.19 13.12
1/17/2021 11:45:00 AM 2.58 36.644 0.047 6.08 1.34 13.11
1/17/2021 12:00:00 PM 2.61 36.698 0.047 6.08 1.23 13.1
1/17/2021 12:15:00 PM 2.64 36.752 0.047 6.08 1.44 13.08
1/17/2021 12:30:00 PM 2.68 36.824 0.047 6.08 1.17 13.07
1/17/2021 12:45:00 PM 2.72 36.896 0.047 6.08 1.2 13.05
1/17/2021 1:00:00 PM 2.76 36.968 0.047 6.08 1.16 13.04
1/17/2021 1:15:00 PM 2.8 37.04 0.047 6.08 1.25 13.03
1/17/2021 1:30:00 PM 2.84 37.112 0.047 6.08 1.15 13.01
1/17/2021 1:45:00 PM -100000 -179968 -100000 -100000 -100000 -100000
1/17/2021 2:00:00 PM 2.93 37.274 0.047 6.08 1.27 12.98
1/17/2021 2:15:00 PM 2.97 37.346 0.047 6.08 1.14 12.96
1/17/2021 2:30:00 PM 3.02 37.436 0.047 6.08 1.21 12.95
1/17/2021 2:45:00 PM 3.07 37.526 0.047 6.08 1.16 12.93
1/17/2021 3:00:00 PM 3.1 37.58 0.047 6.09 1.22 12.92
1/17/2021 3:15:00 PM 3.13 37.634 0.047 6.09 1.2 12.9
1/17/2021 3:30:00 PM 3.15 37.67 0.047 6.09 1.24 12.88
1/17/2021 3:45:00 PM 3.17 37.706 0.047 6.08 1.18 12.87
1/17/2021 4:00:00 PM 3.18 37.724 0.047 6.08 1.18 12.86
1/17/2021 4:15:00 PM 3.18 37.724 0.047 6.08 1.23 12.84
1/17/2021 4:30:00 PM 3.19 37.742 0.047 6.08 1.21 12.82
1/17/2021 4:45:00 PM 3.19 37.742 0.047 6.08 1.2 12.81
1/17/2021 5:00:00 PM 3.19 37.742 0.047 6.08 1.19 12.81
1/17/2021 5:15:00 PM 3.19 37.742 0.047 6.08 1.24 12.8
1/17/2021 5:30:00 PM 3.18 37.724 0.047 6.08 1.23 12.8
1/17/2021 5:45:00 PM 3.17 37.706 0.047 6.07 1.21 12.8
1/17/2021 6:00:00 PM 3.15 37.67 0.047 6.07 1.17 12.81
1/17/2021 6:15:00 PM 3.14 37.652 0.047 6.07 1.17 12.81
1/17/2021 6:30:00 PM 3.13 37.634 0.047 6.07 1.18 12.82
1/17/2021 6:45:00 PM 3.1 37.58 0.047 6.07 1.17 12.82
1/17/2021 7:00:00 PM 3.07 37.526 0.047 6.07 1.17 12.84
1/17/2021 7:15:00 PM 3.05 37.49 0.047 6.07 1.21 12.85
1/17/2021 7:30:00 PM 3.02 37.436 0.047 6.07 1.16 12.86
1/17/2021 7:45:00 PM 3 37.4 0.047 6.07 1.23 12.87
1/17/2021 8:00:00 PM 2.98 37.364 0.047 6.07 1.14 12.87
1/17/2021 8:15:00 PM 2.96 37.328 0.047 6.07 1.17 12.88
1/17/2021 8:30:00 PM 2.93 37.274 0.047 6.07 1.22 12.89
1/17/2021 8:45:00 PM 2.91 37.238 0.047 6.07 1.18 12.89
1/17/2021 9:00:00 PM 2.89 37.202 0.047 6.07 1.15 12.9
1/17/2021 9:15:00 PM 2.87 37.166 0.047 6.07 1.29 12.9
1/17/2021 9:30:00 PM 2.85 37.13 0.047 6.07 1.16 12.91
1/17/2021 9:45:00 PM 2.83 37.094 0.047 6.06 1.17 12.91
1/17/2021 10:00:00 PM -100000 -179968 -100000 -100000 -100000 -100000
1/17/2021 10:15:00 PM 2.81 37.058 0.047 6.07 1.2 12.92
1/17/2021 10:30:00 PM 2.79 37.022 0.047 6.07 1.2 12.93
1/17/2021 10:45:00 PM 2.78 37.004 0.047 6.07 1.22 12.94
1/17/2021 11:00:00 PM 2.77 36.986 0.047 6.07 1.17 12.94
1/17/2021 11:15:00 PM 2.77 36.986 0.047 6.07 1.21 12.95
1/17/2021 11:30:00 PM 2.75 36.95 0.047 6.07 1.18 12.95
1/17/2021 11:45:00 PM 2.74 36.932 0.047 6.07 1.17 12.95
1/18/2021 12:00:00 AM 2.73 36.914 0.047 6.07 1.16 12.96
1/18/2021 12:15:00 AM 2.73 36.914 0.047 6.07 1.16 12.96
1/18/2021 12:30:00 AM 2.72 36.896 0.048 6.07 1.22 12.96
1/18/2021 12:45:00 AM 2.72 36.896 0.047 6.07 1.19 12.97
1/18/2021 1:00:00 AM 2.71 36.878 0.048 6.07 1.23 12.97
1/18/2021 1:15:00 AM 2.71 36.878 0.047 6.07 1.15 12.97
1/18/2021 1:30:00 AM 2.71 36.878 0.047 6.07 1.25 12.96
1/18/2021 1:45:00 AM 2.71 36.878 0.047 6.07 1.25 12.97
1/18/2021 2:00:00 AM 2.7 36.86 0.047 6.07 1.31 12.97
1/18/2021 2:15:00 AM 2.69 36.842 0.047 6.07 1.19 12.98
1/18/2021 2:30:00 AM 2.69 36.842 0.047 6.07 1.21 12.98
1/18/2021 2:45:00 AM 2.68 36.824 0.047 6.07 1.3 12.98
1/18/2021 3:00:00 AM -100000 -179968 -100000 -100000 -100000 -100000
1/18/2021 3:15:00 AM 2.67 36.806 0.047 6.07 1.32 12.98
1/18/2021 3:30:00 AM 2.67 36.806 0.047 6.07 1.12 12.98
1/18/2021 3:45:00 AM 2.66 36.788 0.047 6.08 1.18 12.98
1/18/2021 4:00:00 AM 2.65 36.77 0.048 6.07 1.25 12.98
1/18/2021 4:15:00 AM 2.65 36.77 0.047 6.07 1.2 12.99
1/18/2021 4:30:00 AM 2.65 36.77 0.047 6.08 1.18 12.98
1/18/2021 4:45:00 AM 2.65 36.77 0.047 6.07 1.22 12.99
1/18/2021 5:00:00 AM 2.63 36.734 0.047 6.08 1.25 12.99
1/18/2021 5:15:00 AM 2.63 36.734 0.047 6.07 1.16 12.99
1/18/2021 5:30:00 AM 2.63 36.734 0.047 6.08 1.21 12.99
1/18/2021 5:45:00 AM 2.62 36.716 0.047 6.07 1.2 13
1/18/2021 6:00:00 AM 2.62 36.716 0.047 6.08 1.24 13
1/18/2021 6:15:00 AM 2.6 36.68 0.047 6.07 1.29 13.01
1/18/2021 6:30:00 AM 2.6 36.68 0.047 6.08 1.23 13.01
1/18/2021 6:45:00 AM 2.6 36.68 0.047 6.08 1.2 13.02
1/18/2021 7:00:00 AM 2.59 36.662 0.047 6.08 1.21 13.02
1/18/2021 7:15:00 AM 2.58 36.644 0.047 6.08 1.22 13.02
1/18/2021 7:30:00 AM 2.56 36.608 0.047 6.08 1.2 13.03
1/18/2021 7:45:00 AM 2.56 36.608 0.047 6.08 1.17 13.03
1/18/2021 8:00:00 AM -100000 -179968 -100000 -100000 -100000 -100000
1/18/2021 8:15:00 AM 2.56 36.608 0.047 6.08 1.15 13.05
1/18/2021 8:30:00 AM 2.56 36.608 0.047 6.08 1.16 13.06
1/18/2021 8:45:00 AM 2.57 36.626 0.047 6.09 1.14 13.07
1/18/2021 9:00:00 AM 2.58 36.644 0.047 6.09 1.1 13.08
1/18/2021 9:15:00 AM 2.59 36.662 0.047 6.09 1.2 13.09
1/18/2021 9:30:00 AM 2.59 36.662 0.047 6.09 1.28 13.1
1/18/2021 9:45:00 AM 2.6 36.68 0.047 6.1 1.12 13.1
1/18/2021 10:00:00 AM 2.63 36.734 0.047 6.09 1.19 13.1
1/18/2021 10:15:00 AM 2.66 36.788 0.047 6.09 1.21 13.1
1/18/2021 10:30:00 AM 2.68 36.824 0.047 6.1 1.15 13.11
1/18/2021 10:45:00 AM 2.7 36.86 0.047 6.1 1.2 13.1
1/18/2021 11:00:00 AM -100000 -179968 -100000 -100000 -100000 -100000
1/18/2021 11:15:00 AM 2.73 36.914 0.047 6.1 1.24 13.09
1/18/2021 11:30:00 AM 2.76 36.968 0.047 6.09 1.22 13.08
1/18/2021 11:45:00 AM 2.78 37.004 0.047 6.1 1.26 13.08
1/18/2021 12:00:00 PM 2.81 37.058 0.047 6.1 1.17 13.07
1/18/2021 12:15:00 PM 2.84 37.112 0.047 6.1 1.2 13.06
1/18/2021 12:30:00 PM 2.86 37.148 0.047 6.1 1.16 13.05
1/18/2021 12:45:00 PM 2.87 37.166 0.047 6.1 1.19 13.04
1/18/2021 1:00:00 PM 2.88 37.184 0.047 6.1 1.24 13.03
1/18/2021 1:15:00 PM 2.9 37.22 0.047 6.09 1.22 13.03
1/18/2021 1:30:00 PM 2.91 37.238 0.047 6.1 1.17 13.02
1/18/2021 1:45:00 PM 2.92 37.256 0.047 6.09 1.2 13.01
1/18/2021 2:00:00 PM 2.92 37.256 0.047 6.1 1.21 13
1/18/2021 2:15:00 PM 2.92 37.256 0.047 6.09 1.25 13
1/18/2021 2:30:00 PM 2.91 37.238 0.047 6.09 1.18 13
1/18/2021 2:45:00 PM 2.9 37.22 0.047 6.09 1.35 13
1/18/2021 3:00:00 PM 2.89 37.202 0.047 6.09 1.21 13.01
1/18/2021 3:15:00 PM 2.88 37.184 0.047 6.09 1.16 13
1/18/2021 3:30:00 PM -100000 -179968 -100000 -100000 -100000 -100000
1/18/2021 3:45:00 PM 2.85 37.13 0.047 6.08 1.31 13.02
1/18/2021 4:00:00 PM -100000 -179968 -100000 -100000 -100000 -100000
1/18/2021 4:15:00 PM 2.82 37.076 0.047 6.08 1.16 13.02
1/18/2021 4:30:00 PM 2.8 37.04 0.047 6.08 1.15 13.03
1/18/2021 4:45:00 PM 2.79 37.022 0.047 6.08 1.14 13.03
1/18/2021 5:00:00 PM 2.77 36.986 0.047 6.08 1.12 13.04
1/18/2021 5:15:00 PM 2.75 36.95 0.047 6.08 1.15 13.05
1/18/2021 5:30:00 PM 2.73 36.914 0.048 6.08 1.16 13.05
1/18/2021 5:45:00 PM 2.7 36.86 0.048 6.08 1.2 13.06
1/18/2021 6:00:00 PM 2.68 36.824 0.047 6.08 1.16 13.06
1/18/2021 6:15:00 PM 2.66 36.788 0.048 6.07 1.19 13.07
1/18/2021 6:30:00 PM 2.64 36.752 0.048 6.08 1.22 13.09
1/18/2021 6:45:00 PM 2.62 36.716 0.047 6.08 1.17 13.09
1/18/2021 7:00:00 PM 2.61 36.698 0.048 6.08 1.19 13.1
1/18/2021 7:15:00 PM 2.59 36.662 0.047 6.08 1.2 13.11
1/18/2021 7:30:00 PM 2.57 36.626 0.048 6.08 1.2 13.12
1/18/2021 7:45:00 PM 2.56 36.608 0.048 6.08 1.18 13.13
1/18/2021 8:00:00 PM 2.55 36.59 0.048 6.08 1.54 13.13
1/18/2021 8:15:00 PM 2.53 36.554 0.048 6.08 1.33 13.14
1/18/2021 8:30:00 PM -100000 -179968 -100000 -100000 -100000 -100000
1/18/2021 8:45:00 PM 2.5 36.5 0.048 6.08 1.19 13.16
1/18/2021 9:00:00 PM 2.49 36.482 0.048 6.09 1.17 13.16
1/18/2021 9:15:00 PM 2.48 36.464 0.048 6.08 1.24 13.17
1/18/2021 9:30:00 PM 2.46 36.428 0.048 6.08 1.23 13.17
1/18/2021 9:45:00 PM 2.45 36.41 0.048 6.08 1.2 13.18
1/18/2021 10:00:00 PM 2.43 36.374 0.047 6.08 1.18 13.19
1/18/2021 10:15:00 PM 2.42 36.356 0.048 6.08 1.18 13.19
1/18/2021 10:30:00 PM 2.41 36.338 0.048 6.08 1.24 13.2
1/18/2021 10:45:00 PM 2.4 36.32 0.047 6.08 1.23 13.2
1/18/2021 11:00:00 PM -100000 -179968 -100000 -100000 -100000 -100000
1/18/2021 11:15:00 PM 2.38 36.284 0.048 6.09 1.24 13.21
1/18/2021 11:30:00 PM 2.37 36.266 0.048 6.09 1.19 13.22
1/18/2021 11:45:00 PM 2.35 36.23 0.048 6.09 1.17 13.22
1/19/2021 12:00:00 AM 2.33 36.194 0.048 6.09 1.29 13.23
1/19/2021 12:15:00 AM 2.31 36.158 0.048 6.09 1.19 13.24
1/19/2021 12:30:00 AM 2.28 36.104 0.048 6.09 1.26 13.24
1/19/2021 12:45:00 AM 2.26 36.068 0.048 6.09 1.19 13.26
1/19/2021 1:00:00 AM 2.23 36.014 0.048 6.09 1.26 13.27
1/19/2021 1:15:00 AM 2.21 35.978 0.048 6.09 1.26 13.28
1/19/2021 1:30:00 AM 2.18 35.924 0.048 6.09 1.22 13.29
1/19/2021 1:45:00 AM 2.16 35.888 0.048 6.09 1.19 13.3
1/19/2021 2:00:00 AM 2.15 35.87 0.048 6.09 1.16 13.31
1/19/2021 2:15:00 AM 2.13 35.834 0.047 6.09 1.14 13.32
1/19/2021 2:30:00 AM 2.12 35.816 0.048 6.09 1.2 13.32
1/19/2021 2:45:00 AM 2.11 35.798 0.048 6.09 1.21 13.32
1/19/2021 3:00:00 AM 2.1 35.78 0.048 6.09 1.27 13.33
1/19/2021 3:15:00 AM -100000 -179968 -100000 -100000 -100000 -100000
1/19/2021 3:30:00 AM 2.08 35.744 0.048 6.09 1.2 13.34
1/19/2021 3:45:00 AM 2.08 35.744 0.047 6.09 1.24 13.35
1/19/2021 4:00:00 AM 2.07 35.726 0.048 6.09 1.21 13.35
1/19/2021 4:15:00 AM 2.06 35.708 0.048 6.09 1.23 13.35
1/19/2021 4:30:00 AM 2.06 35.708 0.048 6.09 1.19 13.36
1/19/2021 4:45:00 AM 2.05 35.69 0.047 6.09 1.23 13.36
1/19/2021 5:00:00 AM 2.05 35.69 0.048 6.09 1.18 13.36
1/19/2021 5:15:00 AM 2.04 35.672 0.048 6.09 1.21 13.37
1/19/2021 5:30:00 AM 2.04 35.672 0.048 6.09 1.19 13.37
1/19/2021 5:45:00 AM 2.03 35.654 0.048 6.09 1.2 13.37
1/19/2021 6:00:00 AM 2.03 35.654 0.048 6.09 1.22 13.37
1/19/2021 6:15:00 AM 2.02 35.636 0.048 6.09 1.17 13.37
1/19/2021 6:30:00 AM 2 35.6 0.047 6.09 1.23 13.38
1/19/2021 6:45:00 AM 1.99 35.582 0.048 6.09 1.23 13.39
1/19/2021 7:00:00 AM 1.99 35.582 0.048 6.09 1.25 13.39
1/19/2021 7:15:00 AM 1.98 35.564 0.048 6.09 1.21 13.4
1/19/2021 7:30:00 AM 1.98 35.564 0.048 6.1 1.25 13.4
1/19/2021 7:45:00 AM 1.97 35.546 0.048 6.09 1.16 13.4
1/19/2021 8:00:00 AM 1.97 35.546 0.048 6.09 1.19 13.41
1/19/2021 8:15:00 AM 1.97 35.546 0.048 6.09 1.27 13.41
1/19/2021 8:30:00 AM 1.97 35.546 0.048 6.1 1.17 13.42
1/19/2021 8:45:00 AM 1.97 35.546 0.048 6.1 1.26 13.43
1/19/2021 9:00:00 AM 1.97 35.546 0.048 6.1 1.17 13.43
1/19/2021 9:15:00 AM 1.96 35.528 0.048 6.1 1.2 13.44
1/19/2021 9:30:00 AM 1.95 35.51 0.048 6.1 1.18 13.45
1/19/2021 9:45:00 AM 1.96 35.528 0.048 6.1 1.2 13.46
1/19/2021 10:00:00 AM 1.96 35.528 0.048 6.1 1.2 13.46
1/19/2021 10:15:00 AM 1.93 35.474 0.048 6.1 1.15 13.46
1/19/2021 10:30:00 AM 1.9 35.42 0.048 6.1 1.19 13.46
1/19/2021 10:45:00 AM 1.93 35.474 0.047 6.1 1.15 13.47
1/19/2021 11:00:00 AM 1.97 35.546 0.047 6.1 1.2 13.48
1/19/2021 11:15:00 AM 2.01 35.618 0.047 6.11 1.18 13.48
1/19/2021 11:30:00 AM 2.05 35.69 0.048 6.11 1.18 13.48
1/19/2021 11:45:00 AM 2.09 35.762 0.048 6.11 1.15 13.47
1/19/2021 12:00:00 PM 2.13 35.834 0.048 6.11 1.19 13.46
1/19/2021 12:15:00 PM 2.17 35.906 0.048 6.11 1.16 13.45
1/19/2021 12:30:00 PM 2.21 35.978 0.048 6.11 1.18 13.43
1/19/2021 12:45:00 PM 2.25 36.05 0.048 6.11 1.17 13.41
1/19/2021 1:00:00 PM 2.3 36.14 0.048 6.11 1.2 13.4
1/19/2021 1:15:00 PM 2.34 36.212 0.048 6.11 1.18 13.38
1/19/2021 1:30:00 PM 2.4 36.32 0.048 6.12 1.15 13.36
1/19/2021 1:45:00 PM 2.47 36.446 0.048 6.12 1.15 13.33
1/19/2021 2:00:00 PM 2.57 36.626 0.048 6.12 1.15 13.29
1/19/2021 2:15:00 PM 2.64 36.752 0.048 6.12 1.18 13.26
1/19/2021 2:30:00 PM -100000 -179968 -100000 -100000 -100000 -100000
1/19/2021 2:45:00 PM 2.68 36.824 0.048 6.12 1.25 13.22
1/19/2021 3:00:00 PM -100000 -179968 -100000 -100000 -100000 -100000
1/19/2021 3:15:00 PM 2.65 36.77 0.048 6.12 1.17 13.22
1/19/2021 3:30:00 PM -100000 -179968 -100000 -100000 -100000 -100000
1/19/2021 3:45:00 PM 2.57 36.626 0.048 6.11 1.25 13.24
1/19/2021 4:00:00 PM 2.54 36.572 0.048 6.11 1.13 13.25
1/19/2021 4:15:00 PM 2.52 36.536 0.048 6.1 1.17 13.25
1/19/2021 4:30:00 PM 2.52 36.536 0.048 6.1 1.14 13.24
1/19/2021 4:45:00 PM 2.51 36.518 0.048 6.1 1.16 13.24
1/19/2021 5:00:00 PM 2.48 36.464 0.048 6.1 1.15 13.24
1/19/2021 5:15:00 PM 2.44 36.392 0.048 6.1 1.16 13.25
1/19/2021 5:30:00 PM 2.41 36.338 0.048 6.09 1.2 13.25
1/19/2021 5:45:00 PM 2.37 36.266 0.048 6.09 1.28 13.26
1/19/2021 6:00:00 PM 2.34 36.212 0.048 6.09 1.29 13.27
1/19/2021 6:15:00 PM 2.31 36.158 0.048 6.09 1.23 13.28
1/19/2021 6:30:00 PM 2.28 36.104 0.048 6.09 1.23 13.29
1/19/2021 6:45:00 PM 2.26 36.068 0.048 6.09 1.24 13.3
1/19/2021 7:00:00 PM 2.23 36.014 0.048 6.09 1.31 13.32
1/19/2021 7:15:00 PM 2.2 35.96 0.048 6.09 1.24 13.32
1/19/2021 7:30:00 PM 2.18 35.924 0.048 6.09 1.26 13.33
1/19/2021 7:45:00 PM 2.16 35.888 0.048 6.09 1.23 13.34
1/19/2021 8:00:00 PM 2.13 35.834 0.048 6.09 1.21 13.35
1/19/2021 8:15:00 PM 2.1 35.78 0.048 6.1 1.36 13.36
1/19/2021 8:30:00 PM 2.08 35.744 0.048 6.09 1.19 13.37
1/19/2021 8:45:00 PM 2.06 35.708 0.048 6.1 1.2 13.38
1/19/2021 9:00:00 PM 2.04 35.672 0.048 6.1 1.21 13.38
1/19/2021 9:15:00 PM 2.02 35.636 0.048 6.1 1.25 13.39
1/19/2021 9:30:00 PM 2 35.6 0.048 6.1 1.26 13.39
1/19/2021 9:45:00 PM 1.98 35.564 0.048 6.1 1.3 13.4
1/19/2021 10:00:00 PM 1.97 35.546 0.048 6.1 1.19 13.39
1/19/2021 10:15:00 PM 1.95 35.51 0.048 6.1 1.27 13.41
1/19/2021 10:30:00 PM 1.94 35.492 0.048 6.1 1.21 13.41
1/19/2021 10:45:00 PM 1.92 35.456 0.048 6.1 1.28 13.42
1/19/2021 11:00:00 PM 1.92 35.456 0.048 6.1 1.22 13.42
1/19/2021 11:15:00 PM 1.9 35.42 0.048 6.1 1.24 13.41
1/19/2021 11:30:00 PM 1.89 35.402 0.048 6.1 1.3 13.42
1/19/2021 11:45:00 PM 1.88 35.384 0.048 6.11 1.29 13.42
1/20/2021 12:00:00 AM 1.88 35.384 0.048 6.11 1.19 13.42
1/20/2021 12:15:00 AM 1.87 35.366 0.049 6.11 1.37 13.42
1/20/2021 12:30:00 AM 1.87 35.366 0.048 6.11 1.23 13.42
1/20/2021 12:45:00 AM 1.87 35.366 0.048 6.11 1.31 13.42
1/20/2021 1:00:00 AM 1.86 35.348 0.048 6.11 1.2 13.41
1/20/2021 1:15:00 AM 1.86 35.348 0.048 6.11 1.25 13.41
1/20/2021 1:30:00 AM 1.86 35.348 0.048 6.11 1.2 13.41
1/20/2021 1:45:00 AM 1.86 35.348 0.048 6.11 1.26 13.41
1/20/2021 2:00:00 AM 1.86 35.348 0.048 6.11 1.27 13.41
1/20/2021 2:15:00 AM 1.86 35.348 0.049 6.11 1.27 13.4
1/20/2021 2:30:00 AM 1.86 35.348 0.049 6.11 1.29 13.4
1/20/2021 2:45:00 AM 1.83 35.294 0.049 6.11 1.27 13.39
1/20/2021 3:00:00 AM 1.81 35.258 0.049 6.11 1.24 13.4
1/20/2021 3:15:00 AM 1.78 35.204 0.048 6.11 1.36 13.4
1/20/2021 3:30:00 AM 1.75 35.15 0.049 6.11 1.82 13.4
1/20/2021 3:45:00 AM 1.72 35.096 0.048 6.11 1.21 13.4
1/20/2021 4:00:00 AM 1.69 35.042 0.048 6.11 1.51 13.41
1/20/2021 4:15:00 AM 1.69 35.042 0.049 6.11 1.27 13.42
1/20/2021 4:30:00 AM 1.66 34.988 0.049 6.11 1.35 13.43
1/20/2021 4:45:00 AM -100000 -179968 -100000 -100000 -100000 -100000
1/20/2021 5:00:00 AM 1.59 34.862 0.049 6.11 1.3 13.45
1/20/2021 5:15:00 AM 1.57 34.826 0.048 6.11 1.34 13.46
1/20/2021 5:30:00 AM 1.54 34.772 0.048 6.11 1.39 13.47
1/20/2021 5:45:00 AM 1.48 34.664 0.048 6.12 1.23 13.48
1/20/2021 6:00:00 AM 1.47 34.646 0.049 6.12 1.29 13.5
1/20/2021 6:15:00 AM 1.48 34.664 0.049 6.11 1.29 13.51
1/20/2021 6:30:00 AM 1.44 34.592 0.049 6.11 1.39 13.52
1/20/2021 6:45:00 AM 1.42 34.556 0.049 6.11 1.28 13.54
1/20/2021 7:00:00 AM 1.43 34.574 0.049 6.11 1.3 13.55
1/20/2021 7:15:00 AM 1.42 34.556 0.048 6.11 1.28 13.55
1/20/2021 7:30:00 AM 1.41 34.538 0.049 6.11 1.17 13.57
1/20/2021 7:45:00 AM 1.41 34.538 0.049 6.11 1.24 13.57
1/20/2021 8:00:00 AM 1.4 34.52 0.049 6.12 1.17 13.58
1/20/2021 8:15:00 AM 1.38 34.484 0.049 6.11 1.19 13.59
1/20/2021 8:30:00 AM 1.35 34.43 0.049 6.11 1.67 13.61
1/20/2021 8:45:00 AM 1.3 34.34 0.049 6.12 1.76 13.63
1/20/2021 9:00:00 AM 1.31 34.358 0.049 6.12 1.19 13.65
1/20/2021 9:15:00 AM 1.32 34.376 0.049 6.12 1.21 13.66
1/20/2021 9:30:00 AM 1.28 34.304 0.049 6.12 1.22 13.67
1/20/2021 9:45:00 AM 1.27 34.286 0.049 6.12 1.44 13.69
1/20/2021 10:00:00 AM 1.25 34.25 0.049 6.13 1.2 13.71
1/20/2021 10:15:00 AM 1.24 34.232 0.049 6.13 1.25 13.72
1/20/2021 10:30:00 AM 1.24 34.232 0.049 6.13 1.15 13.73
1/20/2021 10:45:00 AM 1.26 34.268 0.049 6.12 1.23 13.74
1/20/2021 11:00:00 AM 1.28 34.304 0.049 6.12 1.33 13.75
1/20/2021 11:15:00 AM 1.31 34.358 0.049 6.13 1.16 13.76
1/20/2021 11:30:00 AM 1.36 34.448 0.049 6.13 1.17 13.76
1/20/2021 11:45:00 AM 1.4 34.52 0.049 6.13 1.19 13.74
1/20/2021 12:00:00 PM 1.42 34.556 0.049 6.13 1.19 13.74
1/20/2021 12:15:00 PM 1.44 34.592 0.048 6.12 1.28 13.73
1/20/2021 12:30:00 PM 1.47 34.646 0.048 6.13 1.19 13.72
1/20/2021 12:45:00 PM 1.49 34.682 0.048 6.12 1.22 13.71
1/20/2021 1:00:00 PM 1.51 34.718 0.048 6.12 1.19 13.7
1/20/2021 1:15:00 PM 1.53 34.754 0.048 6.13 1.24 13.69
1/20/2021 1:30:00 PM -100000 -179968 -100000 -100000 -100000 -100000
1/20/2021 1:45:00 PM 1.57 34.826 0.048 6.12 1.18 13.67
1/20/2021 2:00:00 PM 1.58 34.844 0.048 6.12 1.21 13.66
1/20/2021 2:15:00 PM 1.6 34.88 0.048 6.12 1.16 13.65
1/20/2021 2:30:00 PM 1.62 34.916 0.049 6.13 1.23 13.64
1/20/2021 2:45:00 PM 1.63 34.934 0.048 6.12 1.21 13.63
1/20/2021 3:00:00 PM -100000 -179968 -100000 -100000 -100000 -100000
1/20/2021 3:15:00 PM 1.63 34.934 0.048 6.12 1.18 13.62
1/20/2021 3:30:00 PM 1.62 34.916 0.048 6.12 1.33 13.62
1/20/2021 3:45:00 PM 1.6 34.88 0.049 6.12 1.22 13.61
1/20/2021 4:00:00 PM 1.57 34.826 0.048 6.12 1.22 13.61
1/20/2021 4:15:00 PM -100000 -179968 -100000 -100000 -100000 -100000
1/20/2021 4:30:00 PM 1.49 34.682 0.049 6.11 1.2 13.62
1/20/2021 4:45:00 PM 1.45 34.61 0.049 6.11 1.31 13.63
1/20/2021 5:00:00 PM 1.4 34.52 0.049 6.11 1.16 13.64
1/20/2021 5:15:00 PM 1.37 34.466 0.049 6.11 1.19 13.64
1/20/2021 5:30:00 PM 1.33 34.394 0.049 6.11 1.19 13.65
1/20/2021 5:45:00 PM 1.29 34.322 0.049 6.11 1.2 13.66
1/20/2021 6:00:00 PM 1.25 34.25 0.049 6.1 1.19 13.67
1/20/2021 6:15:00 PM 1.21 34.178 0.049 6.11 1.38 13.67
1/20/2021 6:30:00 PM -100000 -179968 -100000 -100000 -100000 -100000
1/20/2021 6:45:00 PM 1.11 33.998 0.049 6.11 1.24 13.71
1/20/2021 7:00:00 PM 1.06 33.908 0.049 6.11 1.21 13.72
1/20/2021 7:15:00 PM 1 33.8 0.049 6.11 1.25 13.75
1/20/2021 7:30:00 PM 0.95 33.71 0.049 6.11 1.24 13.77
1/20/2021 7:45:00 PM 0.9 33.62 0.049 6.11 2.41 13.79
1/20/2021 8:00:00 PM 0.83 33.494 0.049 6.11 1.19 13.81
1/20/2021 8:15:00 PM 0.77 33.386 0.049 6.11 1.23 13.84
1/20/2021 8:30:00 PM 0.71 33.278 0.049 6.11 1.2 13.87
1/20/2021 8:45:00 PM 0.65 33.17 0.049 6.11 1.15 13.9
1/20/2021 9:00:00 PM 0.58 33.044 0.049 6.12 1.25 13.93
1/20/2021 9:15:00 PM 0.52 32.936 0.049 6.12 1.2 13.95
1/20/2021 9:30:00 PM 0.46 32.828 0.049 6.12 1.17 13.97
1/20/2021 9:45:00 PM 0.4 32.72 0.049 6.12 1.27 13.99
1/20/2021 10:00:00 PM 0.34 32.612 0.049 6.12 1.18 14.02
1/20/2021 10:15:00 PM 0.3 32.54 0.049 6.12 1.18 14.05
1/20/2021 10:30:00 PM 0.26 32.468 0.049 6.12 1.21 14.06
1/20/2021 10:45:00 PM 0.22 32.396 0.049 6.11 1.18 14.08
1/20/2021 11:00:00 PM 0.19 32.342 0.049 6.12 1.21 14.09
1/20/2021 11:15:00 PM 0.15 32.27 0.049 6.12 1.21 14.11
1/20/2021 11:30:00 PM 0.12 32.216 0.048 6.11 1.2 14.13
1/20/2021 11:45:00 PM 0.08 32.144 0.048 6.11 1.18 14.13
1/21/2021 12:00:00 AM 0.03 32.054 0.048 6.11 1.24 14.15
1/21/2021 12:15:00 AM -0.01 31.982 0.048 6.11 1.19 14.16
1/21/2021 12:30:00 AM -0.05 31.91 0.048 6.11 1.16 14.17
1/21/2021 12:45:00 AM -0.09 31.838 0.048 6.1 1.23 14.19
1/21/2021 1:00:00 AM -0.08 31.856 0.048 6.11 1.2 14.21
1/21/2021 1:15:00 AM -0.07 31.874 0.048 6.11 1.19 14.22
1/21/2021 1:30:00 AM -0.07 31.874 0.048 6.11 1.24 14.23
1/21/2021 1:45:00 AM -100000 -179968 -100000 -100000 -100000 -100000
1/21/2021 2:00:00 AM -100000 -179968 -100000 -100000 -100000 -100000
1/21/2021 2:15:00 AM -100000 -179968 -100000 -100000 -100000 -100000
1/21/2021 2:30:00 AM -0.08 31.856 0.049 6.11 1.76 14.27
1/21/2021 2:45:00 AM -100000 -179968 -100000 -100000 -100000 -100000
1/21/2021 3:00:00 AM -0.08 31.856 0.049 6.11 1.37 14.27
1/21/2021 3:15:00 AM -0.07 31.874 0.048 6.1 1.52 14.27
1/21/2021 3:30:00 AM -100000 -179968 -100000 -100000 -100000 -100000
1/21/2021 3:45:00 AM -100000 -179968 -100000 -100000 -100000 -100000
1/21/2021 4:00:00 AM -100000 -179968 -100000 -100000 -100000 -100000
1/21/2021 4:15:00 AM -0.07 31.874 0.048 6.1 1.47 14.26
1/21/2021 4:30:00 AM -100000 -179968 -100000 -100000 -100000 -100000
1/21/2021 4:45:00 AM -100000 -179968 -100000 -100000 -100000 -100000
1/21/2021 5:00:00 AM -100000 -179968 -100000 -100000 -100000 -100000
1/21/2021 5:15:00 AM -100000 -179968 -100000 -100000 -100000 -100000
1/21/2021 5:30:00 AM -0.07 31.874 0.049 6.1 1.2 14.23
1/21/2021 5:45:00 AM -0.07 31.874 0.049 6.11 1.22 14.22
1/21/2021 6:00:00 AM -0.07 31.874 0.049 6.11 1.23 14.22
1/21/2021 6:15:00 AM -0.07 31.874 0.05 6.11 1.21 14.21
1/21/2021 6:30:00 AM -100000 -179968 -100000 -100000 -100000 -100000
1/21/2021 6:45:00 AM -100000 -179968 -100000 -100000 -100000 -100000
1/21/2021 7:00:00 AM -100000 -179968 -100000 -100000 -100000 -100000
1/21/2021 7:15:00 AM -100000 -179968 -100000 -100000 -100000 -100000
1/21/2021 7:30:00 AM -100000 -179968 -100000 -100000 -100000 -100000
1/21/2021 7:45:00 AM -100000 -179968 -100000 -100000 -100000 -100000
1/21/2021 8:00:00 AM -0.08 31.856 0.052 6.13 1.18 14.2
1/21/2021 8:15:00 AM -100000 -179968 -100000 -100000 -100000 -100000
1/21/2021 8:30:00 AM -0.07 31.874 0.053 6.14 1.17 14.21
1/21/2021 8:45:00 AM -0.06 31.892 0.053 6.14 1.22 14.21
1/21/2021 9:00:00 AM -100000 -179968 -100000 -100000 -100000 -100000
1/21/2021 9:15:00 AM -100000 -179968 -100000 -100000 -100000 -100000
1/21/2021 9:30:00 AM -100000 -179968 -100000 -100000 -100000 -100000
1/21/2021 9:45:00 AM -0.06 31.892 0.055 6.14 1.31 14.21
1/21/2021 10:00:00 AM -100000 -179968 -100000 -100000 -100000 -100000
1/21/2021 10:15:00 AM -0.05 31.91 0.055 6.15 1.29 14.19
1/21/2021 10:30:00 AM -0.05 31.91 0.055 6.15 1.24 14.18
1/21/2021 10:45:00 AM -0.05 31.91 0.055 6.14 1.27 14.17
1/21/2021 11:00:00 AM -0.05 31.91 0.055 6.14 1.31 14.15
1/21/2021 11:15:00 AM -0.04 31.928 0.055 6.14 1.29 14.15
1/21/2021 11:30:00 AM -0.05 31.91 0.055 6.14 1.57 14.13
1/21/2021 11:45:00 AM -0.05 31.91 0.054 6.14 1.3 14.13
1/21/2021 12:00:00 PM -0.05 31.91 0.053 6.14 1.24 14.12
1/21/2021 12:15:00 PM -0.06 31.892 0.053 6.14 1.25 14.12
1/21/2021 12:30:00 PM -0.06 31.892 0.052 6.14 1.24 14.11
1/21/2021 12:45:00 PM -0.05 31.91 0.051 6.14 1.34 14.1
1/21/2021 1:00:00 PM -0.05 31.91 0.051 6.13 1.24 14.09
1/21/2021 1:15:00 PM -0.05 31.91 0.05 6.13 1.41 14.08
1/21/2021 1:30:00 PM -0.05 31.91 0.049 6.13 1.28 14.08
1/21/2021 1:45:00 PM -0.05 31.91 0.049 6.13 1.72 14.07
1/21/2021 2:00:00 PM -0.05 31.91 0.048 6.13 1.36 14.06
1/21/2021 2:15:00 PM -0.05 31.91 0.048 6.13 1.4 14.05
1/21/2021 2:30:00 PM -0.05 31.91 0.048 6.13 1.44 14.05
1/21/2021 2:45:00 PM -0.05 31.91 0.048 6.13 1.47 14.04
1/21/2021 3:00:00 PM -0.06 31.892 0.047 6.13 1.38 14.04
1/21/2021 3:15:00 PM -0.06 31.892 0.047 6.12 1.36 14.04
1/21/2021 3:30:00 PM -0.06 31.892 0.047 6.13 1.48 14.04
1/21/2021 3:45:00 PM -0.06 31.892 0.047 6.12 1.39 14.03
1/21/2021 4:00:00 PM -0.06 31.892 0.047 6.12 1.31 14.03
1/21/2021 4:15:00 PM -0.06 31.892 0.047 6.12 1.33 14.03
1/21/2021 4:30:00 PM -0.06 31.892 0.047 6.12 1.37 14.01
1/21/2021 4:45:00 PM -0.06 31.892 0.047 6.12 1.35 13.99
1/21/2021 5:00:00 PM -0.06 31.892 0.046 6.12 1.43 13.95
1/21/2021 5:15:00 PM -0.06 31.892 0.046 6.12 1.35 13.91
1/21/2021 5:30:00 PM -0.05 31.91 0.046 6.12 1.48 13.86
1/21/2021 5:45:00 PM 0.02 32.036 0.046 6.12 1.34 13.81
1/21/2021 6:00:00 PM 0.11 32.198 0.046 6.13 1.32 13.76
1/21/2021 6:15:00 PM 0.2 32.36 0.047 6.13 1.27 13.72
1/21/2021 6:30:00 PM 0.33 32.594 0.047 6.13 1.9 13.69
1/21/2021 6:45:00 PM 0.44 32.792 0.047 6.14 3.23 13.66
1/21/2021 7:00:00 PM 0.53 32.954 0.047 6.14 1.56 13.64
1/21/2021 7:15:00 PM 0.62 33.116 0.048 6.15 1.41 13.63
1/21/2021 7:30:00 PM 0.68 33.224 0.048 6.14 1.42 13.63
1/21/2021 7:45:00 PM 0.73 33.314 0.048 6.14 1.27 13.63
1/21/2021 8:00:00 PM 0.74 33.332 0.048 6.15 1.34 13.63
1/21/2021 8:15:00 PM 0.73 33.314 0.048 6.14 1.44 13.64
1/21/2021 8:30:00 PM 0.72 33.296 0.048 6.14 1.31 13.64
1/21/2021 8:45:00 PM 0.71 33.278 0.049 6.14 1.39 13.65
1/21/2021 9:00:00 PM 0.69 33.242 0.049 6.14 1.3 13.66
1/21/2021 9:15:00 PM 0.68 33.224 0.049 6.14 1.25 13.67
1/21/2021 9:30:00 PM 0.68 33.224 0.049 6.14 1.26 13.68
1/21/2021 9:45:00 PM 0.68 33.224 0.049 6.14 1.26 13.69
1/21/2021 10:00:00 PM 0.67 33.206 0.049 6.14 1.26 13.69
1/21/2021 10:15:00 PM 0.68 33.224 0.049 6.13 1.33 13.7
1/21/2021 10:30:00 PM 0.69 33.242 0.049 6.13 1.22 13.7
1/21/2021 10:45:00 PM 0.69 33.242 0.049 6.14 1.25 13.69
1/21/2021 11:00:00 PM 0.7 33.26 0.049 6.13 1.28 13.69
1/21/2021 11:15:00 PM 0.73 33.314 0.049 6.14 1.21 13.69
1/21/2021 11:30:00 PM 0.75 33.35 0.05 6.14 1.33 13.68
1/21/2021 11:45:00 PM 0.76 33.368 0.05 6.14 1.3 13.68
1/22/2021 12:00:00 AM 0.79 33.422 0.05 6.14 1.29 13.66
1/22/2021 12:15:00 AM 0.8 33.44 0.05 6.15 1.28 13.65
1/22/2021 12:30:00 AM 0.84 33.512 0.05 6.15 1.28 13.65
1/22/2021 12:45:00 AM 0.85 33.53 0.05 6.14 1.27 13.64
1/22/2021 1:00:00 AM 0.89 33.602 0.05 6.15 1.27 13.64
1/22/2021 1:15:00 AM 0.9 33.62 0.05 6.15 1.26 13.63
1/22/2021 1:30:00 AM 0.93 33.674 0.05 6.15 1.23 13.62
1/22/2021 1:45:00 AM 0.96 33.728 0.05 6.15 1.25 13.61
1/22/2021 2:00:00 AM 0.97 33.746 0.05 6.15 1.24 13.61
1/22/2021 2:15:00 AM 1 33.8 0.05 6.15 1.28 13.6
1/22/2021 2:30:00 AM 1 33.8 0.05 6.15 1.26 13.6
1/22/2021 2:45:00 AM 1.01 33.818 0.05 6.15 1.27 13.6
1/22/2021 3:00:00 AM 1.01 33.818 0.05 6.14 1.25 13.59
1/22/2021 3:15:00 AM 1 33.8 0.05 6.14 1.18 13.6
1/22/2021 3:30:00 AM 1 33.8 0.05 6.14 1.25 13.6
1/22/2021 3:45:00 AM 0.99 33.782 0.05 6.14 1.23 13.61
1/22/2021 4:00:00 AM 0.99 33.782 0.05 6.14 1.19 13.6
1/22/2021 4:15:00 AM 0.98 33.764 0.05 6.14 1.27 13.61
1/22/2021 4:30:00 AM 0.97 33.746 0.05 6.14 1.25 13.61
1/22/2021 4:45:00 AM 0.97 33.746 0.05 6.14 1.89 13.61
1/22/2021 5:00:00 AM 0.97 33.746 0.05 6.14 1.25 13.62
1/22/2021 5:15:00 AM 0.96 33.728 0.05 6.14 1.28 13.63
1/22/2021 5:30:00 AM 0.95 33.71 0.05 6.14 1.25 13.63
1/22/2021 5:45:00 AM 0.94 33.692 0.05 6.14 1.27 13.63
1/22/2021 6:00:00 AM 0.93 33.674 0.05 6.13 1.28 13.63
1/22/2021 6:15:00 AM 0.92 33.656 0.05 6.14 1.23 13.64
1/22/2021 6:30:00 AM 0.9 33.62 0.05 6.13 1.23 13.65
1/22/2021 6:45:00 AM 0.9 33.62 0.05 6.13 1.25 13.65
1/22/2021 7:00:00 AM 0.9 33.62 0.05 6.13 1.25 13.65
1/22/2021 7:15:00 AM 0.9 33.62 0.05 6.13 1.28 13.66
1/22/2021 7:30:00 AM 0.91 33.638 0.05 6.13 1.21 13.65
1/22/2021 7:45:00 AM 0.92 33.656 0.05 6.13 1.25 13.66
1/22/2021 8:00:00 AM 0.92 33.656 0.05 6.13 1.44 13.66
1/22/2021 8:15:00 AM 0.94 33.692 0.05 6.14 1.25 13.67
1/22/2021 8:30:00 AM 0.95 33.71 0.05 6.13 1.22 13.67
1/22/2021 8:45:00 AM 0.97 33.746 0.05 6.14 1.22 13.67
1/22/2021 9:00:00 AM 0.99 33.782 0.05 6.14 1.25 13.67
1/22/2021 9:15:00 AM 1.02 33.836 0.05 6.14 1.3 13.68
1/22/2021 9:30:00 AM 1.04 33.872 0.05 6.14 1.28 13.67
1/22/2021 9:45:00 AM 1.07 33.926 0.05 6.14 1.28 13.67
1/22/2021 10:00:00 AM 1.11 33.998 0.049 6.15 1.25 13.67
1/22/2021 10:15:00 AM 1.15 34.07 0.05 6.15 1.28 13.66
1/22/2021 10:30:00 AM 1.19 34.142 0.05 6.15 1.31 13.66
1/22/2021 10:45:00 AM 1.24 34.232 0.05 6.15 1.35 13.65
1/22/2021 11:00:00 AM 1.29 34.322 0.049 6.15 1.24 13.64
1/22/2021 11:15:00 AM 1.33 34.394 0.049 6.15 1.59 13.63
1/22/2021 11:30:00 AM 1.37 34.466 0.049 6.15 1.24 13.61
1/22/2021 11:45:00 AM 1.4 34.52 0.049 6.15 1.23 13.6
1/22/2021 12:00:00 PM 1.44 34.592 0.049 6.15 1.22 13.58
1/22/2021 12:15:00 PM 1.47 34.646 0.049 6.15 1.33 13.57
1/22/2021 12:30:00 PM 1.49 34.682 0.049 6.15 1.23 13.56
1/22/2021 12:45:00 PM 1.52 34.736 0.049 6.15 1.24 13.54
1/22/2021 1:00:00 PM 1.54 34.772 0.049 6.15 1.34 13.52
1/22/2021 1:15:00 PM 1.56 34.808 0.049 6.15 1.25 13.51
1/22/2021 1:30:00 PM 1.59 34.862 0.05 6.15 1.25 13.5
1/22/2021 1:45:00 PM 1.61 34.898 0.05 6.15 1.25 13.49
1/22/2021 2:00:00 PM 1.64 34.952 0.049 6.15 1.26 13.48
1/22/2021 2:15:00 PM 1.65 34.97 0.049 6.15 1.35 13.46
1/22/2021 2:30:00 PM 1.67 35.006 0.049 6.15 1.24 13.46
1/22/2021 2:45:00 PM 1.68 35.024 0.049 6.14 1.21 13.46
1/22/2021 3:00:00 PM 1.7 35.06 0.05 6.14 1.28 13.45
1/22/2021 3:15:00 PM 1.69 35.042 0.049 6.14 1.24 13.45
1/22/2021 3:30:00 PM 1.68 35.024 0.05 6.14 1.2 13.45
1/22/2021 3:45:00 PM 1.67 35.006 0.049 6.14 1.27 13.45
1/22/2021 4:00:00 PM 1.66 34.988 0.049 6.14 1.24 13.46
1/22/2021 4:15:00 PM 1.66 34.988 0.05 6.14 1.36 13.46
1/22/2021 4:30:00 PM 1.65 34.97 0.05 6.14 1.26 13.46
1/22/2021 4:45:00 PM 1.64 34.952 0.049 6.14 1.23 13.47
1/22/2021 5:00:00 PM 1.63 34.934 0.05 6.14 1.26 13.47
1/22/2021 5:15:00 PM 1.61 34.898 0.05 6.14 1.26 13.47
1/22/2021 5:30:00 PM 1.6 34.88 0.05 6.14 1.24 13.47
1/22/2021 5:45:00 PM 1.58 34.844 0.05 6.14 1.24 13.47
1/22/2021 6:00:00 PM 1.56 34.808 0.05 6.13 1.38 13.48
1/22/2021 6:15:00 PM 1.54 34.772 0.05 6.13 1.24 13.48
1/22/2021 6:30:00 PM 1.51 34.718 0.05 6.13 1.2 13.5
1/22/2021 6:45:00 PM 1.48 34.664 0.05 6.13 1.22 13.51
1/22/2021 7:00:00 PM 1.46 34.628 0.05 6.13 1.49 13.52
1/22/2021 7:15:00 PM 1.43 34.574 0.05 6.13 1.27 13.54
1/22/2021 7:30:00 PM 1.41 34.538 0.05 6.13 1.22 13.55
1/22/2021 7:45:00 PM 1.38 34.484 0.05 6.13 1.22 13.56
1/22/2021 8:00:00 PM 1.35 34.43 0.05 6.13 1.3 13.57
1/22/2021 8:15:00 PM 1.32 34.376 0.05 6.13 1.23 13.58
1/22/2021 8:30:00 PM 1.28 34.304 0.05 6.13 1.35 13.6
1/22/2021 8:45:00 PM 1.24 34.232 0.05 6.13 1.26 13.61
1/22/2021 9:00:00 PM 1.2 34.16 0.05 6.13 1.25 13.62
1/22/2021 9:15:00 PM 1.17 34.106 0.05 6.13 1.28 13.64
1/22/2021 9:30:00 PM 1.14 34.052 0.05 6.13 1.27 13.65
1/22/2021 9:45:00 PM 1.11 33.998 0.05 6.13 1.25 13.67
1/22/2021 10:00:00 PM 1.08 33.944 0.05 6.13 1.23 13.69
1/22/2021 10:15:00 PM 1.06 33.908 0.05 6.13 1.26 13.69
1/22/2021 10:30:00 PM 1.03 33.854 0.05 6.13 1.4 13.71
1/22/2021 10:45:00 PM 1.01 33.818 0.05 6.14 1.24 13.71
1/22/2021 11:00:00 PM 0.98 33.764 0.05 6.13 1.27 13.74
1/22/2021 11:15:00 PM 0.96 33.728 0.05 6.14 1.25 13.74
1/22/2021 11:30:00 PM 0.93 33.674 0.05 6.14 1.25 13.76
1/22/2021 11:45:00 PM 0.91 33.638 0.05 6.14 1.27 13.77
1/23/2021 12:00:00 AM 0.88 33.584 0.05 6.14 1.27 13.78
1/23/2021 12:15:00 AM 0.85 33.53 0.049 6.13 1.22 13.8
1/23/2021 12:30:00 AM 0.81 33.458 0.05 6.13 1.26 13.81
1/23/2021 12:45:00 AM 0.78 33.404 0.05 6.13 1.26 13.82
1/23/2021 1:00:00 AM 0.75 33.35 0.049 6.13 1.22 13.83
1/23/2021 1:15:00 AM 0.7 33.26 0.05 6.13 1.27 13.85
1/23/2021 1:30:00 AM 0.68 33.224 0.05 6.13 1.26 13.86
1/23/2021 1:45:00 AM 0.65 33.17 0.05 6.14 1.26 13.87
1/23/2021 2:00:00 AM 0.61 33.098 0.05 6.13 1.3 13.89
1/23/2021 2:15:00 AM 0.57 33.026 0.05 6.13 1.21 13.92
1/23/2021 2:30:00 AM 0.53 32.954 0.05 6.13 1.29 13.93
1/23/2021 2:45:00 AM 0.49 32.882 0.05 6.13 1.24 13.95
1/23/2021 3:00:00 AM 0.46 32.828 0.05 6.13 1.26 13.97
1/23/2021 3:15:00 AM 0.41 32.738 0.05 6.13 1.23 13.99
1/23/2021 3:30:00 AM 0.37 32.666 0.05 6.13 1.25 14.01
1/23/2021 3:45:00 AM 0.33 32.594 0.05 6.14 1.23 14.02
1/23/2021 4:00:00 AM 0.29 32.522 0.05 6.14 1.27 14.04
1/23/2021 4:15:00 AM 0.24 32.432 0.049 6.14 1.24 14.07
1/23/2021 4:30:00 AM 0.21 32.378 0.05 6.13 1.24 14.08
1/23/2021 4:45:00 AM 0.17 32.306 0.05 6.13 1.26 14.11
1/23/2021 5:00:00 AM 0.13 32.234 0.05 6.13 1.27 14.13
1/23/2021 5:15:00 AM -100000 -179968 -100000 -100000 -100000 -100000
1/23/2021 5:30:00 AM 0.06 32.108 0.05 6.13 1.27 14.17
1/23/2021 5:45:00 AM 0.03 32.054 0.05 6.13 1.24 14.18
1/23/2021 6:00:00 AM -0.01 31.982 0.05 6.13 1.22 14.2
1/23/2021 6:15:00 AM -100000 -179968 -100000 -100000 -100000 -100000
1/23/2021 6:30:00 AM -0.07 31.874 0.05 6.13 1.28 14.25
1/23/2021 6:45:00 AM -0.07 31.874 0.05 6.13 1.21 14.25
1/23/2021 7:00:00 AM -0.07 31.874 0.049 6.13 1.29 14.28
1/23/2021 7:15:00 AM -0.07 31.874 0.049 6.13 1.27 14.29
1/23/2021 7:30:00 AM -0.06 31.892 0.05 6.13 1.3 14.3
1/23/2021 7:45:00 AM -0.07 31.874 0.049 6.13 1.3 14.32
1/23/2021 8:00:00 AM -0.07 31.874 0.049 6.13 1.26 14.33
1/23/2021 8:15:00 AM -0.06 31.892 0.049 6.14 1.27 14.34
1/23/2021 8:30:00 AM -0.06 31.892 0.049 6.14 1.24 14.35
1/23/2021 8:45:00 AM -0.06 31.892 0.049 6.14 1.3 14.37
1/23/2021 9:00:00 AM -0.06 31.892 0.049 6.14 1.3 14.37
1/23/2021 9:15:00 AM -100000 -179968 -100000 -100000 -100000 -100000
1/23/2021 9:30:00 AM -0.05 31.91 0.049 6.14 1.21 14.39
1/23/2021 9:45:00 AM -0.04 31.928 0.049 6.14 1.28 14.4
1/23/2021 10:00:00 AM -0.04 31.928 0.049 6.15 1.27 14.4
1/23/2021 10:15:00 AM -0.04 31.928 0.049 6.15 1.28 14.41
1/23/2021 10:30:00 AM -0.04 31.928 0.049 6.14 1.24 14.41
1/23/2021 10:45:00 AM -0.04 31.928 0.049 6.14 1.3 14.41
1/23/2021 11:00:00 AM -0.04 31.928 0.049 6.14 1.24 14.41
1/23/2021 11:15:00 AM -0.04 31.928 0.049 6.15 1.31 14.42
1/23/2021 11:30:00 AM -0.04 31.928 0.049 6.15 1.33 14.41
1/23/2021 11:45:00 AM -0.04 31.928 0.049 6.14 1.31 14.41
1/23/2021 12:00:00 PM -0.04 31.928 0.049 6.14 1.23 14.41
1/23/2021 12:15:00 PM -0.03 31.946 0.049 6.15 1.22 14.41
1/23/2021 12:30:00 PM -0.03 31.946 0.05 6.15 1.25 14.41
1/23/2021 12:45:00 PM -0.03 31.946 0.05 6.15 1.28 14.41
1/23/2021 1:00:00 PM -0.02 31.964 0.05 6.15 1.27 14.4
1/23/2021 1:15:00 PM -0.03 31.946 0.05 6.15 1.24 14.41
1/23/2021 1:30:00 PM -0.03 31.946 0.05 6.15 1.31 14.4
1/23/2021 1:45:00 PM -0.03 31.946 0.05 6.15 1.37 14.39
1/23/2021 2:00:00 PM -0.02 31.964 0.05 6.15 1.25 14.39
1/23/2021 2:15:00 PM -100000 -179968 -100000 -100000 -100000 -100000
1/23/2021 2:30:00 PM -0.01 31.982 0.051 6.16 1.3 14.38
1/23/2021 2:45:00 PM -0.02 31.964 0.05 6.15 1.27 14.38
1/23/2021 3:00:00 PM -0.03 31.946 0.05 6.15 1.32 14.38
1/23/2021 3:15:00 PM -0.03 31.946 0.05 6.15 1.25 14.38
1/23/2021 3:30:00 PM -0.02 31.964 0.051 6.16 1.26 14.36
1/23/2021 3:45:00 PM -0.03 31.946 0.05 6.15 1.26 14.37
1/23/2021 4:00:00 PM -0.04 31.928 0.05 6.15 1.28 14.36
1/23/2021 4:15:00 PM -0.04 31.928 0.05 6.15 1.29 14.36
1/23/2021 4:30:00 PM -0.04 31.928 0.051 6.15 1.26 14.35
1/23/2021 4:45:00 PM -0.04 31.928 0.05 6.15 1.24 14.35
1/23/2021 5:00:00 PM -0.05 31.91 0.05 6.15 1.23 14.34
1/23/2021 5:15:00 PM -0.05 31.91 0.05 6.14 1.42 14.34
1/23/2021 5:30:00 PM -0.05 31.91 0.05 6.15 1.44 14.33
1/23/2021 5:45:00 PM -0.05 31.91 0.05 6.15 1.23 14.34
1/23/2021 6:00:00 PM -0.05 31.91 0.05 6.15 1.23 14.34
1/23/2021 6:15:00 PM -0.06 31.892 0.05 6.14 1.32 14.35
1/23/2021 6:30:00 PM -0.05 31.91 0.05 6.15 1.26 14.35
1/23/2021 6:45:00 PM -0.05 31.91 0.05 6.15 1.28 14.36
1/23/2021 7:00:00 PM -0.05 31.91 0.05 6.15 1.3 14.35
1/23/2021 7:15:00 PM -0.05 31.91 0.051 6.15 1.23 14.36
1/23/2021 7:30:00 PM -0.05 31.91 0.05 6.15 1.25 14.36
1/23/2021 7:45:00 PM -0.05 31.91 0.051 6.16 1.25 14.37
1/23/2021 8:00:00 PM -0.05 31.91 0.051 6.16 1.28 14.37
1/23/2021 8:15:00 PM -100000 -179968 -100000 -100000 -100000 -100000
1/23/2021 8:30:00 PM -0.05 31.91 0.05 6.15 1.26 14.38
1/23/2021 8:45:00 PM -0.05 31.91 0.051 6.15 1.22 14.38
1/23/2021 9:00:00 PM -0.05 31.91 0.051 6.16 1.25 14.37
1/23/2021 9:15:00 PM -0.05 31.91 0.051 6.16 1.28 14.38
1/23/2021 9:30:00 PM -0.05 31.91 0.051 6.16 1.27 14.38
1/23/2021 9:45:00 PM -0.04 31.928 0.051 6.16 1.24 14.37
1/23/2021 10:00:00 PM -0.05 31.91 0.051 6.16 1.26 14.37
1/23/2021 10:15:00 PM -0.04 31.928 0.051 6.16 1.25 14.36
1/23/2021 10:30:00 PM -0.05 31.91 0.051 6.16 1.27 14.38
1/23/2021 10:45:00 PM -100000 -179968 -100000 -100000 -100000 -100000
1/23/2021 11:00:00 PM -0.05 31.91 0.051 6.16 1.29 14.37
1/23/2021 11:15:00 PM -0.05 31.91 0.051 6.17 1.27 14.36
1/23/2021 11:30:00 PM -0.05 31.91 0.051 6.17 1.27 14.37
1/23/2021 11:45:00 PM -0.04 31.928 0.052 6.17 1.26 14.36
1/24/2021 12:00:00 AM -0.04 31.928 0.052 6.17 1.25 14.36
1/24/2021 12:15:00 AM -0.04 31.928 0.052 6.17 1.26 14.36
1/24/2021 12:30:00 AM -0.03 31.946 0.053 6.18 1.25 14.35
1/24/2021 12:45:00 AM -0.04 31.928 0.052 6.18 1.3 14.36
1/24/2021 1:00:00 AM -100000 -179968 -100000 -100000 -100000 -100000
1/24/2021 1:15:00 AM -0.04 31.928 0.052 6.17 1.27 14.36
1/24/2021 1:30:00 AM -0.04 31.928 0.052 6.17 1.26 14.36
1/24/2021 1:45:00 AM -0.04 31.928 0.052 6.17 1.26 14.36
1/24/2021 2:00:00 AM -0.04 31.928 0.052 6.17 1.26 14.35
1/24/2021 2:15:00 AM -0.04 31.928 0.052 6.17 1.31 14.36
1/24/2021 2:30:00 AM -0.04 31.928 0.053 6.17 1.3 14.35
1/24/2021 2:45:00 AM -100000 -179968 -100000 -100000 -100000 -100000
1/24/2021 3:00:00 AM -0.04 31.928 0.052 6.18 1.28 14.36
1/24/2021 3:15:00 AM -0.04 31.928 0.052 6.17 1.28 14.36
1/24/2021 3:30:00 AM -0.04 31.928 0.053 6.18 1.24 14.35
1/24/2021 3:45:00 AM -0.05 31.91 0.052 6.17 1.24 14.37
1/24/2021 4:00:00 AM -0.05 31.91 0.052 6.17 1.25 14.37
1/24/2021 4:15:00 AM -0.05 31.91 0.052 6.17 1.26 14.37
1/24/2021 4:30:00 AM -0.05 31.91 0.052 6.17 1.22 14.38
1/24/2021 4:45:00 AM -0.05 31.91 0.053 6.17 1.22 14.38
1/24/2021 5:00:00 AM -0.04 31.928 0.053 6.18 1.24 14.37
1/24/2021 5:15:00 AM -0.05 31.91 0.053 6.18 1.28 14.38
1/24/2021 5:30:00 AM -0.05 31.91 0.053 6.18 1.24 14.37
1/24/2021 5:45:00 AM -0.05 31.91 0.053 6.18 1.24 14.39
1/24/2021 6:00:00 AM -0.05 31.91 0.053 6.17 1.25 14.4
1/24/2021 6:15:00 AM -0.05 31.91 0.054 6.18 1.25 14.39
1/24/2021 6:30:00 AM -0.05 31.91 0.053 6.18 1.25 14.4
1/24/2021 6:45:00 AM -100000 -179968 -100000 -100000 -100000 -100000
1/24/2021 7:00:00 AM -100000 -179968 -100000 -100000 -100000 -100000
1/24/2021 7:15:00 AM -0.06 31.892 0.053 6.17 1.28 14.42
1/24/2021 7:30:00 AM -100000 -179968 -100000 -100000 -100000 -100000
1/24/2021 7:45:00 AM -0.06 31.892 0.053 6.17 1.25 14.43
1/24/2021 8:00:00 AM -0.06 31.892 0.053 6.16 1.25 14.43
1/24/2021 8:15:00 AM -100000 -179968 -100000 -100000 -100000 -100000
1/24/2021 8:30:00 AM -0.04 31.928 0.053 6.18 1.22 14.42
1/24/2021 8:45:00 AM -0.05 31.91 0.053 6.17 1.26 14.43
1/24/2021 9:00:00 AM -0.06 31.892 0.052 6.16 1.19 14.45
1/24/2021 9:15:00 AM -100000 -179968 -100000 -100000 -100000 -100000
1/24/2021 9:30:00 AM -0.04 31.928 0.053 6.16 1.52 14.44
1/24/2021 9:45:00 AM -0.04 31.928 0.052 6.16 1.27 14.44
1/24/2021 10:00:00 AM -0.03 31.946 0.053 6.17 1.2 14.44
1/24/2021 10:15:00 AM -0.03 31.946 0.053 6.17 1.25 14.44
1/24/2021 10:30:00 AM -0.02 31.964 0.053 6.17 1.27 14.44
1/24/2021 10:45:00 AM -0.02 31.964 0.053 6.17 1.24 14.44
1/24/2021 11:00:00 AM -0.02 31.964 0.053 6.18 1.23 14.43
1/24/2021 11:15:00 AM -0.03 31.946 0.053 6.16 1.26 14.43
1/24/2021 11:30:00 AM -0.02 31.964 0.053 6.17 1.26 14.43
1/24/2021 11:45:00 AM -0.02 31.964 0.054 6.17 1.28 14.41
1/24/2021 12:00:00 PM -0.02 31.964 0.054 6.17 1.25 14.41
1/24/2021 12:15:00 PM -0.03 31.946 0.055 6.17 1.26 14.4
1/24/2021 12:30:00 PM -0.04 31.928 0.055 6.17 1.23 14.41
1/24/2021 12:45:00 PM -0.03 31.946 0.055 6.16 1.25 14.4
1/24/2021 1:00:00 PM -0.04 31.928 0.055 6.16 1.23 14.38
1/24/2021 1:15:00 PM -0.04 31.928 0.056 6.16 1.35 14.38
1/24/2021 1:30:00 PM -100000 -179968 -100000 -100000 -100000 -100000
1/24/2021 1:45:00 PM -0.04 31.928 0.055 6.16 2.25 14.37
1/24/2021 2:00:00 PM -0.03 31.946 0.055 6.16 2.22 14.36
1/24/2021 2:15:00 PM -0.03 31.946 0.054 6.16 1.88 14.36
1/24/2021 2:30:00 PM -0.03 31.946 0.053 6.16 1.41 14.35
1/24/2021 2:45:00 PM -0.03 31.946 0.053 6.16 1.33 14.35
1/24/2021 3:00:00 PM -0.03 31.946 0.052 6.16 1.57 14.34
1/24/2021 3:15:00 PM -0.04 31.928 0.052 6.16 1.47 14.33
1/24/2021 3:30:00 PM -0.03 31.946 0.052 6.15 4.13 14.32
1/24/2021 3:45:00 PM -0.04 31.928 0.052 6.16 1.49 14.33
1/24/2021 4:00:00 PM -0.04 31.928 0.052 6.16 1.4 14.33
1/24/2021 4:15:00 PM -0.04 31.928 0.051 6.16 1.36 14.33
1/24/2021 4:30:00 PM -0.04 31.928 0.051 6.16 1.37 14.32
1/24/2021 4:45:00 PM -0.05 31.91 0.051 6.16 1.31 14.32
1/24/2021 5:00:00 PM -100000 -179968 -100000 -100000 -100000 -100000
1/24/2021 5:15:00 PM -0.05 31.91 0.051 6.16 1.34 14.31
1/24/2021 5:30:00 PM -0.05 31.91 0.051 6.16 1.31 14.3
1/24/2021 5:45:00 PM -0.05 31.91 0.051 6.15 1.32 14.3
1/24/2021 6:00:00 PM -0.05 31.91 0.051 6.15 1.32 14.29
1/24/2021 6:15:00 PM -0.05 31.91 0.051 6.15 1.32 14.29
1/24/2021 6:30:00 PM -0.05 31.91 0.051 6.15 1.31 14.29
1/24/2021 6:45:00 PM -0.06 31.892 0.05 6.15 1.33 14.29
1/24/2021 7:00:00 PM -0.06 31.892 0.05 6.14 1.35 14.28
1/24/2021 7:15:00 PM -0.06 31.892 0.05 6.14 1.34 14.28
1/24/2021 7:30:00 PM -0.06 31.892 0.049 6.14 1.35 14.28
1/24/2021 7:45:00 PM -0.06 31.892 0.049 6.14 1.3 14.28
1/24/2021 8:00:00 PM -0.05 31.91 0.049 6.14 1.32 14.28
1/24/2021 8:15:00 PM -0.06 31.892 0.048 6.15 1.31 14.27
1/24/2021 8:30:00 PM -0.06 31.892 0.048 6.14 1.34 14.28
1/24/2021 8:45:00 PM -0.05 31.91 0.048 6.15 1.3 14.27
1/24/2021 9:00:00 PM -0.05 31.91 0.048 6.15 1.32 14.27
1/24/2021 9:15:00 PM -0.05 31.91 0.048 6.15 1.33 14.27
1/24/2021 9:30:00 PM -0.05 31.91 0.048 6.16 1.31 14.26
1/24/2021 9:45:00 PM -0.05 31.91 0.048 6.15 1.32 14.26
1/24/2021 10:00:00 PM -0.05 31.91 0.048 6.15 1.26 14.26
1/24/2021 10:15:00 PM -0.05 31.91 0.048 6.15 1.27 14.25
1/24/2021 10:30:00 PM -0.05 31.91 0.048 6.15 1.32 14.25
1/24/2021 10:45:00 PM -0.05 31.91 0.049 6.15 1.26 14.25
1/24/2021 11:00:00 PM -0.05 31.91 0.049 6.15 1.32 14.25
1/24/2021 11:15:00 PM -0.05 31.91 0.049 6.16 1.28 14.25
1/24/2021 11:30:00 PM -0.05 31.91 0.049 6.16 1.37 14.25
1/24/2021 11:45:00 PM -0.05 31.91 0.049 6.16 1.31 14.25
1/25/2021 12:00:00 AM -0.05 31.91 0.047 6.15 2.41 14.25
1/25/2021 12:15:00 AM -0.05 31.91 0.05 6.16 1.34 14.25
1/25/2021 12:30:00 AM -0.05 31.91 0.05 6.16 1.35 14.24
1/25/2021 12:45:00 AM -0.05 31.91 0.05 6.16 1.31 14.24
1/25/2021 1:00:00 AM -0.05 31.91 0.05 6.16 1.32 14.25
1/25/2021 1:15:00 AM -0.05 31.91 0.05 6.16 1.38 14.24
1/25/2021 1:30:00 AM -0.05 31.91 0.05 6.16 1.27 14.24
1/25/2021 1:45:00 AM -0.05 31.91 0.05 6.16 1.32 14.24
1/25/2021 2:00:00 AM -0.05 31.91 0.05 6.16 1.32 14.23
1/25/2021 2:15:00 AM -0.05 31.91 0.05 6.16 1.27 14.23
1/25/2021 2:30:00 AM -0.05 31.91 0.051 6.16 1.28 14.23
1/25/2021 2:45:00 AM -0.05 31.91 0.05 6.16 1.29 14.23
1/25/2021 3:00:00 AM -0.05 31.91 0.05 6.16 1.35 14.24
1/25/2021 3:15:00 AM -0.05 31.91 0.05 6.16 1.31 14.23
1/25/2021 3:30:00 AM -0.05 31.91 0.05 6.15 1.31 14.23
1/25/2021 3:45:00 AM -0.05 31.91 0.05 6.15 1.3 14.23
1/25/2021 4:00:00 AM -0.05 31.91 0.051 6.15 1.31 14.24
1/25/2021 4:15:00 AM -0.05 31.91 0.051 6.15 1.32 14.23
1/25/2021 4:30:00 AM -0.05 31.91 0.051 6.16 1.32 14.23
1/25/2021 4:45:00 AM -0.05 31.91 0.051 6.16 1.29 14.22
1/25/2021 5:00:00 AM -100000 -179968 -100000 -100000 -100000 -100000
1/25/2021 5:15:00 AM -0.05 31.91 0.051 6.16 1.25 14.22
1/25/2021 5:30:00 AM -0.05 31.91 0.051 6.15 1.28 14.22
1/25/2021 5:45:00 AM -0.05 31.91 0.051 6.16 1.31 14.22
1/25/2021 6:00:00 AM -100000 -179968 -100000 -100000 -100000 -100000
1/25/2021 6:15:00 AM -0.05 31.91 0.05 6.15 1.3 14.23
1/25/2021 6:30:00 AM -0.05 31.91 0.051 6.15 1.32 14.23
1/25/2021 6:45:00 AM -0.05 31.91 0.051 6.15 1.35 14.23
1/25/2021 7:00:00 AM -0.05 31.91 0.051 6.15 1.32 14.23
1/25/2021 7:15:00 AM -0.05 31.91 0.051 6.16 1.29 14.22
1/25/2021 7:30:00 AM -0.05 31.91 0.051 6.16 1.34 14.22
1/25/2021 7:45:00 AM -0.05 31.91 0.051 6.16 1.28 14.22
1/25/2021 8:00:00 AM -0.05 31.91 0.051 6.16 1.38 14.23
1/25/2021 8:15:00 AM -0.05 31.91 0.051 6.16 1.32 14.23
1/25/2021 8:30:00 AM -0.04 31.928 0.05 6.16 1.35 14.24
1/25/2021 8:45:00 AM -0.04 31.928 0.051 6.16 2.51 14.24
1/25/2021 9:00:00 AM -0.04 31.928 0.05 6.16 1.27 14.25
1/25/2021 9:15:00 AM -0.03 31.946 0.051 6.16 1.27 14.25
1/25/2021 9:30:00 AM -100000 -179968 -100000 -100000 -100000 -100000
1/25/2021 9:45:00 AM -0.02 31.964 0.05 6.17 1.3 14.25
1/25/2021 10:00:00 AM -0.02 31.964 0.05 6.17 1.33 14.25
1/25/2021 10:15:00 AM -0.01 31.982 0.05 6.18 1.27 14.25
1/25/2021 10:30:00 AM 0 32 0.051 6.17 1.28 14.25
1/25/2021 10:45:00 AM 0 32 0.051 6.17 1.27 14.24
1/25/2021 11:00:00 AM 0 32 0.051 6.17 1.32 14.24
1/25/2021 11:15:00 AM 0 32 0.051 6.17 1.31 14.24
1/25/2021 11:30:00 AM -100000 -179968 -100000 -100000 -100000 -100000
1/25/2021 11:45:00 AM 0.01 32.018 0.051 6.17 1.31 14.22
1/25/2021 12:00:00 PM 0.01 32.018 0.05 6.17 1.35 14.21
1/25/2021 12:15:00 PM 0.02 32.036 0.051 6.17 1.39 14.2
1/25/2021 12:30:00 PM -100000 -179968 -100000 -100000 -100000 -100000
1/25/2021 12:45:00 PM 0.04 32.072 0.051 6.18 1.35 14.16
1/25/2021 1:00:00 PM 0.04 32.072 0.051 6.17 1.53 14.16
1/25/2021 1:15:00 PM 0.05 32.09 0.051 6.18 1.33 14.13
1/25/2021 1:30:00 PM 0.05 32.09 0.051 6.18 1.69 14.1
1/25/2021 1:45:00 PM 0.04 32.072 0.051 6.18 1.82 14.07
1/25/2021 2:00:00 PM 0.05 32.09 0.051 6.18 1.35 14.04
1/25/2021 2:15:00 PM 0.05 32.09 0.051 6.18 1.36 14
1/25/2021 2:30:00 PM 0.04 32.072 0.051 6.18 1.61 13.96
1/25/2021 2:45:00 PM 0.04 32.072 0.051 6.19 1.63 13.9
1/25/2021 3:00:00 PM 0.17 32.306 0.051 6.18 1.35 13.87
1/25/2021 3:15:00 PM -100000 -179968 -100000 -100000 -100000 -100000
1/25/2021 3:30:00 PM 0.55 32.99 0.05 6.19 1.39 13.8
1/25/2021 3:45:00 PM 0.68 33.224 0.05 6.19 1.33 13.77
1/25/2021 4:00:00 PM 0.8 33.44 0.05 6.19 1.26 13.74
1/25/2021 4:15:00 PM 0.89 33.602 0.05 6.19 1.26 13.71
1/25/2021 4:30:00 PM 0.96 33.728 0.05 6.19 1.47 13.69
1/25/2021 4:45:00 PM 1.02 33.836 0.05 6.18 1.26 13.67
1/25/2021 5:00:00 PM 1.04 33.872 0.05 6.18 1.27 13.65
1/25/2021 5:15:00 PM 1.09 33.962 0.05 6.17 1.26 13.64
1/25/2021 5:30:00 PM 1.12 34.016 0.05 6.17 1.32 13.63
1/25/2021 5:45:00 PM 1.13 34.034 0.05 6.17 1.29 13.61
1/25/2021 6:00:00 PM 1.13 34.034 0.05 6.17 1.35 13.59
1/25/2021 6:15:00 PM 1.15 34.07 0.049 6.15 2.57 13.59
1/25/2021 6:30:00 PM 1.16 34.088 0.05 6.17 1.27 13.59
1/25/2021 6:45:00 PM 1.17 34.106 0.05 6.17 1.26 13.59
1/25/2021 7:00:00 PM 1.17 34.106 0.05 6.17 1.32 13.58
1/25/2021 7:15:00 PM 1.16 34.088 0.05 6.17 1.31 13.58
1/25/2021 7:30:00 PM 1.16 34.088 0.05 6.17 1.25 13.58
1/25/2021 7:45:00 PM 1.15 34.07 0.05 6.17 1.27 13.59
1/25/2021 8:00:00 PM 1.14 34.052 0.05 6.17 1.29 13.6
1/25/2021 8:15:00 PM 1.13 34.034 0.049 6.15 2.46 13.6
1/25/2021 8:30:00 PM 1.13 34.034 0.05 6.17 1.23 13.61
1/25/2021 8:45:00 PM 1.14 34.052 0.049 6.15 2.46 13.62
1/25/2021 9:00:00 PM 1.13 34.034 0.049 6.15 2.47 13.62
1/25/2021 9:15:00 PM 1.12 34.016 0.05 6.17 1.29 13.63
1/25/2021 9:30:00 PM 1.12 34.016 0.051 6.17 1.28 13.64
1/25/2021 9:45:00 PM 1.11 33.998 0.051 6.17 1.32 13.64
1/25/2021 10:00:00 PM 1.11 33.998 0.051 6.17 1.26 13.65
1/25/2021 10:15:00 PM 1.1 33.98 0.051 6.18 1.24 13.65
1/25/2021 10:30:00 PM 1.08 33.944 0.051 6.17 1.3 13.65
1/25/2021 10:45:00 PM 1.08 33.944 0.051 6.17 1.39 13.67
1/25/2021 11:00:00 PM 1.06 33.908 0.051 6.17 1.29 13.67
1/25/2021 11:15:00 PM 1.04 33.872 0.051 6.17 1.28 13.68
1/25/2021 11:30:00 PM 1.03 33.854 0.051 6.18 1.3 13.68
1/25/2021 11:45:00 PM 1.02 33.836 0.051 6.17 1.26 13.69
1/26/2021 12:00:00 AM 1.02 33.836 0.051 6.17 1.3 13.7
1/26/2021 12:15:00 AM 1 33.8 0.051 6.17 1.3 13.7
1/26/2021 12:30:00 AM 0.99 33.782 0.051 6.17 1.28 13.71
1/26/2021 12:45:00 AM 0.98 33.764 0.051 6.18 1.32 13.71
1/26/2021 1:00:00 AM 0.95 33.71 0.051 6.18 1.32 13.72
1/26/2021 1:15:00 AM 0.94 33.692 0.051 6.18 1.27 13.72
1/26/2021 1:30:00 AM 0.93 33.674 0.051 6.18 1.33 13.73
1/26/2021 1:45:00 AM 0.92 33.656 0.051 6.18 1.27 13.73
1/26/2021 2:00:00 AM 0.9 33.62 0.051 6.18 1.3 13.74
1/26/2021 2:15:00 AM 0.89 33.602 0.051 6.18 1.27 13.74
1/26/2021 2:30:00 AM 0.88 33.584 0.051 6.18 1.27 13.75
1/26/2021 2:45:00 AM 0.88 33.584 0.051 6.17 1.27 13.75
1/26/2021 3:00:00 AM 0.88 33.584 0.051 6.18 1.26 13.75
1/26/2021 3:15:00 AM 0.87 33.566 0.051 6.18 1.36 13.75
1/26/2021 3:30:00 AM 0.88 33.584 0.051 6.18 1.28 13.75
1/26/2021 3:45:00 AM 0.86 33.548 0.051 6.18 1.25 13.76
1/26/2021 4:00:00 AM 0.86 33.548 0.051 6.18 1.29 13.76
1/26/2021 4:15:00 AM 0.86 33.548 0.051 6.17 1.27 13.76
1/26/2021 4:30:00 AM 0.86 33.548 0.051 6.17 1.32 13.75
1/26/2021 4:45:00 AM 0.86 33.548 0.051 6.17 1.29 13.75
1/26/2021 5:00:00 AM 0.87 33.566 0.051 6.17 1.29 13.75
1/26/2021 5:15:00 AM 0.86 33.548 0.051 6.17 1.28 13.75
1/26/2021 5:30:00 AM 0.86 33.548 0.051 6.18 1.27 13.74
1/26/2021 5:45:00 AM 0.86 33.548 0.051 6.17 1.29 13.74
1/26/2021 6:00:00 AM 0.86 33.548 0.051 6.17 1.29 13.74
1/26/2021 6:15:00 AM -100000 -179968 -100000 -100000 -100000 -100000
1/26/2021 6:30:00 AM 0.87 33.566 0.051 6.17 1.27 13.74
1/26/2021 6:45:00 AM 0.86 33.548 0.051 6.17 1.25 13.74
1/26/2021 7:00:00 AM 0.84 33.512 0.051 6.17 1.23 13.73
1/26/2021 7:15:00 AM 0.82 33.476 0.051 6.17 1.26 13.74
1/26/2021 7:30:00 AM 0.82 33.476 0.051 6.17 1.3 13.74
1/26/2021 7:45:00 AM 0.81 33.458 0.051 6.17 1.25 13.74
1/26/2021 8:00:00 AM 0.81 33.458 0.051 6.17 1.27 13.74
1/26/2021 8:15:00 AM 0.8 33.44 0.051 6.17 1.28 13.74
1/26/2021 8:30:00 AM 0.75 33.35 0.051 6.17 1.27 13.75
1/26/2021 8:45:00 AM 0.74 33.332 0.051 6.17 1.25 13.75
1/26/2021 9:00:00 AM 0.69 33.242 0.051 6.17 1.25 13.76
1/26/2021 9:15:00 AM 0.65 33.17 0.051 6.17 1.29 13.78
1/26/2021 9:30:00 AM 0.64 33.152 0.051 6.17 1.28 13.79
1/26/2021 9:45:00 AM 0.59 33.062 0.051 6.17 1.26 13.81
1/26/2021 10:00:00 AM 0.57 33.026 0.051 6.17 1.33 13.82
1/26/2021 10:15:00 AM 0.59 33.062 0.051 6.17 1.34 13.83
1/26/2021 10:30:00 AM 0.63 33.134 0.051 6.17 1.3 13.84
1/26/2021 10:45:00 AM 0.66 33.188 0.051 6.18 1.29 13.84
1/26/2021 11:00:00 AM 0.69 33.242 0.051 6.17 1.3 13.84
1/26/2021 11:15:00 AM 0.7 33.26 0.051 6.18 1.3 13.83
1/26/2021 11:30:00 AM 0.75 33.35 0.051 6.18 1.27 13.82
1/26/2021 11:45:00 AM 0.78 33.404 0.051 6.18 1.34 13.8
1/26/2021 12:00:00 PM 0.81 33.458 0.051 6.18 1.28 13.79
1/26/2021 12:15:00 PM 0.85 33.53 0.051 6.18 1.34 13.77
1/26/2021 12:30:00 PM 0.86 33.548 0.051 6.18 1.34 13.76
1/26/2021 12:45:00 PM 0.88 33.584 0.051 6.18 1.3 13.75
1/26/2021 1:00:00 PM 0.93 33.674 0.051 6.17 1.27 13.74
1/26/2021 1:15:00 PM 0.96 33.728 0.051 6.17 1.27 13.72
1/26/2021 1:30:00 PM 1.01 33.818 0.051 6.18 1.29 13.71
1/26/2021 1:45:00 PM 1.04 33.872 0.051 6.18 1.41 13.69
1/26/2021 2:00:00 PM 1.08 33.944 0.051 6.18 1.26 13.67
1/26/2021 2:15:00 PM 1.11 33.998 0.052 6.18 1.28 13.66
1/26/2021 2:30:00 PM 1.14 34.052 0.052 6.17 1.3 13.64
1/26/2021 2:45:00 PM 1.17 34.106 0.052 6.18 1.24 13.62
1/26/2021 3:00:00 PM 1.21 34.178 0.053 6.18 1.28 13.61
1/26/2021 3:15:00 PM 1.23 34.214 0.053 6.18 1.33 13.6
1/26/2021 3:30:00 PM -100000 -179968 -100000 -100000 -100000 -100000
1/26/2021 3:45:00 PM 1.28 34.304 0.054 6.18 1.23 13.56
1/26/2021 4:00:00 PM 1.31 34.358 0.054 6.18 1.28 13.56
1/26/2021 4:15:00 PM 1.33 34.394 0.054 6.18 1.29 13.55
1/26/2021 4:30:00 PM 1.36 34.448 0.055 6.18 1.31 13.55
1/26/2021 4:45:00 PM 1.38 34.484 0.055 6.18 1.3 13.53
1/26/2021 5:00:00 PM 1.39 34.502 0.055 6.18 1.26 13.52
1/26/2021 5:15:00 PM 1.41 34.538 0.055 6.18 1.27 13.51
1/26/2021 5:30:00 PM 1.43 34.574 0.055 6.17 1.33 13.5
1/26/2021 5:45:00 PM 1.44 34.592 0.055 6.17 1.28 13.49
1/26/2021 6:00:00 PM 1.45 34.61 0.055 6.17 1.27 13.47
1/26/2021 6:15:00 PM 1.45 34.61 0.055 6.17 1.28 13.47
1/26/2021 6:30:00 PM -100000 -179968 -100000 -100000 -100000 -100000
1/26/2021 6:45:00 PM 1.48 34.664 0.055 6.17 1.33 13.46
1/26/2021 7:00:00 PM 1.48 34.664 0.055 6.17 1.37 13.46
1/26/2021 7:15:00 PM 1.49 34.682 0.055 6.17 1.34 13.46
1/26/2021 7:30:00 PM 1.5 34.7 0.055 6.17 1.29 13.45
1/26/2021 7:45:00 PM 1.51 34.718 0.055 6.17 1.27 13.45
1/26/2021 8:00:00 PM 1.52 34.736 0.055 6.17 1.28 13.45
1/26/2021 8:15:00 PM 1.52 34.736 0.055 6.17 1.29 13.44
1/26/2021 8:30:00 PM 1.53 34.754 0.056 6.18 1.3 13.44
1/26/2021 8:45:00 PM 1.54 34.772 0.056 6.18 1.28 13.44
1/26/2021 9:00:00 PM 1.55 34.79 0.056 6.18 1.31 13.45
1/26/2021 9:15:00 PM 1.55 34.79 0.056 6.18 1.26 13.45
1/26/2021 9:30:00 PM 1.56 34.808 0.056 6.18 1.27 13.45
1/26/2021 9:45:00 PM 1.57 34.826 0.056 6.18 1.27 13.44
1/26/2021 10:00:00 PM 1.58 34.844 0.056 6.18 1.26 13.45
1/26/2021 10:15:00 PM 1.58 34.844 0.056 6.18 1.29 13.44
1/26/2021 10:30:00 PM 1.59 34.862 0.056 6.19 1.27 13.44
1/26/2021 10:45:00 PM 1.6 34.88 0.057 6.19 1.39 13.44
1/26/2021 11:00:00 PM 1.61 34.898 0.057 6.19 1.37 13.43
1/26/2021 11:15:00 PM 1.61 34.898 0.057 6.19 1.29 13.44
1/26/2021 11:30:00 PM 1.62 34.916 0.057 6.19 1.25 13.44
1/26/2021 11:45:00 PM 1.62 34.916 0.057 6.19 1.25 13.44
1/27/2021 12:00:00 AM 1.62 34.916 0.057 6.19 1.33 13.44
1/27/2021 12:15:00 AM 1.63 34.934 0.057 6.19 1.25 13.43
1/27/2021 12:30:00 AM 1.63 34.934 0.056 6.19 1.28 13.44
1/27/2021 12:45:00 AM 1.63 34.934 0.056 6.19 1.27 13.44
1/27/2021 1:00:00 AM 1.64 34.952 0.056 6.19 1.28 13.44
1/27/2021 1:15:00 AM -100000 -179968 -100000 -100000 -100000 -100000
1/27/2021 1:30:00 AM 1.64 34.952 0.056 6.19 1.29 13.44
1/27/2021 1:45:00 AM 1.64 34.952 0.055 6.19 1.25 13.45
1/27/2021 2:00:00 AM 1.64 34.952 0.055 6.18 1.33 13.46
1/27/2021 2:15:00 AM 1.63 34.934 0.055 6.18 1.33 13.46
1/27/2021 2:30:00 AM 1.63 34.934 0.055 6.18 1.32 13.46
1/27/2021 2:45:00 AM 1.63 34.934 0.054 6.18 1.29 13.47
1/27/2021 3:00:00 AM 1.62 34.916 0.054 6.18 1.29 13.48
1/27/2021 3:15:00 AM 1.61 34.898 0.054 6.18 1.32 13.48
1/27/2021 3:30:00 AM 1.58 34.844 0.054 6.18 1.3 13.49
1/27/2021 3:45:00 AM 1.57 34.826 0.054 6.18 1.32 13.49
1/27/2021 4:00:00 AM 1.58 34.844 0.054 6.17 1.25 13.5
1/27/2021 4:15:00 AM 1.57 34.826 0.053 6.17 1.3 13.51
1/27/2021 4:30:00 AM -100000 -179968 -100000 -100000 -100000 -100000
1/27/2021 4:45:00 AM 1.56 34.808 0.053 6.17 1.37 13.52
1/27/2021 5:00:00 AM 1.56 34.808 0.053 6.17 1.26 13.52
1/27/2021 5:15:00 AM -100000 -179968 -100000 -100000 -100000 -100000
1/27/2021 5:30:00 AM 1.56 34.808 0.053 6.17 1.28 13.53
1/27/2021 5:45:00 AM 1.56 34.808 0.053 6.17 1.28 13.54
1/27/2021 6:00:00 AM 1.54 34.772 0.053 6.17 1.32 13.54
1/27/2021 6:15:00 AM 1.53 34.754 0.053 6.17 1.27 13.55
1/27/2021 6:30:00 AM 1.53 34.754 0.052 6.17 1.28 13.56
1/27/2021 6:45:00 AM 1.51 34.718 0.052 6.16 1.32 13.56
1/27/2021 7:00:00 AM 1.5 34.7 0.052 6.17 1.39 13.58
1/27/2021 7:15:00 AM 1.48 34.664 0.052 6.17 1.27 13.59
1/27/2021 7:30:00 AM 1.46 34.628 0.052 6.17 1.27 13.59
1/27/2021 7:45:00 AM 1.44 34.592 0.052 6.16 1.3 13.61
1/27/2021 8:00:00 AM 1.42 34.556 0.052 6.16 1.28 13.62
1/27/2021 8:15:00 AM 1.41 34.538 0.052 6.17 1.3 13.63
1/27/2021 8:30:00 AM 1.4 34.52 0.052 6.17 1.34 13.65
1/27/2021 8:45:00 AM 1.39 34.502 0.052 6.17 1.29 13.66
1/27/2021 9:00:00 AM 1.38 34.484 0.052 6.17 1.25 13.67
1/27/2021 9:15:00 AM 1.37 34.466 0.052 6.17 1.33 13.69
1/27/2021 9:30:00 AM 1.37 34.466 0.052 6.17 1.31 13.7
1/27/2021 9:45:00 AM 1.37 34.466 0.051 6.17 1.31 13.71
1/27/2021 10:00:00 AM 1.38 34.484 0.052 6.17 1.43 13.72
1/27/2021 10:15:00 AM 1.38 34.484 0.051 6.17 1.32 13.72
1/27/2021 10:30:00 AM 1.4 34.52 0.052 6.18 1.28 13.72
1/27/2021 10:45:00 AM 1.42 34.556 0.051 6.18 1.3 13.73
1/27/2021 11:00:00 AM 1.44 34.592 0.051 6.18 1.29 13.73
1/27/2021 11:15:00 AM 1.44 34.592 0.051 6.18 1.29 13.72
1/27/2021 11:30:00 AM 1.46 34.628 0.051 6.18 1.36 13.72
1/27/2021 11:45:00 AM 1.47 34.646 0.051 6.18 1.42 13.72
1/27/2021 12:00:00 PM 1.49 34.682 0.051 6.18 1.26 13.71
1/27/2021 12:15:00 PM 1.51 34.718 0.051 6.18 1.32 13.7
1/27/2021 12:30:00 PM 1.54 34.772 0.051 6.17 1.31 13.69
1/27/2021 12:45:00 PM 1.55 34.79 0.051 6.17 1.31 13.68
1/27/2021 1:00:00 PM -100000 -179968 -100000 -100000 -100000 -100000
1/27/2021 1:15:00 PM 1.59 34.862 0.052 6.18 1.3 13.66
1/27/2021 1:30:00 PM 1.61 34.898 0.051 6.17 1.28 13.65
1/27/2021 1:45:00 PM 1.61 34.898 0.051 6.17 1.29 13.65
1/27/2021 2:00:00 PM 1.62 34.916 0.051 6.17 1.29 13.64
1/27/2021 2:15:00 PM 1.63 34.934 0.051 6.17 1.34 13.63
1/27/2021 2:30:00 PM 1.64 34.952 0.051 6.17 1.29 13.63
1/27/2021 2:45:00 PM 1.64 34.952 0.051 6.18 1.26 13.62
1/27/2021 3:00:00 PM 1.64 34.952 0.052 6.17 1.24 13.62
1/27/2021 3:15:00 PM 1.63 34.934 0.052 6.17 1.3 13.62
1/27/2021 3:30:00 PM 1.65 34.97 0.052 6.17 1.27 13.61
1/27/2021 3:45:00 PM -100000 -179968 -100000 -100000 -100000 -100000
1/27/2021 4:00:00 PM 1.64 34.952 0.052 6.17 1.32 13.61
1/27/2021 4:15:00 PM 1.62 34.916 0.052 6.17 1.26 13.6
1/27/2021 4:30:00 PM -100000 -179968 -100000 -100000 -100000 -100000
1/27/2021 4:45:00 PM 1.6 34.88 0.052 6.17 1.27 13.6
1/27/2021 5:00:00 PM 1.59 34.862 0.052 6.17 1.27 13.6
1/27/2021 5:15:00 PM 1.57 34.826 0.052 6.16 1.28 13.6
1/27/2021 5:30:00 PM 1.55 34.79 0.052 6.16 1.28 13.61
1/27/2021 5:45:00 PM 1.52 34.736 0.051 6.16 1.33 13.61
1/27/2021 6:00:00 PM 1.5 34.7 0.051 6.16 1.27 13.62
1/27/2021 6:15:00 PM 1.48 34.664 0.052 6.16 1.25 13.63
1/27/2021 6:30:00 PM 1.45 34.61 0.052 6.16 1.29 13.63
1/27/2021 6:45:00 PM 1.43 34.574 0.052 6.16 1.28 13.64
1/27/2021 7:00:00 PM 1.39 34.502 0.052 6.15 1.29 13.64
1/27/2021 7:15:00 PM -100000 -179968 -100000 -100000 -100000 -100000
1/27/2021 7:30:00 PM 1.31 34.358 0.052 6.16 1.28 13.68
1/27/2021 7:45:00 PM 1.27 34.286 0.051 6.15 1.3 13.7
1/27/2021 8:00:00 PM 1.23 34.214 0.052 6.15 1.32 13.7
1/27/2021 8:15:00 PM 1.2 34.16 0.052 6.15 1.26 13.72
1/27/2021 8:30:00 PM 1.15 34.07 0.052 6.16 1.31 13.74
1/27/2021 8:45:00 PM 1.11 33.998 0.052 6.16 1.3 13.76
1/27/2021 9:00:00 PM 1.06 33.908 0.052 6.16 1.31 13.78
1/27/2021 9:15:00 PM 1.01 33.818 0.052 6.16 1.34 13.79
1/27/2021 9:30:00 PM 0.96 33.728 0.052 6.16 1.3 13.82
1/27/2021 9:45:00 PM 0.92 33.656 0.052 6.16 1.3 13.83
1/27/2021 10:00:00 PM 0.88 33.584 0.052 6.16 1.26 13.85
1/27/2021 10:15:00 PM 0.83 33.494 0.052 6.16 1.28 13.88
1/27/2021 10:30:00 PM 0.78 33.404 0.052 6.15 1.32 13.9
1/27/2021 10:45:00 PM 0.72 33.296 0.051 6.15 1.32 13.93
1/27/2021 11:00:00 PM 0.67 33.206 0.052 6.16 1.3 13.95
1/27/2021 11:15:00 PM 0.61 33.098 0.051 6.16 1.3 13.98
1/27/2021 11:30:00 PM 0.56 33.008 0.052 6.15 1.27 14
1/27/2021 11:45:00 PM 0.51 32.918 0.052 6.16 1.29 14.02
1/28/2021 12:00:00 AM 0.46 32.828 0.052 6.16 1.29 14.04
1/28/2021 12:15:00 AM 0.42 32.756 0.052 6.15 1.3 14.06
1/28/2021 12:30:00 AM 0.38 32.684 0.052 6.16 1.26 14.08
1/28/2021 12:45:00 AM 0.34 32.612 0.052 6.16 1.34 14.08
1/28/2021 1:00:00 AM 0.29 32.522 0.052 6.15 1.3 14.11
1/28/2021 1:15:00 AM 0.25 32.45 0.052 6.16 1.34 14.12
1/28/2021 1:30:00 AM 0.2 32.36 0.052 6.16 1.34 14.15
1/28/2021 1:45:00 AM -100000 -179968 -100000 -100000 -100000 -100000
1/28/2021 2:00:00 AM 0.14 32.252 0.052 6.16 1.29 14.17
1/28/2021 2:15:00 AM 0.11 32.198 0.052 6.16 1.28 14.19
1/28/2021 2:30:00 AM 0.09 32.162 0.052 6.16 1.3 14.2
1/28/2021 2:45:00 AM 0.07 32.126 0.052 6.16 1.32 14.21
1/28/2021 3:00:00 AM 0.05 32.09 0.052 6.16 1.28 14.22
1/28/2021 3:15:00 AM 0.02 32.036 0.052 6.16 1.32 14.24
1/28/2021 3:30:00 AM 0 32 0.052 6.16 1.28 14.25
1/28/2021 3:45:00 AM -0.01 31.982 0.052 6.16 1.28 14.26
1/28/2021 4:00:00 AM -0.05 31.91 0.052 6.16 1.31 14.27
1/28/2021 4:15:00 AM -0.07 31.874 0.052 6.16 1.32 14.29
1/28/2021 4:30:00 AM -0.08 31.856 0.052 6.16 1.34 14.31
1/28/2021 4:45:00 AM -0.08 31.856 0.052 6.17 1.31 14.32
1/28/2021 5:00:00 AM -0.07 31.874 0.052 6.17 1.34 14.33
1/28/2021 5:15:00 AM -0.07 31.874 0.052 6.16 1.28 14.34
1/28/2021 5:30:00 AM -0.07 31.874 0.051 6.17 1.32 14.35
1/28/2021 5:45:00 AM -0.07 31.874 0.052 6.17 1.33 14.36
1/28/2021 6:00:00 AM -0.07 31.874 0.052 6.17 1.27 14.37
1/28/2021 6:15:00 AM -0.07 31.874 0.052 6.17 1.3 14.38
1/28/2021 6:30:00 AM -0.08 31.856 0.052 6.17 1.42 14.38
1/28/2021 6:45:00 AM -0.07 31.874 0.052 6.17 1.32 14.39
1/28/2021 7:00:00 AM -0.07 31.874 0.052 6.18 1.28 14.39
1/28/2021 7:15:00 AM -0.07 31.874 0.052 6.17 1.28 14.4
1/28/2021 7:30:00 AM -0.07 31.874 0.052 6.17 1.27 14.4
1/28/2021 7:45:00 AM -0.07 31.874 0.052 6.17 1.33 14.4
1/28/2021 8:00:00 AM -0.07 31.874 0.052 6.17 1.34 14.41
1/28/2021 8:15:00 AM -100000 -179968 -100000 -100000 -100000 -100000
1/28/2021 8:30:00 AM -0.07 31.874 0.052 6.17 1.36 14.42
1/28/2021 8:45:00 AM -0.07 31.874 0.052 6.17 1.28 14.43
1/28/2021 9:00:00 AM -0.06 31.892 0.052 6.17 1.36 14.44
1/28/2021 9:15:00 AM -0.06 31.892 0.052 6.17 1.29 14.44
1/28/2021 9:30:00 AM -0.06 31.892 0.052 6.17 1.34 14.45
1/28/2021 9:45:00 AM -0.06 31.892 0.052 6.17 1.29 14.45
1/28/2021 10:00:00 AM -0.06 31.892 0.052 6.17 1.32 14.45
1/28/2021 10:15:00 AM -0.05 31.91 0.052 6.17 1.31 14.45
1/28/2021 10:30:00 AM -0.05 31.91 0.052 6.17 1.32 14.45
1/28/2021 10:45:00 AM -0.05 31.91 0.052 6.18 1.3 14.45
1/28/2021 11:00:00 AM -0.05 31.91 0.052 6.18 1.33 14.45
1/28/2021 11:15:00 AM -0.04 31.928 0.053 6.18 1.31 14.45
1/28/2021 11:30:00 AM -0.04 31.928 0.053 6.18 1.39 14.45
1/28/2021 11:45:00 AM -0.04 31.928 0.053 6.18 1.31 14.44
1/28/2021 12:00:00 PM -0.04 31.928 0.053 6.18 1.3 14.44
1/28/2021 12:15:00 PM -0.05 31.91 0.053 6.18 1.32 14.43
1/28/2021 12:30:00 PM -0.05 31.91 0.053 6.17 1.32 14.44
1/28/2021 12:45:00 PM -100000 -179968 -100000 -100000 -100000 -100000
1/28/2021 1:00:00 PM -0.05 31.91 0.053 6.17 1.36 14.43
1/28/2021 1:15:00 PM -0.06 31.892 0.053 6.17 1.34 14.43
1/28/2021 1:30:00 PM -0.05 31.91 0.052 6.16 1.36 14.42
1/28/2021 1:45:00 PM -0.05 31.91 0.052 6.17 1.33 14.42
1/28/2021 2:00:00 PM -0.06 31.892 0.052 6.16 1.32 14.41
1/28/2021 2:15:00 PM -0.06 31.892 0.052 6.16 1.3 14.41
1/28/2021 2:30:00 PM -0.06 31.892 0.052 6.16 1.35 14.41
1/28/2021 2:45:00 PM -0.06 31.892 0.052 6.16 1.32 14.41
1/28/2021 3:00:00 PM -0.06 31.892 0.052 6.16 1.32 14.41
1/28/2021 3:15:00 PM -100000 -179968 -100000 -100000 -100000 -100000
1/28/2021 3:30:00 PM -0.07 31.874 0.052 6.16 1.27 14.42
1/28/2021 3:45:00 PM -0.06 31.892 0.052 6.16 1.27 14.43
1/28/2021 4:00:00 PM -0.06 31.892 0.052 6.17 1.3 14.43
1/28/2021 4:15:00 PM -0.06 31.892 0.052 6.16 1.38 14.44
1/28/2021 4:30:00 PM -0.06 31.892 0.052 6.16 1.38 14.45
1/28/2021 4:45:00 PM -0.07 31.874 0.052 6.16 1.32 14.45
1/28/2021 5:00:00 PM -0.07 31.874 0.051 6.16 1.37 14.45
1/28/2021 5:15:00 PM -0.07 31.874 0.051 6.16 1.33 14.44
1/28/2021 5:30:00 PM -0.07 31.874 0.051 6.16 1.31 14.43
1/28/2021 5:45:00 PM -0.07 31.874 0.051 6.15 1.32 14.43
1/28/2021 6:00:00 PM -0.07 31.874 0.051 6.16 1.28 14.43
1/28/2021 6:15:00 PM -0.07 31.874 0.051 6.15 1.28 14.42
1/28/2021 6:30:00 PM -0.07 31.874 0.051 6.15 1.39 14.42
1/28/2021 6:45:00 PM -0.07 31.874 0.05 6.15 1.32 14.41
1/28/2021 7:00:00 PM -0.07 31.874 0.05 6.15 1.29 14.42
1/28/2021 7:15:00 PM -0.07 31.874 0.05 6.15 1.31 14.41
1/28/2021 7:30:00 PM -0.07 31.874 0.05 6.15 1.29 14.41
1/28/2021 7:45:00 PM -0.07 31.874 0.05 6.15 1.28 14.42
1/28/2021 8:00:00 PM -0.07 31.874 0.051 6.16 1.31 14.42
1/28/2021 8:15:00 PM -0.07 31.874 0.051 6.15 1.32 14.42
1/28/2021 8:30:00 PM -0.07 31.874 0.051 6.16 1.28 14.42
1/28/2021 8:45:00 PM -0.07 31.874 0.051 6.16 1.38 14.43
1/28/2021 9:00:00 PM -0.07 31.874 0.051 6.16 1.27 14.43
1/28/2021 9:15:00 PM -0.07 31.874 0.051 6.16 1.27 14.42
1/28/2021 9:30:00 PM -0.07 31.874 0.051 6.16 1.28 14.43
1/28/2021 9:45:00 PM -0.07 31.874 0.052 6.16 1.29 14.43
1/28/2021 10:00:00 PM -0.07 31.874 0.052 6.17 1.31 14.42
1/28/2021 10:15:00 PM -0.07 31.874 0.052 6.17 1.3 14.42
1/28/2021 10:30:00 PM -100000 -179968 -100000 -100000 -100000 -100000
1/28/2021 10:45:00 PM -0.06 31.892 0.053 6.18 1.31 14.42
1/28/2021 11:00:00 PM -0.07 31.874 0.053 6.18 1.32 14.42
1/28/2021 11:15:00 PM -100000 -179968 -100000 -100000 -100000 -100000
1/28/2021 11:30:00 PM -0.07 31.874 0.053 6.18 1.29 14.42
1/28/2021 11:45:00 PM -0.07 31.874 0.053 6.17 1.31 14.42
1/29/2021 12:00:00 AM -0.07 31.874 0.054 6.18 1.3 14.42
1/29/2021 12:15:00 AM -0.07 31.874 0.054 6.17 1.34 14.42
1/29/2021 12:30:00 AM -0.07 31.874 0.054 6.17 1.29 14.41
1/29/2021 12:45:00 AM -0.06 31.892 0.054 6.18 1.3 14.41
1/29/2021 1:00:00 AM -0.07 31.874 0.054 6.18 1.3 14.41
1/29/2021 1:15:00 AM -0.07 31.874 0.054 6.17 1.28 14.41
1/29/2021 1:30:00 AM -0.07 31.874 0.054 6.18 1.26 14.41
1/29/2021 1:45:00 AM -0.07 31.874 0.054 6.18 1.29 14.4
1/29/2021 2:00:00 AM -0.07 31.874 0.054 6.18 1.31 14.4
1/29/2021 2:15:00 AM -0.06 31.892 0.054 6.18 1.3 14.4
1/29/2021 2:30:00 AM -0.07 31.874 0.054 6.17 1.3 14.4
1/29/2021 2:45:00 AM -0.07 31.874 0.054 6.18 1.32 14.4
1/29/2021 3:00:00 AM -0.07 31.874 0.054 6.18 1.27 14.4
1/29/2021 3:15:00 AM -0.07 31.874 0.054 6.18 1.31 14.39
1/29/2021 3:30:00 AM -0.07 31.874 0.055 6.18 1.28 14.39
1/29/2021 3:45:00 AM -0.07 31.874 0.055 6.18 1.3 14.39
1/29/2021 4:00:00 AM -0.06 31.892 0.055 6.18 1.31 14.39
1/29/2021 4:15:00 AM -0.07 31.874 0.055 6.18 1.29 14.39
1/29/2021 4:30:00 AM -0.06 31.892 0.055 6.19 1.31 14.38
1/29/2021 4:45:00 AM -0.07 31.874 0.055 6.18 1.28 14.39
1/29/2021 5:00:00 AM -0.06 31.892 0.055 6.18 1.3 14.39
1/29/2021 5:15:00 AM -0.06 31.892 0.055 6.18 1.3 14.39
1/29/2021 5:30:00 AM -100000 -179968 -100000 -100000 -100000 -100000
1/29/2021 5:45:00 AM -0.07 31.874 0.055 6.18 1.42 14.4
1/29/2021 6:00:00 AM -100000 -179968 -100000 -100000 -100000 -100000
1/29/2021 6:15:00 AM -0.07 31.874 0.055 6.18 1.28 14.4
1/29/2021 6:30:00 AM -0.06 31.892 0.056 6.19 1.31 14.4
1/29/2021 6:45:00 AM -100000 -179968 -100000 -100000 -100000 -100000
1/29/2021 7:00:00 AM -0.07 31.874 0.056 6.18 1.34 14.4
1/29/2021 7:15:00 AM -100000 -179968 -100000 -100000 -100000 -100000
1/29/2021 7:30:00 AM -0.07 31.874 0.056 6.18 1.46 14.4
1/29/2021 7:45:00 AM -100000 -179968 -100000 -100000 -100000 -100000
1/29/2021 8:00:00 AM -0.07 31.874 0.056 6.18 1.31 14.41
1/29/2021 8:15:00 AM -100000 -179968 -100000 -100000 -100000 -100000
1/29/2021 8:30:00 AM -0.07 31.874 0.057 6.19 1.32 14.42
1/29/2021 8:45:00 AM -0.06 31.892 0.057 6.19 1.3 14.42
1/29/2021 9:00:00 AM -0.06 31.892 0.057 6.19 1.32 14.42
1/29/2021 9:15:00 AM -0.06 31.892 0.057 6.19 1.28 14.43
1/29/2021 9:30:00 AM -0.06 31.892 0.057 6.2 1.35 14.43
1/29/2021 9:45:00 AM -0.06 31.892 0.057 6.19 1.3 14.44
1/29/2021 10:00:00 AM -0.05 31.91 0.057 6.19 1.34 14.43
1/29/2021 10:15:00 AM -0.06 31.892 0.058 6.19 1.3 14.43
1/29/2021 10:30:00 AM -0.05 31.91 0.058 6.19 1.27 14.43
1/29/2021 10:45:00 AM -0.06 31.892 0.058 6.19 1.31 14.43
1/29/2021 11:00:00 AM -0.05 31.91 0.058 6.19 1.31 14.43
1/29/2021 11:15:00 AM -0.06 31.892 0.058 6.19 1.32 14.42
1/29/2021 11:30:00 AM -0.06 31.892 0.058 6.19 1.32 14.42
1/29/2021 11:45:00 AM -0.05 31.91 0.058 6.19 1.31 14.42
1/29/2021 12:00:00 PM -0.05 31.91 0.058 6.19 1.32 14.42
1/29/2021 12:15:00 PM -0.05 31.91 0.057 6.19 1.37 14.41
1/29/2021 12:30:00 PM -0.05 31.91 0.057 6.19 1.3 14.41
1/29/2021 12:45:00 PM -0.05 31.91 0.057 6.19 1.32 14.4
1/29/2021 1:00:00 PM -0.05 31.91 0.057 6.18 1.31 14.4
1/29/2021 1:15:00 PM -0.06 31.892 0.056 6.18 1.34 14.39
1/29/2021 1:30:00 PM -0.05 31.91 0.056 6.18 1.3 14.38
1/29/2021 1:45:00 PM -0.06 31.892 0.056 6.18 1.36 14.38
1/29/2021 2:00:00 PM -0.06 31.892 0.055 6.18 1.31 14.38
1/29/2021 2:15:00 PM -0.06 31.892 0.055 6.18 1.39 14.38
1/29/2021 2:30:00 PM -0.05 31.91 0.055 6.18 1.28 14.38
1/29/2021 2:45:00 PM -0.05 31.91 0.054 6.18 1.33 14.37
1/29/2021 3:00:00 PM -0.05 31.91 0.054 6.18 1.38 14.37
1/29/2021 3:15:00 PM -0.06 31.892 0.054 6.18 1.35 14.37
1/29/2021 3:30:00 PM -0.06 31.892 0.053 6.17 1.37 14.37
1/29/2021 3:45:00 PM -0.06 31.892 0.053 6.18 1.33 14.37
1/29/2021 4:00:00 PM -0.06 31.892 0.053 6.17 1.35 14.37
1/29/2021 4:15:00 PM -0.06 31.892 0.053 6.17 1.37 14.37
1/29/2021 4:30:00 PM -0.06 31.892 0.053 6.17 1.33 14.37
1/29/2021 4:45:00 PM -0.06 31.892 0.053 6.17 1.29 14.37
1/29/2021 5:00:00 PM -0.06 31.892 0.053 6.17 1.42 14.37
1/29/2021 5:15:00 PM -0.07 31.874 0.053 6.17 1.3 14.37
1/29/2021 5:30:00 PM -0.07 31.874 0.053 6.17 1.32 14.36
1/29/2021 5:45:00 PM -100000 -179968 -100000 -100000 -100000 -100000
1/29/2021 6:00:00 PM -0.06 31.892 0.053 6.17 1.34 14.36
1/29/2021 6:15:00 PM -0.07 31.874 0.053 6.16 1.34 14.36
1/29/2021 6:30:00 PM -0.07 31.874 0.053 6.16 1.35 14.35
1/29/2021 6:45:00 PM -0.07 31.874 0.053 6.16 1.31 14.35
1/29/2021 7:00:00 PM -0.07 31.874 0.053 6.16 1.33 14.35
1/29/2021 7:15:00 PM -0.07 31.874 0.052 6.17 1.32 14.36
1/29/2021 7:30:00 PM -0.07 31.874 0.052 6.16 1.29 14.36
1/29/2021 7:45:00 PM -0.07 31.874 0.052 6.17 1.27 14.36
1/29/2021 8:00:00 PM -0.07 31.874 0.052 6.16 1.36 14.36
1/29/2021 8:15:00 PM -0.07 31.874 0.052 6.16 1.34 14.36
1/29/2021 8:30:00 PM -0.07 31.874 0.052 6.16 1.31 14.36
1/29/2021 8:45:00 PM -0.07 31.874 0.052 6.16 1.28 14.36
1/29/2021 9:00:00 PM -0.07 31.874 0.052 6.17 1.29 14.36
1/29/2021 9:15:00 PM -0.07 31.874 0.051 6.17 1.32 14.36
1/29/2021 9:30:00 PM -0.07 31.874 0.051 6.17 1.32 14.36
1/29/2021 9:45:00 PM -0.07 31.874 0.051 6.17 1.32 14.36
1/29/2021 10:00:00 PM -0.07 31.874 0.051 6.17 1.29 14.36
1/29/2021 10:15:00 PM -0.07 31.874 0.051 6.17 1.29 14.36
1/29/2021 10:30:00 PM -0.07 31.874 0.051 6.17 1.34 14.36
1/29/2021 10:45:00 PM -0.07 31.874 0.051 6.17 1.27 14.36
1/29/2021 11:00:00 PM -0.07 31.874 0.051 6.17 1.28 14.36
1/29/2021 11:15:00 PM -0.07 31.874 0.051 6.17 1.34 14.36
1/29/2021 11:30:00 PM -0.07 31.874 0.051 6.17 1.3 14.36
1/29/2021 11:45:00 PM -0.07 31.874 0.051 6.17 1.29 14.36
1/30/2021 12:00:00 AM -0.07 31.874 0.052 6.17 1.32 14.36
1/30/2021 12:15:00 AM -0.07 31.874 0.052 6.17 1.35 14.36
1/30/2021 12:30:00 AM -0.07 31.874 0.052 6.17 1.31 14.36
1/30/2021 12:45:00 AM -0.07 31.874 0.052 6.17 1.31 14.37
1/30/2021 1:00:00 AM -0.07 31.874 0.052 6.17 1.31 14.37
1/30/2021 1:15:00 AM -0.07 31.874 0.052 6.17 1.31 14.37
1/30/2021 1:30:00 AM -0.07 31.874 0.052 6.17 1.31 14.37
1/30/2021 1:45:00 AM -0.07 31.874 0.052 6.17 1.26 14.37
1/30/2021 2:00:00 AM -0.07 31.874 0.052 6.17 1.3 14.38
1/30/2021 2:15:00 AM -0.07 31.874 0.052 6.17 1.31 14.37
1/30/2021 2:30:00 AM -0.07 31.874 0.053 6.17 1.32 14.38
1/30/2021 2:45:00 AM -0.07 31.874 0.053 6.17 1.33 14.38
1/30/2021 3:00:00 AM -0.07 31.874 0.053 6.17 1.3 14.38
1/30/2021 3:15:00 AM -0.07 31.874 0.053 6.17 1.32 14.38
1/30/2021 3:30:00 AM -0.07 31.874 0.053 6.17 1.29 14.38
1/30/2021 3:45:00 AM -0.07 31.874 0.053 6.17 1.35 14.37
1/30/2021 4:00:00 AM -0.07 31.874 0.053 6.17 1.35 14.38
1/30/2021 4:15:00 AM -0.07 31.874 0.053 6.17 1.31 14.37
1/30/2021 4:30:00 AM -0.07 31.874 0.053 6.17 1.29 14.38
1/30/2021 4:45:00 AM -0.07 31.874 0.053 6.17 1.3 14.37
1/30/2021 5:00:00 AM -100000 -179968 -100000 -100000 -100000 -100000
1/30/2021 5:15:00 AM -0.07 31.874 0.054 6.17 1.33 14.37
1/30/2021 5:30:00 AM -0.07 31.874 0.054 6.17 1.29 14.37
1/30/2021 5:45:00 AM -0.07 31.874 0.054 6.17 1.32 14.37
1/30/2021 6:00:00 AM -0.07 31.874 0.054 6.17 1.32 14.37
1/30/2021 6:15:00 AM -100000 -179968 -100000 -100000 -100000 -100000
1/30/2021 6:30:00 AM -0.07 31.874 0.054 6.17 1.31 14.37
1/30/2021 6:45:00 AM -0.07 31.874 0.054 6.17 1.3 14.38
1/30/2021 7:00:00 AM -0.07 31.874 0.054 6.17 1.29 14.38
1/30/2021 7:15:00 AM -0.07 31.874 0.054 6.17 1.3 14.38
1/30/2021 7:30:00 AM -0.07 31.874 0.054 6.17 1.39 14.38
1/30/2021 7:45:00 AM -0.07 31.874 0.054 6.17 1.3 14.39
1/30/2021 8:00:00 AM -0.07 31.874 0.054 6.17 1.27 14.39
1/30/2021 8:15:00 AM -0.07 31.874 0.054 6.17 1.32 14.4
1/30/2021 8:30:00 AM -0.07 31.874 0.054 6.17 1.3 14.41
1/30/2021 8:45:00 AM -0.07 31.874 0.054 6.17 1.31 14.41
1/30/2021 9:00:00 AM -0.07 31.874 0.054 6.17 1.29 14.42
1/30/2021 9:15:00 AM -0.06 31.892 0.054 6.17 1.29 14.42
1/30/2021 9:30:00 AM -0.06 31.892 0.054 6.17 1.32 14.42
1/30/2021 9:45:00 AM -0.06 31.892 0.054 6.18 1.29 14.43
1/30/2021 10:00:00 AM -0.05 31.91 0.055 6.18 1.33 14.43
1/30/2021 10:15:00 AM -0.05 31.91 0.055 6.18 1.3 14.43
1/30/2021 10:30:00 AM -0.05 31.91 0.055 6.18 1.35 14.42
1/30/2021 10:45:00 AM -0.05 31.91 0.055 6.18 1.38 14.42
1/30/2021 11:00:00 AM -0.04 31.928 0.055 6.18 1.85 14.42
1/30/2021 11:15:00 AM -0.05 31.91 0.055 6.18 1.36 14.42
1/30/2021 11:30:00 AM -0.05 31.91 0.055 6.18 1.34 14.42
1/30/2021 11:45:00 AM -0.05 31.91 0.055 6.18 1.3 14.42
1/30/2021 12:00:00 PM -0.05 31.91 0.055 6.18 1.33 14.42
1/30/2021 12:15:00 PM -0.05 31.91 0.055 6.18 1.34 14.41
1/30/2021 12:30:00 PM -100000 -179968 -100000 -100000 -100000 -100000
1/30/2021 12:45:00 PM -0.05 31.91 0.055 6.18 1.32 14.41
1/30/2021 1:00:00 PM -0.05 31.91 0.055 6.18 1.31 14.41
1/30/2021 1:15:00 PM -0.06 31.892 0.054 6.17 1.31 14.41
1/30/2021 1:30:00 PM -0.05 31.91 0.054 6.17 1.34 14.41
1/30/2021 1:45:00 PM -0.06 31.892 0.054 6.17 1.29 14.41
1/30/2021 2:00:00 PM -0.06 31.892 0.053 6.17 1.34 14.41
1/30/2021 2:15:00 PM -0.06 31.892 0.053 6.17 1.31 14.4
1/30/2021 2:30:00 PM -0.06 31.892 0.052 6.17 1.33 14.4
1/30/2021 2:45:00 PM -0.06 31.892 0.051 6.16 1.31 14.39
1/30/2021 3:00:00 PM -0.06 31.892 0.051 6.16 1.32 14.39
1/30/2021 3:15:00 PM -0.06 31.892 0.051 6.16 1.35 14.38
1/30/2021 3:30:00 PM -0.06 31.892 0.05 6.16 1.32 14.38
1/30/2021 3:45:00 PM -0.06 31.892 0.05 6.16 1.36 14.38
1/30/2021 4:00:00 PM -0.06 31.892 0.05 6.16 1.3 14.38
1/30/2021 4:15:00 PM -0.06 31.892 0.05 6.16 1.32 14.38
1/30/2021 4:30:00 PM -0.07 31.874 0.05 6.16 1.31 14.38
1/30/2021 4:45:00 PM -0.07 31.874 0.05 6.16 1.38 14.38
1/30/2021 5:00:00 PM -100000 -179968 -100000 -100000 -100000 -100000
1/30/2021 5:15:00 PM -0.07 31.874 0.05 6.15 1.29 14.37
1/30/2021 5:30:00 PM -0.07 31.874 0.05 6.15 1.34 14.37
1/30/2021 5:45:00 PM -0.07 31.874 0.05 6.15 1.3 14.37
1/30/2021 6:00:00 PM -0.07 31.874 0.05 6.15 1.35 14.37
1/30/2021 6:15:00 PM -0.07 31.874 0.051 6.15 1.35 14.36
1/30/2021 6:30:00 PM -0.07 31.874 0.051 6.16 1.34 14.36
1/30/2021 6:45:00 PM -0.07 31.874 0.051 6.16 1.28 14.36
1/30/2021 7:00:00 PM -0.07 31.874 0.051 6.15 1.29 14.36
1/30/2021 7:15:00 PM -0.07 31.874 0.051 6.16 1.33 14.36
1/30/2021 7:30:00 PM -0.07 31.874 0.051 6.16 1.31 14.36
1/30/2021 7:45:00 PM -0.07 31.874 0.051 6.16 1.27 14.37
1/30/2021 8:00:00 PM -0.07 31.874 0.051 6.16 1.3 14.36
1/30/2021 8:15:00 PM -0.07 31.874 0.051 6.16 1.3 14.37
1/30/2021 8:30:00 PM -0.07 31.874 0.051 6.16 1.26 14.37
1/30/2021 8:45:00 PM -0.07 31.874 0.052 6.16 1.36 14.37
1/30/2021 9:00:00 PM -0.07 31.874 0.052 6.16 1.29 14.37
1/30/2021 9:15:00 PM -0.07 31.874 0.052 6.16 1.32 14.37
1/30/2021 9:30:00 PM -0.07 31.874 0.052 6.16 1.33 14.37
1/30/2021 9:45:00 PM -0.07 31.874 0.052 6.15 1.35 14.37
1/30/2021 10:00:00 PM -100000 -179968 -100000 -100000 -100000 -100000
1/30/2021 10:15:00 PM -0.07 31.874 0.052 6.16 1.31 14.36
1/30/2021 10:30:00 PM -0.07 31.874 0.052 6.16 1.27 14.36
1/30/2021 10:45:00 PM -0.07 31.874 0.052 6.16 1.33 14.36
1/30/2021 11:00:00 PM -0.07 31.874 0.052 6.16 1.35 14.36
1/30/2021 11:15:00 PM -0.07 31.874 0.053 6.17 1.31 14.36
1/30/2021 11:30:00 PM -0.07 31.874 0.053 6.16 1.33 14.35
1/30/2021 11:45:00 PM -0.07 31.874 0.053 6.16 1.3 14.35
1/31/2021 12:00:00 AM -0.07 31.874 0.053 6.16 1.3 14.34
1/31/2021 12:15:00 AM -0.07 31.874 0.053 6.16 1.33 14.34
1/31/2021 12:30:00 AM -0.07 31.874 0.053 6.16 1.33 14.34
1/31/2021 12:45:00 AM -0.07 31.874 0.053 6.16 1.31 14.34
1/31/2021 1:00:00 AM -0.07 31.874 0.054 6.16 1.32 14.34
1/31/2021 1:15:00 AM -0.07 31.874 0.054 6.16 1.3 14.33
1/31/2021 1:30:00 AM -0.07 31.874 0.054 6.17 1.33 14.33
1/31/2021 1:45:00 AM -0.06 31.892 0.054 6.17 1.31 14.33
1/31/2021 2:00:00 AM -0.07 31.874 0.054 6.17 1.33 14.33
1/31/2021 2:15:00 AM -0.07 31.874 0.054 6.17 1.32 14.33
1/31/2021 2:30:00 AM -0.07 31.874 0.054 6.17 1.29 14.33
1/31/2021 2:45:00 AM -0.07 31.874 0.054 6.17 1.33 14.32
1/31/2021 3:00:00 AM -0.06 31.892 0.055 6.17 1.29 14.32
1/31/2021 3:15:00 AM -0.07 31.874 0.055 6.17 1.32 14.32
1/31/2021 3:30:00 AM -100000 -179968 -100000 -100000 -100000 -100000
1/31/2021 3:45:00 AM -0.07 31.874 0.055 6.17 1.3 14.31
1/31/2021 4:00:00 AM -0.07 31.874 0.055 6.17 1.29 14.31
1/31/2021 4:15:00 AM -0.07 31.874 0.055 6.17 1.32 14.3
1/31/2021 4:30:00 AM -0.06 31.892 0.055 6.17 1.34 14.3
1/31/2021 4:45:00 AM -0.07 31.874 0.055 6.17 1.29 14.3
1/31/2021 5:00:00 AM -0.06 31.892 0.055 6.17 1.29 14.3
1/31/2021 5:15:00 AM -0.06 31.892 0.055 6.17 1.29 14.29
1/31/2021 5:30:00 AM -0.07 31.874 0.055 6.17 1.31 14.3
1/31/2021 5:45:00 AM -0.07 31.874 0.054 6.17 1.28 14.29
1/31/2021 6:00:00 AM -0.06 31.892 0.055 6.17 1.32 14.29
1/31/2021 6:15:00 AM -0.06 31.892 0.055 6.17 1.32 14.29
1/31/2021 6:30:00 AM -0.06 31.892 0.055 6.17 1.29 14.28
1/31/2021 6:45:00 AM -0.06 31.892 0.055 6.17 1.31 14.28
1/31/2021 7:00:00 AM -0.06 31.892 0.054 6.17 1.3 14.28
1/31/2021 7:15:00 AM -0.06 31.892 0.054 6.17 1.3 14.28
1/31/2021 7:30:00 AM -0.06 31.892 0.054 6.17 1.31 14.27
1/31/2021 7:45:00 AM -0.06 31.892 0.054 6.17 1.39 14.27
1/31/2021 8:00:00 AM -0.06 31.892 0.054 6.17 1.34 14.27
1/31/2021 8:15:00 AM -0.06 31.892 0.054 6.17 1.29 14.27
1/31/2021 8:30:00 AM -0.06 31.892 0.054 6.17 1.3 14.28
1/31/2021 8:45:00 AM -0.07 31.874 0.054 6.17 1.38 14.28
1/31/2021 9:00:00 AM -0.06 31.892 0.054 6.17 1.31 14.28
1/31/2021 9:15:00 AM -0.06 31.892 0.054 6.17 1.31 14.29
1/31/2021 9:30:00 AM -0.06 31.892 0.054 6.17 1.33 14.29
1/31/2021 9:45:00 AM -0.06 31.892 0.054 6.17 1.27 14.29
1/31/2021 10:00:00 AM -0.06 31.892 0.054 6.18 1.31 14.29
1/31/2021 10:15:00 AM -0.05 31.91 0.054 6.18 1.34 14.29
1/31/2021 10:30:00 AM -0.06 31.892 0.054 6.19 1.32 14.3
1/31/2021 10:45:00 AM -0.06 31.892 0.053 6.18 1.34 14.29
1/31/2021 11:00:00 AM -0.05 31.91 0.053 6.18 1.31 14.3
1/31/2021 11:15:00 AM -0.05 31.91 0.053 6.18 1.33 14.29
1/31/2021 11:30:00 AM -0.06 31.892 0.053 6.17 1.33 14.29
1/31/2021 11:45:00 AM -0.06 31.892 0.053 6.18 1.34 14.29
1/31/2021 12:00:00 PM -0.06 31.892 0.053 6.17 1.36 14.29
1/31/2021 12:15:00 PM -0.06 31.892 0.053 6.17 1.32 14.28
1/31/2021 12:30:00 PM -0.05 31.91 0.051 6.16 2.45 14.28
1/31/2021 12:45:00 PM -0.06 31.892 0.052 6.17 1.42 14.28
1/31/2021 1:00:00 PM -0.05 31.91 0.052 6.17 1.32 14.27
1/31/2021 1:15:00 PM -0.06 31.892 0.052 6.17 1.64 14.27
1/31/2021 1:30:00 PM -0.05 31.91 0.052 6.17 1.37 14.27
1/31/2021 1:45:00 PM -0.06 31.892 0.052 6.16 1.38 14.27
1/31/2021 2:00:00 PM -0.05 31.91 0.052 6.17 1.38 14.26
1/31/2021 2:15:00 PM -0.06 31.892 0.051 6.16 1.39 14.26
1/31/2021 2:30:00 PM -0.06 31.892 0.051 6.17 1.35 14.25
1/31/2021 2:45:00 PM -0.06 31.892 0.051 6.16 1.41 14.25
1/31/2021 3:00:00 PM -0.06 31.892 0.051 6.17 1.3 14.25
1/31/2021 3:15:00 PM -0.06 31.892 0.051 6.16 1.34 14.24
1/31/2021 3:30:00 PM -0.06 31.892 0.051 6.16 1.34 14.24
1/31/2021 3:45:00 PM -0.06 31.892 0.051 6.16 1.34 14.24
1/31/2021 4:00:00 PM -0.06 31.892 0.051 6.16 1.31 14.23
1/31/2021 4:15:00 PM -0.06 31.892 0.051 6.16 1.37 14.23
1/31/2021 4:30:00 PM -0.06 31.892 0.051 6.16 1.37 14.22
1/31/2021 4:45:00 PM -0.06 31.892 0.051 6.16 1.33 14.22
1/31/2021 5:00:00 PM -0.06 31.892 0.051 6.16 1.32 14.22
1/31/2021 5:15:00 PM -0.07 31.874 0.051 6.15 1.34 14.22
1/31/2021 5:30:00 PM -0.07 31.874 0.051 6.16 1.28 14.21
1/31/2021 5:45:00 PM -0.07 31.874 0.051 6.16 1.33 14.21
1/31/2021 6:00:00 PM -0.07 31.874 0.051 6.15 1.42 14.2
1/31/2021 6:15:00 PM -0.07 31.874 0.051 6.15 1.31 14.2
1/31/2021 6:30:00 PM -0.07 31.874 0.051 6.15 1.33 14.2
1/31/2021 6:45:00 PM -0.07 31.874 0.051 6.15 1.32 14.2
1/31/2021 7:00:00 PM -0.07 31.874 0.051 6.15 1.32 14.2
1/31/2021 7:15:00 PM -0.07 31.874 0.051 6.15 1.29 14.2
1/31/2021 7:30:00 PM -0.07 31.874 0.051 6.15 1.33 14.19
1/31/2021 7:45:00 PM -0.07 31.874 0.051 6.15 1.33 14.19
1/31/2021 8:00:00 PM -0.07 31.874 0.051 6.15 1.3 14.2
1/31/2021 8:15:00 PM -0.07 31.874 0.051 6.16 1.31 14.2
1/31/2021 8:30:00 PM -0.07 31.874 0.051 6.15 1.31 14.2
1/31/2021 8:45:00 PM -0.07 31.874 0.051 6.15 1.32 14.19
1/31/2021 9:00:00 PM -0.07 31.874 0.051 6.15 1.35 14.2
1/31/2021 9:15:00 PM -0.07 31.874 0.052 6.16 1.32 14.2
1/31/2021 9:30:00 PM -0.07 31.874 0.052 6.16 1.34 14.2
1/31/2021 9:45:00 PM -0.07 31.874 0.052 6.15 1.32 14.19
1/31/2021 10:00:00 PM -0.07 31.874 0.052 6.15 1.36 14.19
1/31/2021 10:15:00 PM -0.07 31.874 0.052 6.15 1.29 14.19
1/31/2021 10:30:00 PM -0.07 31.874 0.052 6.16 1.32 14.19
1/31/2021 10:45:00 PM -0.07 31.874 0.052 6.16 1.54 14.19
1/31/2021 11:00:00 PM -0.07 31.874 0.052 6.15 1.3 14.19
1/31/2021 11:15:00 PM -0.07 31.874 0.052 6.16 1.34 14.19
1/31/2021 11:30:00 PM -0.07 31.874 0.052 6.16 1.32 14.18
1/31/2021 11:45:00 PM -0.07 31.874 0.052 6.17 1.35 14.18
2/1/2021 12:00:00 AM -0.07 31.874 0.052 6.16 1.37 14.18
2/1/2021 12:15:00 AM -0.07 31.874 0.052 6.16 1.34 14.18
2/1/2021 12:30:00 AM -0.07 31.874 0.052 6.16 1.28 14.18
2/1/2021 12:45:00 AM -0.07 31.874 0.053 6.16 1.31 14.18
2/1/2021 1:00:00 AM -0.07 31.874 0.053 6.16 1.32 14.18
2/1/2021 1:15:00 AM -0.07 31.874 0.053 6.16 1.34 14.18
2/1/2021 1:30:00 AM -100000 -179968 -100000 -100000 -100000 -100000
2/1/2021 1:45:00 AM -0.07 31.874 0.053 6.16 1.32 14.17
2/1/2021 2:00:00 AM -0.07 31.874 0.053 6.16 1.31 14.17
2/1/2021 2:15:00 AM -0.07 31.874 0.053 6.16 1.3 14.17
2/1/2021 2:30:00 AM -100000 -179968 -100000 -100000 -100000 -100000
2/1/2021 2:45:00 AM -0.07 31.874 0.053 6.16 1.3 14.16
2/1/2021 3:00:00 AM -0.07 31.874 0.053 6.16 1.29 14.16
2/1/2021 3:15:00 AM -0.07 31.874 0.053 6.16 1.32 14.16
2/1/2021 3:30:00 AM -0.07 31.874 0.053 6.16 1.3 14.15
2/1/2021 3:45:00 AM -0.07 31.874 0.053 6.16 1.32 14.15
2/1/2021 4:00:00 AM -0.07 31.874 0.053 6.16 1.33 14.15
2/1/2021 4:15:00 AM -0.07 31.874 0.053 6.16 1.34 14.15
2/1/2021 4:30:00 AM -0.07 31.874 0.053 6.16 1.28 14.15
2/1/2021 4:45:00 AM -0.07 31.874 0.053 6.16 1.34 14.14
2/1/2021 5:00:00 AM -0.07 31.874 0.053 6.16 1.31 14.14
2/1/2021 5:15:00 AM -0.07 31.874 0.053 6.16 1.32 14.14
2/1/2021 5:30:00 AM -0.07 31.874 0.053 6.16 1.46 14.14
2/1/2021 5:45:00 AM -0.07 31.874 0.053 6.16 1.28 14.14
2/1/2021 6:00:00 AM -0.07 31.874 0.053 6.16 1.31 14.14
2/1/2021 6:15:00 AM -0.06 31.892 0.053 6.17 1.28 14.14
2/1/2021 6:30:00 AM -0.07 31.874 0.053 6.16 1.33 14.13
2/1/2021 6:45:00 AM -0.07 31.874 0.053 6.16 1.35 14.14
2/1/2021 7:00:00 AM -0.07 31.874 0.053 6.16 1.33 14.13
2/1/2021 7:15:00 AM -0.07 31.874 0.053 6.16 1.31 14.14
2/1/2021 7:30:00 AM -0.07 31.874 0.053 6.16 1.32 14.13
2/1/2021 7:45:00 AM -0.07 31.874 0.053 6.16 1.31 14.14
2/1/2021 8:00:00 AM -0.07 31.874 0.053 6.16 1.3 14.14
2/1/2021 8:15:00 AM -0.06 31.892 0.053 6.16 1.32 14.14
2/1/2021 8:30:00 AM -0.06 31.892 0.053 6.16 1.33 14.14
2/1/2021 8:45:00 AM -0.06 31.892 0.053 6.16 1.28 14.15
2/1/2021 9:00:00 AM -0.06 31.892 0.053 6.16 1.35 14.14
2/1/2021 9:15:00 AM -0.06 31.892 0.053 6.16 1.33 14.15
2/1/2021 9:30:00 AM -0.06 31.892 0.053 6.16 1.31 14.15
2/1/2021 9:45:00 AM -0.06 31.892 0.053 6.16 1.39 14.15
2/1/2021 10:00:00 AM -0.06 31.892 0.053 6.16 1.36 14.16
2/1/2021 10:15:00 AM -0.06 31.892 0.053 6.17 1.32 14.16
2/1/2021 10:30:00 AM -0.06 31.892 0.053 6.17 1.31 14.17
2/1/2021 10:45:00 AM -0.06 31.892 0.053 6.17 1.32 14.17
2/1/2021 11:00:00 AM -0.06 31.892 0.053 6.16 1.35 14.16
2/1/2021 11:15:00 AM -0.06 31.892 0.053 6.17 1.34 14.17
2/1/2021 11:30:00 AM -0.05 31.91 0.053 6.17 1.35 14.17
2/1/2021 11:45:00 AM -0.05 31.91 0.053 6.16 1.34 14.17
2/1/2021 12:00:00 PM -0.05 31.91 0.053 6.17 1.35 14.17
2/1/2021 12:15:00 PM -0.05 31.91 0.052 6.16 1.32 14.16
2/1/2021 12:30:00 PM -0.04 31.928 0.052 6.16 1.34 14.16
2/1/2021 12:45:00 PM -0.05 31.91 0.052 6.16 1.33 14.16
2/1/2021 1:00:00 PM -0.05 31.91 0.052 6.16 1.33 14.16
2/1/2021 1:15:00 PM -0.05 31.91 0.052 6.16 1.34 14.15
2/1/2021 1:30:00 PM -0.05 31.91 0.052 6.16 1.37 14.15
2/1/2021 1:45:00 PM -0.05 31.91 0.052 6.16 1.37 14.14
2/1/2021 2:00:00 PM -0.05 31.91 0.052 6.16 1.36 14.14
2/1/2021 2:15:00 PM -0.05 31.91 0.052 6.16 1.31 14.14
2/1/2021 2:30:00 PM -0.05 31.91 0.052 6.16 1.44 14.13
2/1/2021 2:45:00 PM -0.05 31.91 0.052 6.17 1.42 14.12
2/1/2021 3:00:00 PM -0.05 31.91 0.052 6.16 1.36 14.13
2/1/2021 3:15:00 PM -0.05 31.91 0.051 6.16 1.29 14.12
2/1/2021 3:30:00 PM -100000 -179968 -100000 -100000 -100000 -100000
2/1/2021 3:45:00 PM -0.05 31.91 0.051 6.16 1.48 14.12
2/1/2021 4:00:00 PM -0.05 31.91 0.051 6.16 1.35 14.11
2/1/2021 4:15:00 PM -0.05 31.91 0.051 6.16 1.32 14.11
2/1/2021 4:30:00 PM -0.06 31.892 0.051 6.16 1.35 14.11
2/1/2021 4:45:00 PM -0.06 31.892 0.051 6.16 1.33 14.1
2/1/2021 5:00:00 PM -0.06 31.892 0.051 6.16 1.37 14.1
2/1/2021 5:15:00 PM -0.05 31.91 0.051 6.15 1.36 14.1
2/1/2021 5:30:00 PM -0.06 31.892 0.05 6.16 1.77 14.09
2/1/2021 5:45:00 PM -0.06 31.892 0.05 6.15 1.32 14.09
2/1/2021 6:00:00 PM -0.06 31.892 0.05 6.15 1.38 14.08
2/1/2021 6:15:00 PM -0.06 31.892 0.05 6.15 1.46 14.08
2/1/2021 6:30:00 PM -0.06 31.892 0.05 6.15 1.34 14.08
2/1/2021 6:45:00 PM -0.06 31.892 0.05 6.15 1.34 14.07
2/1/2021 7:00:00 PM -0.06 31.892 0.05 6.15 1.33 14.07
2/1/2021 7:15:00 PM -0.06 31.892 0.05 6.14 1.33 14.07
2/1/2021 7:30:00 PM -0.06 31.892 0.05 6.14 1.47 14.07
2/1/2021 7:45:00 PM -0.06 31.892 0.05 6.14 1.34 14.07
2/1/2021 8:00:00 PM -0.06 31.892 0.05 6.14 1.4 14.06
2/1/2021 8:15:00 PM -0.06 31.892 0.05 6.14 1.33 14.06
2/1/2021 8:30:00 PM -0.06 31.892 0.05 6.14 1.36 14.07
2/1/2021 8:45:00 PM -0.06 31.892 0.05 6.14 1.33 14.06
2/1/2021 9:00:00 PM -0.06 31.892 0.05 6.14 1.35 14.06
2/1/2021 9:15:00 PM -0.06 31.892 0.05 6.14 1.38 14.06
2/1/2021 9:30:00 PM -0.06 31.892 0.05 6.14 1.34 14.07
2/1/2021 9:45:00 PM -0.06 31.892 0.05 6.14 1.36 14.06
2/1/2021 10:00:00 PM -0.06 31.892 0.05 6.14 1.38 14.07
2/1/2021 10:15:00 PM -0.06 31.892 0.05 6.14 1.31 14.06
2/1/2021 10:30:00 PM -0.06 31.892 0.05 6.14 1.58 14.07
2/1/2021 10:45:00 PM -0.06 31.892 0.05 6.14 1.34 14.06
2/1/2021 11:00:00 PM -0.06 31.892 0.05 6.15 1.36 14.06
2/1/2021 11:15:00 PM -0.06 31.892 0.05 6.15 1.32 14.07
2/1/2021 11:30:00 PM -0.06 31.892 0.05 6.15 1.38 14.06
2/1/2021 11:45:00 PM -0.06 31.892 0.05 6.15 1.35 14.07
2/2/2021 12:00:00 AM -0.06 31.892 0.05 6.15 1.34 14.06
2/2/2021 12:15:00 AM -0.06 31.892 0.05 6.15 1.37 14.06
2/2/2021 12:30:00 AM -100000 -179968 -100000 -100000 -100000 -100000
2/2/2021 12:45:00 AM -0.06 31.892 0.05 6.15 1.32 14.07
2/2/2021 1:00:00 AM -0.06 31.892 0.051 6.15 1.34 14.06
2/2/2021 1:15:00 AM -0.06 31.892 0.051 6.15 1.38 14.06
2/2/2021 1:30:00 AM -0.06 31.892 0.051 6.15 1.36 14.06
2/2/2021 1:45:00 AM -0.06 31.892 0.051 6.15 1.34 14.05
2/2/2021 2:00:00 AM -0.06 31.892 0.051 6.15 1.32 14.06
2/2/2021 2:15:00 AM -0.06 31.892 0.051 6.15 1.34 14.06
2/2/2021 2:30:00 AM -0.06 31.892 0.051 6.15 1.35 14.05
2/2/2021 2:45:00 AM -0.06 31.892 0.051 6.15 1.31 14.05
2/2/2021 3:00:00 AM -0.06 31.892 0.051 6.15 1.35 14.05
2/2/2021 3:15:00 AM -0.06 31.892 0.051 6.15 1.36 14.05
2/2/2021 3:30:00 AM -0.06 31.892 0.051 6.15 1.32 14.05
2/2/2021 3:45:00 AM -0.06 31.892 0.051 6.15 1.47 14.05
2/2/2021 4:00:00 AM -0.06 31.892 0.051 6.15 1.41 14.05
2/2/2021 4:15:00 AM -0.06 31.892 0.051 6.15 1.34 14.05
2/2/2021 4:30:00 AM -0.06 31.892 0.051 6.15 1.35 14.04
2/2/2021 4:45:00 AM -0.06 31.892 0.051 6.15 1.31 14.04
2/2/2021 5:00:00 AM -100000 -179968 -100000 -100000 -100000 -100000
2/2/2021 5:15:00 AM -0.06 31.892 0.051 6.15 1.35 14.05
2/2/2021 5:30:00 AM -0.06 31.892 0.051 6.15 1.33 14.04
2/2/2021 5:45:00 AM -0.07 31.874 0.051 6.15 1.3 14.04
2/2/2021 6:00:00 AM -0.07 31.874 0.051 6.15 1.34 14.05
2/2/2021 6:15:00 AM -0.06 31.892 0.051 6.15 1.32 14.04
2/2/2021 6:30:00 AM -0.06 31.892 0.051 6.15 1.35 14.05
2/2/2021 6:45:00 AM -0.06 31.892 0.051 6.15 1.34 14.04
2/2/2021 7:00:00 AM -0.06 31.892 0.051 6.15 1.32 14.04
2/2/2021 7:15:00 AM -0.06 31.892 0.051 6.15 1.36 14.05
2/2/2021 7:30:00 AM -0.06 31.892 0.051 6.16 1.33 14.05
2/2/2021 7:45:00 AM -0.06 31.892 0.051 6.15 1.36 14.04
2/2/2021 8:00:00 AM -0.06 31.892 0.051 6.15 1.31 14.05
2/2/2021 8:15:00 AM -0.06 31.892 0.051 6.15 1.36 14.04
2/2/2021 8:30:00 AM -0.06 31.892 0.051 6.15 1.32 14.05
2/2/2021 8:45:00 AM -0.06 31.892 0.051 6.15 1.43 14.04
2/2/2021 9:00:00 AM -0.06 31.892 0.051 6.16 1.46 14.06
2/2/2021 9:15:00 AM -0.06 31.892 0.051 6.16 1.33 14.06
2/2/2021 9:30:00 AM -0.06 31.892 0.051 6.16 1.31 14.07
2/2/2021 9:45:00 AM -100000 -179968 -100000 -100000 -100000 -100000
2/2/2021 10:00:00 AM -0.06 31.892 0.051 6.16 1.34 14.07
2/2/2021 10:15:00 AM -0.06 31.892 0.051 6.16 1.31 14.07
2/2/2021 10:30:00 AM -0.06 31.892 0.051 6.16 1.35 14.07
2/2/2021 10:45:00 AM -0.05 31.91 0.051 6.16 1.33 14.07
2/2/2021 11:00:00 AM -0.05 31.91 0.051 6.16 1.35 14.06
2/2/2021 11:15:00 AM -0.05 31.91 0.052 6.16 1.36 14.07
2/2/2021 11:30:00 AM -0.05 31.91 0.051 6.16 1.31 14.07
2/2/2021 11:45:00 AM -0.05 31.91 0.051 6.16 1.3 14.07
2/2/2021 12:00:00 PM -0.05 31.91 0.051 6.16 1.4 14.07
2/2/2021 12:15:00 PM -0.05 31.91 0.051 6.16 1.32 14.07
2/2/2021 12:30:00 PM -0.05 31.91 0.051 6.16 1.35 14.07
2/2/2021 12:45:00 PM -0.05 31.91 0.051 6.16 1.33 14.07
2/2/2021 1:00:00 PM -0.05 31.91 0.051 6.16 1.33 14.07
2/2/2021 1:15:00 PM -0.05 31.91 0.051 6.16 1.41 14.07
2/2/2021 1:30:00 PM -0.05 31.91 0.051 6.17 1.45 14.06
2/2/2021 1:45:00 PM -0.05 31.91 0.051 6.16 1.33 14.06
2/2/2021 2:00:00 PM -0.05 31.91 0.051 6.16 1.33 14.05
2/2/2021 2:15:00 PM -0.05 31.91 0.051 6.16 1.33 14.05
2/2/2021 2:30:00 PM -0.05 31.91 0.051 6.16 1.45 14.04
2/2/2021 2:45:00 PM -0.05 31.91 0.051 6.16 1.38 14.05
2/2/2021 3:00:00 PM -0.05 31.91 0.051 6.16 1.33 14.04
2/2/2021 3:15:00 PM -0.05 31.91 0.051 6.17 1.31 14.04
2/2/2021 3:30:00 PM -0.06 31.892 0.051 6.16 1.32 14.04
2/2/2021 3:45:00 PM -0.05 31.91 0.051 6.16 1.39 14.04
2/2/2021 4:00:00 PM -0.05 31.91 0.051 6.16 1.37 14.02
2/2/2021 4:15:00 PM -0.06 31.892 0.051 6.16 1.37 14.03
2/2/2021 4:30:00 PM -0.05 31.91 0.051 6.16 1.47 14.02
2/2/2021 4:45:00 PM -0.06 31.892 0.051 6.16 1.39 14.01
2/2/2021 5:00:00 PM -0.05 31.91 0.051 6.16 1.34 14
2/2/2021 5:15:00 PM -0.05 31.91 0.051 6.17 1.35 14.01
2/2/2021 5:30:00 PM -0.05 31.91 0.051 6.16 1.32 14.01
2/2/2021 5:45:00 PM -0.06 31.892 0.051 6.15 1.3 14.01
2/2/2021 6:00:00 PM -0.06 31.892 0.051 6.15 1.39 14.01
2/2/2021 6:15:00 PM -0.06 31.892 0.051 6.16 1.33 14
2/2/2021 6:30:00 PM -0.06 31.892 0.051 6.16 1.39 14
2/2/2021 6:45:00 PM -0.05 31.91 0.051 6.16 1.39 14
2/2/2021 7:00:00 PM -0.06 31.892 0.051 6.15 1.36 14
2/2/2021 7:15:00 PM -0.05 31.91 0.051 6.15 1.32 14
2/2/2021 7:30:00 PM -0.05 31.91 0.052 6.16 1.35 13.99
2/2/2021 7:45:00 PM -100000 -179968 -100000 -100000 -100000 -100000
2/2/2021 8:00:00 PM -0.05 31.91 0.052 6.16 1.32 13.99
2/2/2021 8:15:00 PM -0.05 31.91 0.052 6.15 1.32 13.99
2/2/2021 8:30:00 PM -0.06 31.892 0.052 6.15 1.3 13.99
2/2/2021 8:45:00 PM -0.06 31.892 0.052 6.15 1.37 13.99
2/2/2021 9:00:00 PM -0.06 31.892 0.052 6.15 1.33 13.99
2/2/2021 9:15:00 PM -100000 -179968 -100000 -100000 -100000 -100000
2/2/2021 9:30:00 PM -0.05 31.91 0.052 6.16 1.33 13.99
2/2/2021 9:45:00 PM -0.05 31.91 0.052 6.16 1.35 13.98
2/2/2021 10:00:00 PM -0.05 31.91 0.052 6.16 1.33 13.98
2/2/2021 10:15:00 PM -0.05 31.91 0.052 6.16 1.34 13.97
2/2/2021 10:30:00 PM -0.05 31.91 0.052 6.16 1.35 13.98
2/2/2021 10:45:00 PM -0.05 31.91 0.052 6.16 1.31 13.98
2/2/2021 11:00:00 PM -0.05 31.91 0.052 6.16 1.3 13.98
2/2/2021 11:15:00 PM -0.05 31.91 0.053 6.16 1.29 13.98
2/2/2021 11:30:00 PM -0.05 31.91 0.053 6.16 1.32 13.98
2/2/2021 11:45:00 PM -0.05 31.91 0.053 6.16 1.33 13.98
2/3/2021 12:00:00 AM -0.05 31.91 0.053 6.16 1.33 13.97
2/3/2021 12:15:00 AM -0.05 31.91 0.053 6.16 1.33 13.97
2/3/2021 12:30:00 AM -0.05 31.91 0.053 6.16 1.32 13.97
2/3/2021 12:45:00 AM -0.05 31.91 0.053 6.16 1.31 13.97
2/3/2021 1:00:00 AM -0.06 31.892 0.053 6.16 1.32 13.98
2/3/2021 1:15:00 AM -0.06 31.892 0.053 6.16 1.35 13.97
2/3/2021 1:30:00 AM -0.05 31.91 0.053 6.16 1.33 13.97
2/3/2021 1:45:00 AM -100000 -179968 -100000 -100000 -100000 -100000
2/3/2021 2:00:00 AM -0.05 31.91 0.053 6.16 1.31 13.97
2/3/2021 2:15:00 AM -100000 -179968 -100000 -100000 -100000 -100000
2/3/2021 2:30:00 AM -0.05 31.91 0.053 6.16 1.32 13.96
2/3/2021 2:45:00 AM -0.05 31.91 0.053 6.16 1.29 13.96
2/3/2021 3:00:00 AM -0.05 31.91 0.053 6.17 1.34 13.97
2/3/2021 3:15:00 AM -0.05 31.91 0.053 6.16 1.35 13.97
2/3/2021 3:30:00 AM -0.05 31.91 0.053 6.16 1.32 13.97
2/3/2021 3:45:00 AM -0.05 31.91 0.053 6.16 1.39 13.97
2/3/2021 4:00:00 AM -0.05 31.91 0.052 6.16 1.29 13.97
2/3/2021 4:15:00 AM -0.05 31.91 0.052 6.16 1.39 13.96
2/3/2021 4:30:00 AM -0.05 31.91 0.052 6.16 1.28 13.96
2/3/2021 4:45:00 AM -0.05 31.91 0.052 6.16 1.33 13.97
2/3/2021 5:00:00 AM -0.05 31.91 0.052 6.16 1.34 13.97
2/3/2021 5:15:00 AM -0.05 31.91 0.052 6.16 1.3 13.97
2/3/2021 5:30:00 AM -0.05 31.91 0.052 6.16 1.31 13.97
2/3/2021 5:45:00 AM -0.05 31.91 0.052 6.16 1.3 13.97
2/3/2021 6:00:00 AM -0.05 31.91 0.052 6.16 1.35 13.97
2/3/2021 6:15:00 AM -0.05 31.91 0.052 6.16 1.32 13.98
2/3/2021 6:30:00 AM -0.06 31.892 0.052 6.16 1.32 13.98
2/3/2021 6:45:00 AM -0.06 31.892 0.052 6.16 1.36 13.99
2/3/2021 7:00:00 AM -0.05 31.91 0.052 6.16 1.33 13.98
2/3/2021 7:15:00 AM -0.05 31.91 0.052 6.17 1.3 13.98
2/3/2021 7:30:00 AM -0.05 31.91 0.052 6.16 1.31 13.98
2/3/2021 7:45:00 AM -100000 -179968 -100000 -100000 -100000 -100000
2/3/2021 8:00:00 AM -0.05 31.91 0.052 6.16 1.36 13.98
2/3/2021 8:15:00 AM -0.05 31.91 0.052 6.16 1.29 13.99
2/3/2021 8:30:00 AM -0.05 31.91 0.052 6.16 1.29 13.99
2/3/2021 8:45:00 AM -0.05 31.91 0.052 6.16 1.3 14
2/3/2021 9:00:00 AM -0.05 31.91 0.052 6.16 1.33 14
2/3/2021 9:15:00 AM -0.05 31.91 0.052 6.16 1.31 14.01
2/3/2021 9:30:00 AM -0.05 31.91 0.052 6.16 1.3 14.01
2/3/2021 9:45:00 AM -0.05 31.91 0.052 6.16 1.32 14.02
2/3/2021 10:00:00 AM -0.05 31.91 0.052 6.17 1.48 14.02
2/3/2021 10:15:00 AM -0.05 31.91 0.052 6.17 1.37 14.03
2/3/2021 10:30:00 AM -0.05 31.91 0.052 6.17 1.33 14.03
2/3/2021 10:45:00 AM -0.05 31.91 0.052 6.17 1.34 14.03
2/3/2021 11:00:00 AM -0.05 31.91 0.052 6.17 1.32 14.04
2/3/2021 11:15:00 AM -0.05 31.91 0.052 6.17 1.34 14.04
2/3/2021 11:30:00 AM -0.05 31.91 0.052 6.17 1.31 14.04
2/3/2021 11:45:00 AM -0.04 31.928 0.052 6.17 1.35 14.04
2/3/2021 12:00:00 PM -0.04 31.928 0.052 6.17 1.32 14.04
2/3/2021 12:15:00 PM -0.05 31.91 0.052 6.17 1.33 14.04
2/3/2021 12:30:00 PM -0.04 31.928 0.052 6.18 1.34 14.04
2/3/2021 12:45:00 PM -0.05 31.91 0.052 6.17 1.32 14.04
2/3/2021 1:00:00 PM -0.05 31.91 0.052 6.17 1.36 14.04
2/3/2021 1:15:00 PM -0.05 31.91 0.051 6.17 1.33 14.04
2/3/2021 1:30:00 PM -0.05 31.91 0.051 6.16 1.34 14.03
2/3/2021 1:45:00 PM -0.05 31.91 0.052 6.17 1.34 14.03
2/3/2021 2:00:00 PM -0.05 31.91 0.051 6.16 1.36 14.03
2/3/2021 2:15:00 PM -0.05 31.91 0.051 6.16 1.4 14.01
2/3/2021 2:30:00 PM -0.05 31.91 0.051 6.17 1.33 14.01
2/3/2021 2:45:00 PM -0.05 31.91 0.051 6.17 1.33 14
2/3/2021 3:00:00 PM -0.05 31.91 0.051 6.16 1.34 14.01
2/3/2021 3:15:00 PM -0.05 31.91 0.051 6.16 1.36 14.01
2/3/2021 3:30:00 PM -0.05 31.91 0.051 6.17 1.37 14.01
2/3/2021 3:45:00 PM -0.05 31.91 0.051 6.16 1.36 14.01
2/3/2021 4:00:00 PM -0.05 31.91 0.051 6.16 1.35 14.01
2/3/2021 4:15:00 PM -0.05 31.91 0.051 6.16 1.33 14.01
2/3/2021 4:30:00 PM -0.05 31.91 0.051 6.16 1.34 14.01
2/3/2021 4:45:00 PM -0.05 31.91 0.051 6.16 1.34 14.01
2/3/2021 5:00:00 PM -0.05 31.91 0.051 6.16 1.36 14.01
2/3/2021 5:15:00 PM -0.05 31.91 0.051 6.16 1.37 14
2/3/2021 5:30:00 PM -0.05 31.91 0.051 6.16 1.36 14.01
2/3/2021 5:45:00 PM -0.05 31.91 0.051 6.16 1.33 14.01
2/3/2021 6:00:00 PM -0.05 31.91 0.051 6.16 1.42 14.01
2/3/2021 6:15:00 PM -0.05 31.91 0.051 6.16 1.36 14.01
2/3/2021 6:30:00 PM -0.05 31.91 0.051 6.15 1.37 14.01
2/3/2021 6:45:00 PM -0.05 31.91 0.051 6.16 1.3 14.01
2/3/2021 7:00:00 PM -0.05 31.91 0.051 6.16 1.36 14.01
2/3/2021 7:15:00 PM -0.05 31.91 0.051 6.15 1.37 14.02
2/3/2021 7:30:00 PM -0.05 31.91 0.051 6.15 1.39 14.02
2/3/2021 7:45:00 PM -100000 -179968 -100000 -100000 -100000 -100000
2/3/2021 8:00:00 PM -0.05 31.91 0.051 6.15 1.33 14.02
2/3/2021 8:15:00 PM -0.05 31.91 0.051 6.16 1.31 14.02
2/3/2021 8:30:00 PM -0.05 31.91 0.051 6.15 1.35 14.03
2/3/2021 8:45:00 PM -0.05 31.91 0.051 6.16 1.37 14.04
2/3/2021 9:00:00 PM -0.05 31.91 0.051 6.15 1.35 14.03
2/3/2021 9:15:00 PM -100000 -179968 -100000 -100000 -100000 -100000
2/3/2021 9:30:00 PM -0.05 31.91 0.051 6.16 1.35 14.04
2/3/2021 9:45:00 PM -0.05 31.91 0.051 6.16 1.31 14.04
2/3/2021 10:00:00 PM -0.05 31.91 0.051 6.16 1.35 14.04
2/3/2021 10:15:00 PM -0.05 31.91 0.051 6.16 1.34 14.04
2/3/2021 10:30:00 PM -0.05 31.91 0.052 6.16 1.36 14.06
2/3/2021 10:45:00 PM -0.05 31.91 0.052 6.16 1.32 14.06
2/3/2021 11:00:00 PM -0.05 31.91 0.052 6.16 1.35 14.06
2/3/2021 11:15:00 PM -0.05 31.91 0.052 6.16 1.34 14.07
2/3/2021 11:30:00 PM -0.05 31.91 0.052 6.16 1.34 14.07
2/3/2021 11:45:00 PM -0.05 31.91 0.052 6.16 1.29 14.07
2/4/2021 12:00:00 AM -0.05 31.91 0.052 6.16 1.39 14.07
2/4/2021 12:15:00 AM -0.05 31.91 0.052 6.16 1.33 14.07
2/4/2021 12:30:00 AM -0.05 31.91 0.052 6.16 1.32 14.08
2/4/2021 12:45:00 AM -0.05 31.91 0.052 6.16 1.32 14.08
2/4/2021 1:00:00 AM -0.05 31.91 0.052 6.16 1.33 14.07
2/4/2021 1:15:00 AM -0.05 31.91 0.052 6.17 1.32 14.09
2/4/2021 1:30:00 AM -0.05 31.91 0.052 6.17 1.33 14.08
2/4/2021 1:45:00 AM -0.05 31.91 0.052 6.17 1.35 14.08
2/4/2021 2:00:00 AM -0.05 31.91 0.052 6.17 1.32 14.09
2/4/2021 2:15:00 AM -0.05 31.91 0.052 6.17 1.33 14.09
2/4/2021 2:30:00 AM -0.05 31.91 0.052 6.17 1.33 14.1
2/4/2021 2:45:00 AM -100000 -179968 -100000 -100000 -100000 -100000
2/4/2021 3:00:00 AM -0.06 31.892 0.052 6.16 1.34 14.11
2/4/2021 3:15:00 AM -0.05 31.91 0.052 6.17 1.39 14.1
2/4/2021 3:30:00 AM -0.05 31.91 0.052 6.17 1.3 14.1
2/4/2021 3:45:00 AM -0.05 31.91 0.052 6.17 1.29 14.11
2/4/2021 4:00:00 AM -0.05 31.91 0.052 6.17 1.34 14.11
2/4/2021 4:15:00 AM -100000 -179968 -100000 -100000 -100000 -100000
2/4/2021 4:30:00 AM -0.05 31.91 0.053 6.17 1.32 14.12
2/4/2021 4:45:00 AM -0.05 31.91 0.053 6.17 1.33 14.11
2/4/2021 5:00:00 AM -0.05 31.91 0.053 6.17 1.31 14.12
2/4/2021 5:15:00 AM -0.05 31.91 0.053 6.17 1.32 14.12
2/4/2021 5:30:00 AM -0.05 31.91 0.053 6.17 1.3 14.12
2/4/2021 5:45:00 AM -0.05 31.91 0.053 6.18 1.41 14.13
2/4/2021 6:00:00 AM -0.05 31.91 0.054 6.18 1.4 14.13
2/4/2021 6:15:00 AM -0.05 31.91 0.054 6.17 1.35 14.14
2/4/2021 6:30:00 AM -0.05 31.91 0.054 6.18 1.36 14.13
2/4/2021 6:45:00 AM -0.05 31.91 0.054 6.18 1.31 14.14
2/4/2021 7:00:00 AM -0.05 31.91 0.054 6.18 1.32 14.13
2/4/2021 7:15:00 AM -0.05 31.91 0.054 6.18 1.29 14.14
2/4/2021 7:30:00 AM -100000 -179968 -100000 -100000 -100000 -100000
2/4/2021 7:45:00 AM -0.05 31.91 0.055 6.18 1.32 14.14
2/4/2021 8:00:00 AM -0.05 31.91 0.055 6.18 1.3 14.14
2/4/2021 8:15:00 AM -100000 -179968 -100000 -100000 -100000 -100000
2/4/2021 8:30:00 AM -0.05 31.91 0.055 6.18 1.3 14.16
2/4/2021 8:45:00 AM -0.05 31.91 0.056 6.18 1.27 14.16
2/4/2021 9:00:00 AM -0.05 31.91 0.056 6.19 1.31 14.16
2/4/2021 9:15:00 AM -0.04 31.928 0.056 6.18 1.3 14.14
2/4/2021 9:30:00 AM -0.04 31.928 0.056 6.19 1.33 14.16
2/4/2021 9:45:00 AM -0.04 31.928 0.057 6.2 1.32 14.15
2/4/2021 10:00:00 AM -100000 -179968 -100000 -100000 -100000 -100000
2/4/2021 10:15:00 AM -0.04 31.928 0.057 6.19 1.35 14.18
2/4/2021 10:30:00 AM -0.04 31.928 0.057 6.19 1.33 14.16
2/4/2021 10:45:00 AM -0.03 31.946 0.057 6.2 1.32 14.18
2/4/2021 11:00:00 AM -0.04 31.928 0.057 6.19 1.34 14.18
2/4/2021 11:15:00 AM -0.04 31.928 0.057 6.19 1.33 14.18
2/4/2021 11:30:00 AM -0.03 31.946 0.057 6.19 1.33 14.18
2/4/2021 11:45:00 AM -0.04 31.928 0.057 6.19 1.32 14.19
2/4/2021 12:00:00 PM -0.04 31.928 0.057 6.18 1.29 14.18
2/4/2021 12:15:00 PM -0.04 31.928 0.057 6.19 1.43 14.18
2/4/2021 12:30:00 PM -0.04 31.928 0.057 6.18 1.28 14.18
2/4/2021 12:45:00 PM -0.04 31.928 0.057 6.18 1.33 14.17
2/4/2021 1:00:00 PM -0.04 31.928 0.056 6.18 1.36 14.17
2/4/2021 1:15:00 PM -0.04 31.928 0.056 6.18 1.41 14.16
2/4/2021 1:30:00 PM -0.05 31.91 0.054 6.17 1.4 14.18
2/4/2021 1:45:00 PM -0.05 31.91 0.053 6.16 1.39 14.18
2/4/2021 2:00:00 PM -0.05 31.91 0.052 6.16 1.82 14.18
2/4/2021 2:15:00 PM -0.05 31.91 0.051 6.16 1.47 14.17
2/4/2021 2:30:00 PM -0.05 31.91 0.049 6.16 1.44 14.17
2/4/2021 2:45:00 PM -0.06 31.892 0.049 6.15 1.5 14.16
2/4/2021 3:00:00 PM -0.05 31.91 0.048 6.16 1.4 14.15
2/4/2021 3:15:00 PM -0.05 31.91 0.048 6.15 1.45 14.15
2/4/2021 3:30:00 PM -0.05 31.91 0.048 6.16 1.34 14.15
2/4/2021 3:45:00 PM -0.05 31.91 0.048 6.16 1.35 14.14
2/4/2021 4:00:00 PM -0.05 31.91 0.048 6.16 1.36 14.13
2/4/2021 4:15:00 PM -0.05 31.91 0.048 6.16 1.39 14.12
2/4/2021 4:30:00 PM -0.05 31.91 0.049 6.16 1.37 14.12
2/4/2021 4:45:00 PM -0.05 31.91 0.049 6.16 1.39 14.11
2/4/2021 5:00:00 PM -0.05 31.91 0.049 6.16 1.37 14.11
2/4/2021 5:15:00 PM -0.05 31.91 0.049 6.16 1.35 14.1
2/4/2021 5:30:00 PM -0.05 31.91 0.05 6.16 1.35 14.09
2/4/2021 5:45:00 PM -0.05 31.91 0.05 6.16 1.36 14.08
2/4/2021 6:00:00 PM -0.05 31.91 0.05 6.16 1.33 14.08
2/4/2021 6:15:00 PM -0.05 31.91 0.05 6.17 1.34 14.08
2/4/2021 6:30:00 PM -0.05 31.91 0.051 6.16 1.38 14.07
2/4/2021 6:45:00 PM -0.05 31.91 0.051 6.16 1.37 14.06
2/4/2021 7:00:00 PM -0.05 31.91 0.051 6.16 1.35 14.06
2/4/2021 7:15:00 PM -0.05 31.91 0.051 6.16 1.38 14.06
2/4/2021 7:30:00 PM -0.05 31.91 0.051 6.16 1.34 14.05
2/4/2021 7:45:00 PM -0.05 31.91 0.052 6.16 1.35 14.05
2/4/2021 8:00:00 PM -0.05 31.91 0.052 6.16 1.32 14.04
2/4/2021 8:15:00 PM -0.05 31.91 0.052 6.16 1.36 14.04
2/4/2021 8:30:00 PM -0.05 31.91 0.052 6.16 1.33 14.03
2/4/2021 8:45:00 PM -0.05 31.91 0.052 6.16 1.35 14.03
2/4/2021 9:00:00 PM -0.05 31.91 0.052 6.16 1.35 14.02
2/4/2021 9:15:00 PM -0.05 31.91 0.052 6.16 1.33 14.02
2/4/2021 9:30:00 PM -0.05 31.91 0.052 6.16 1.49 14.01
2/4/2021 9:45:00 PM -0.04 31.928 0.053 6.17 1.33 14.01
2/4/2021 10:00:00 PM -0.05 31.91 0.053 6.17 1.33 14.01
2/4/2021 10:15:00 PM -0.05 31.91 0.053 6.16 1.36 14
2/4/2021 10:30:00 PM -0.05 31.91 0.053 6.16 1.31 14
2/4/2021 10:45:00 PM -0.05 31.91 0.053 6.16 1.35 14
2/4/2021 11:00:00 PM -0.05 31.91 0.053 6.16 1.36 13.99
2/4/2021 11:15:00 PM -0.05 31.91 0.053 6.16 1.37 13.99
2/4/2021 11:30:00 PM -0.05 31.91 0.053 6.17 1.32 13.98
2/4/2021 11:45:00 PM -0.04 31.928 0.053 6.17 1.36 13.98
2/5/2021 12:00:00 AM -0.04 31.928 0.053 6.17 1.31 13.97
2/5/2021 12:15:00 AM -0.05 31.91 0.053 6.17 1.37 13.98
2/5/2021 12:30:00 AM -0.05 31.91 0.053 6.16 1.32 13.98
2/5/2021 12:45:00 AM -0.05 31.91 0.053 6.17 1.33 13.97
2/5/2021 1:00:00 AM -0.05 31.91 0.053 6.17 1.34 13.97
2/5/2021 1:15:00 AM -0.05 31.91 0.053 6.17 1.32 13.97
2/5/2021 1:30:00 AM -0.05 31.91 0.053 6.17 1.31 13.96
2/5/2021 1:45:00 AM -0.05 31.91 0.053 6.17 1.34 13.95
2/5/2021 2:00:00 AM -0.05 31.91 0.053 6.17 1.43 13.95
2/5/2021 2:15:00 AM -0.05 31.91 0.053 6.17 1.33 13.95
2/5/2021 2:30:00 AM -0.05 31.91 0.053 6.17 1.33 13.94
2/5/2021 2:45:00 AM -0.05 31.91 0.053 6.17 1.36 13.94
2/5/2021 3:00:00 AM -0.05 31.91 0.053 6.18 1.33 13.94
2/5/2021 3:15:00 AM -0.05 31.91 0.053 6.18 1.35 13.92
2/5/2021 3:30:00 AM -0.05 31.91 0.053 6.17 1.35 13.93
2/5/2021 3:45:00 AM -0.05 31.91 0.053 6.17 1.32 13.92
2/5/2021 4:00:00 AM -0.04 31.928 0.053 6.18 1.36 13.92
2/5/2021 4:15:00 AM -0.05 31.91 0.053 6.18 1.33 13.91
2/5/2021 4:30:00 AM -0.05 31.91 0.053 6.17 1.32 13.91
2/5/2021 4:45:00 AM -0.04 31.928 0.053 6.18 1.36 13.9
2/5/2021 5:00:00 AM -0.05 31.91 0.053 6.17 1.35 13.9
2/5/2021 5:15:00 AM -0.05 31.91 0.053 6.18 1.29 13.9
2/5/2021 5:30:00 AM -0.04 31.928 0.053 6.17 1.36 13.89
2/5/2021 5:45:00 AM -100000 -179968 -100000 -100000 -100000 -100000
2/5/2021 6:00:00 AM -0.05 31.91 0.053 6.17 1.33 13.89
2/5/2021 6:15:00 AM -100000 -179968 -100000 -100000 -100000 -100000
2/5/2021 6:30:00 AM -0.05 31.91 0.053 6.17 1.33 13.89
2/5/2021 6:45:00 AM -0.05 31.91 0.053 6.17 1.33 13.88
2/5/2021 7:00:00 AM -0.04 31.928 0.053 6.17 1.32 13.88
2/5/2021 7:15:00 AM -0.04 31.928 0.053 6.17 1.35 13.88
2/5/2021 7:30:00 AM -0.05 31.91 0.053 6.17 1.35 13.89
2/5/2021 7:45:00 AM -100000 -179968 -100000 -100000 -100000 -100000
2/5/2021 8:00:00 AM -0.04 31.928 0.053 6.17 1.33 13.88
2/5/2021 8:15:00 AM -0.04 31.928 0.053 6.17 1.34 13.88
2/5/2021 8:30:00 AM -0.04 31.928 0.053 6.19 1.39 13.88
2/5/2021 8:45:00 AM -0.04 31.928 0.053 6.17 1.34 13.9